<?xml version="1.0" encoding="UTF-8" standalone="no" ?>
<gpx xmlns="http://www.topografix.com/GPX/1/1" xmlns:xsi="http://www.w3.org/2001/XMLSchema-instance" xsi:schemaLocation="http://www.topografix.com/GPX/1/1 http://www.topografix.com/GPX/1/1/gpx.xsd" version="1.1" creator="VisuGPX - https://www.visugpx.com">
  <metadata>
    <name>randonnée raquettes départ la Schlucht.</name>
    <desc><![CDATA[départ la Schlucht ,les trois fours direction le honneck,refuge des trois fours,retour la schlucht par le Collet.]]></desc>
  </metadata>
  <trk>
    <name><![CDATA[2016-03-07 17:42:28]]></name>
    <trkseg>
      <trkpt lat="48.06256" lon="7.02318">
        <ele>1224.42</ele>
        <time>2016-03-07T09:12:31Z</time>
      </trkpt>
      <trkpt lat="48.06261" lon="7.02344">
        <ele>1224.42</ele>
        <time>2016-03-07T09:12:32Z</time>
      </trkpt>
      <trkpt lat="48.06345" lon="7.02185">
        <ele>1224.73</ele>
        <time>2016-03-07T09:12:44Z</time>
      </trkpt>
      <trkpt lat="48.0633" lon="7.02218">
        <ele>1222.55</ele>
        <time>2016-03-07T09:13:04Z</time>
      </trkpt>
      <trkpt lat="48.0633" lon="7.02219">
        <ele>1215.3</ele>
        <time>2016-03-07T09:13:21Z</time>
      </trkpt>
      <trkpt lat="48.0633" lon="7.02219">
        <ele>1223.99</ele>
        <time>2016-03-07T09:13:22Z</time>
      </trkpt>
      <trkpt lat="48.0633" lon="7.02219">
        <ele>1223.62</ele>
        <time>2016-03-07T09:13:23Z</time>
      </trkpt>
      <trkpt lat="48.0633" lon="7.02219">
        <ele>1222.13</ele>
        <time>2016-03-07T09:13:25Z</time>
      </trkpt>
      <trkpt lat="48.06331" lon="7.02219">
        <ele>1214.54</ele>
        <time>2016-03-07T09:13:43Z</time>
      </trkpt>
      <trkpt lat="48.06331" lon="7.02219">
        <ele>1228.36</ele>
        <time>2016-03-07T09:13:44Z</time>
      </trkpt>
      <trkpt lat="48.06331" lon="7.0222">
        <ele>1221.58</ele>
        <time>2016-03-07T09:13:45Z</time>
      </trkpt>
      <trkpt lat="48.06333" lon="7.02218">
        <ele>1218.48</ele>
        <time>2016-03-07T09:13:52Z</time>
      </trkpt>
      <trkpt lat="48.06333" lon="7.02219">
        <ele>1219.34</ele>
        <time>2016-03-07T09:13:53Z</time>
      </trkpt>
      <trkpt lat="48.06333" lon="7.02219">
        <ele>1220.82</ele>
        <time>2016-03-07T09:13:55Z</time>
      </trkpt>
      <trkpt lat="48.06334" lon="7.02218">
        <ele>1213.96</ele>
        <time>2016-03-07T09:13:56Z</time>
      </trkpt>
      <trkpt lat="48.06334" lon="7.02218">
        <ele>1219.85</ele>
        <time>2016-03-07T09:13:57Z</time>
      </trkpt>
      <trkpt lat="48.06334" lon="7.02217">
        <ele>1225.07</ele>
        <time>2016-03-07T09:13:59Z</time>
      </trkpt>
      <trkpt lat="48.06335" lon="7.02216">
        <ele>1221.94</ele>
        <time>2016-03-07T09:14:00Z</time>
      </trkpt>
      <trkpt lat="48.06337" lon="7.02215">
        <ele>1220.28</ele>
        <time>2016-03-07T09:14:02Z</time>
      </trkpt>
      <trkpt lat="48.06346" lon="7.02212">
        <ele>1219.21</ele>
        <time>2016-03-07T09:14:20Z</time>
      </trkpt>
      <trkpt lat="48.06347" lon="7.02206">
        <ele>1217.59</ele>
        <time>2016-03-07T09:14:46Z</time>
      </trkpt>
      <trkpt lat="48.06348" lon="7.02207">
        <ele>1213.1</ele>
        <time>2016-03-07T09:14:55Z</time>
      </trkpt>
      <trkpt lat="48.06348" lon="7.02207">
        <ele>1219.75</ele>
        <time>2016-03-07T09:14:56Z</time>
      </trkpt>
      <trkpt lat="48.06348" lon="7.02206">
        <ele>1216.68</ele>
        <time>2016-03-07T09:15:11Z</time>
      </trkpt>
      <trkpt lat="48.06348" lon="7.02206">
        <ele>1215.22</ele>
        <time>2016-03-07T09:15:41Z</time>
      </trkpt>
      <trkpt lat="48.06348" lon="7.02205">
        <ele>1213.81</ele>
        <time>2016-03-07T09:16:16Z</time>
      </trkpt>
      <trkpt lat="48.06348" lon="7.02206">
        <ele>1212.71</ele>
        <time>2016-03-07T09:16:39Z</time>
      </trkpt>
      <trkpt lat="48.06347" lon="7.02206">
        <ele>1211.99</ele>
        <time>2016-03-07T09:17:11Z</time>
      </trkpt>
      <trkpt lat="48.06348" lon="7.02207">
        <ele>1209.79</ele>
        <time>2016-03-07T09:17:43Z</time>
      </trkpt>
      <trkpt lat="48.06349" lon="7.02205">
        <ele>1208.81</ele>
        <time>2016-03-07T09:18:16Z</time>
      </trkpt>
      <trkpt lat="48.06345" lon="7.02204">
        <ele>1208.36</ele>
        <time>2016-03-07T09:18:44Z</time>
      </trkpt>
      <trkpt lat="48.06345" lon="7.02202">
        <ele>1207.52</ele>
        <time>2016-03-07T09:18:46Z</time>
      </trkpt>
      <trkpt lat="48.06341" lon="7.02194">
        <ele>1206.65</ele>
        <time>2016-03-07T09:19:01Z</time>
      </trkpt>
      <trkpt lat="48.06338" lon="7.02188">
        <ele>1206.39</ele>
        <time>2016-03-07T09:19:10Z</time>
      </trkpt>
      <trkpt lat="48.06335" lon="7.02173">
        <ele>1206.03</ele>
        <time>2016-03-07T09:19:24Z</time>
      </trkpt>
      <trkpt lat="48.06329" lon="7.02167">
        <ele>1207.5</ele>
        <time>2016-03-07T09:19:32Z</time>
      </trkpt>
      <trkpt lat="48.06316" lon="7.02165">
        <ele>1206.36</ele>
        <time>2016-03-07T09:19:45Z</time>
      </trkpt>
      <trkpt lat="48.063" lon="7.02157">
        <ele>1207.33</ele>
        <time>2016-03-07T09:20:03Z</time>
      </trkpt>
      <trkpt lat="48.06286" lon="7.02162">
        <ele>1208.67</ele>
        <time>2016-03-07T09:20:21Z</time>
      </trkpt>
      <trkpt lat="48.06273" lon="7.02163">
        <ele>1209.3</ele>
        <time>2016-03-07T09:20:39Z</time>
      </trkpt>
      <trkpt lat="48.06263" lon="7.02157">
        <ele>1209.09</ele>
        <time>2016-03-07T09:20:54Z</time>
      </trkpt>
      <trkpt lat="48.0626" lon="7.02156">
        <ele>1209</ele>
        <time>2016-03-07T09:20:57Z</time>
      </trkpt>
      <trkpt lat="48.06244" lon="7.02146">
        <ele>1208.6</ele>
        <time>2016-03-07T09:21:16Z</time>
      </trkpt>
      <trkpt lat="48.06233" lon="7.0214">
        <ele>1210.17</ele>
        <time>2016-03-07T09:21:32Z</time>
      </trkpt>
      <trkpt lat="48.0622" lon="7.02136">
        <ele>1211.48</ele>
        <time>2016-03-07T09:21:49Z</time>
      </trkpt>
      <trkpt lat="48.06208" lon="7.02132">
        <ele>1212.39</ele>
        <time>2016-03-07T09:22:07Z</time>
      </trkpt>
      <trkpt lat="48.06199" lon="7.02128">
        <ele>1212.85</ele>
        <time>2016-03-07T09:22:23Z</time>
      </trkpt>
      <trkpt lat="48.06193" lon="7.02124">
        <ele>1213.41</ele>
        <time>2016-03-07T09:22:38Z</time>
      </trkpt>
      <trkpt lat="48.0618" lon="7.0212">
        <ele>1213.78</ele>
        <time>2016-03-07T09:22:55Z</time>
      </trkpt>
      <trkpt lat="48.06167" lon="7.02118">
        <ele>1215.19</ele>
        <time>2016-03-07T09:23:12Z</time>
      </trkpt>
      <trkpt lat="48.06154" lon="7.02114">
        <ele>1216.67</ele>
        <time>2016-03-07T09:23:31Z</time>
      </trkpt>
      <trkpt lat="48.06143" lon="7.02109">
        <ele>1219.28</ele>
        <time>2016-03-07T09:23:50Z</time>
      </trkpt>
      <trkpt lat="48.0614" lon="7.02106">
        <ele>1219.76</ele>
        <time>2016-03-07T09:24:07Z</time>
      </trkpt>
      <trkpt lat="48.06132" lon="7.02103">
        <ele>1219.76</ele>
        <time>2016-03-07T09:24:26Z</time>
      </trkpt>
      <trkpt lat="48.0612" lon="7.02096">
        <ele>1220.88</ele>
        <time>2016-03-07T09:24:43Z</time>
      </trkpt>
      <trkpt lat="48.0611" lon="7.0209">
        <ele>1222.23</ele>
        <time>2016-03-07T09:25:00Z</time>
      </trkpt>
      <trkpt lat="48.061" lon="7.02086">
        <ele>1224.2</ele>
        <time>2016-03-07T09:25:17Z</time>
      </trkpt>
      <trkpt lat="48.06087" lon="7.0208">
        <ele>1226.6</ele>
        <time>2016-03-07T09:25:40Z</time>
      </trkpt>
      <trkpt lat="48.06081" lon="7.02076">
        <ele>1227.7</ele>
        <time>2016-03-07T09:26:03Z</time>
      </trkpt>
      <trkpt lat="48.06074" lon="7.02072">
        <ele>1229.63</ele>
        <time>2016-03-07T09:26:20Z</time>
      </trkpt>
      <trkpt lat="48.06063" lon="7.02067">
        <ele>1231.36</ele>
        <time>2016-03-07T09:26:37Z</time>
      </trkpt>
      <trkpt lat="48.0605" lon="7.02061">
        <ele>1233.49</ele>
        <time>2016-03-07T09:26:56Z</time>
      </trkpt>
      <trkpt lat="48.06039" lon="7.02056">
        <ele>1235.59</ele>
        <time>2016-03-07T09:27:15Z</time>
      </trkpt>
      <trkpt lat="48.06034" lon="7.02044">
        <ele>1237.03</ele>
        <time>2016-03-07T09:27:32Z</time>
      </trkpt>
      <trkpt lat="48.06028" lon="7.0203">
        <ele>1237.95</ele>
        <time>2016-03-07T09:27:50Z</time>
      </trkpt>
      <trkpt lat="48.06023" lon="7.02014">
        <ele>1239.71</ele>
        <time>2016-03-07T09:28:11Z</time>
      </trkpt>
      <trkpt lat="48.06019" lon="7.02001">
        <ele>1241.3</ele>
        <time>2016-03-07T09:28:29Z</time>
      </trkpt>
      <trkpt lat="48.06009" lon="7.01993">
        <ele>1243.58</ele>
        <time>2016-03-07T09:28:50Z</time>
      </trkpt>
      <trkpt lat="48.06004" lon="7.01987">
        <ele>1244.91</ele>
        <time>2016-03-07T09:29:09Z</time>
      </trkpt>
      <trkpt lat="48.06004" lon="7.01986">
        <ele>1244.16</ele>
        <time>2016-03-07T09:29:30Z</time>
      </trkpt>
      <trkpt lat="48.06004" lon="7.01986">
        <ele>1243.55</ele>
        <time>2016-03-07T09:29:49Z</time>
      </trkpt>
      <trkpt lat="48.06001" lon="7.01979">
        <ele>1244.29</ele>
        <time>2016-03-07T09:30:06Z</time>
      </trkpt>
      <trkpt lat="48.06002" lon="7.01957">
        <ele>1244.45</ele>
        <time>2016-03-07T09:30:23Z</time>
      </trkpt>
      <trkpt lat="48.06002" lon="7.01932">
        <ele>1245.53</ele>
        <time>2016-03-07T09:30:44Z</time>
      </trkpt>
      <trkpt lat="48.05996" lon="7.01914">
        <ele>1246.14</ele>
        <time>2016-03-07T09:31:00Z</time>
      </trkpt>
      <trkpt lat="48.0599" lon="7.01896">
        <ele>1247.11</ele>
        <time>2016-03-07T09:31:18Z</time>
      </trkpt>
      <trkpt lat="48.05985" lon="7.01878">
        <ele>1249.03</ele>
        <time>2016-03-07T09:31:37Z</time>
      </trkpt>
      <trkpt lat="48.05981" lon="7.01856">
        <ele>1250</ele>
        <time>2016-03-07T09:31:58Z</time>
      </trkpt>
      <trkpt lat="48.05977" lon="7.01835">
        <ele>1252.11</ele>
        <time>2016-03-07T09:32:18Z</time>
      </trkpt>
      <trkpt lat="48.05974" lon="7.01823">
        <ele>1251.43</ele>
        <time>2016-03-07T09:32:37Z</time>
      </trkpt>
      <trkpt lat="48.05968" lon="7.01813">
        <ele>1252.21</ele>
        <time>2016-03-07T09:32:54Z</time>
      </trkpt>
      <trkpt lat="48.05963" lon="7.018">
        <ele>1253.55</ele>
        <time>2016-03-07T09:33:11Z</time>
      </trkpt>
      <trkpt lat="48.05962" lon="7.01797">
        <ele>1253.42</ele>
        <time>2016-03-07T09:33:26Z</time>
      </trkpt>
      <trkpt lat="48.05958" lon="7.01779">
        <ele>1254.74</ele>
        <time>2016-03-07T09:33:42Z</time>
      </trkpt>
      <trkpt lat="48.05951" lon="7.01761">
        <ele>1254.75</ele>
        <time>2016-03-07T09:34:00Z</time>
      </trkpt>
      <trkpt lat="48.0594" lon="7.0175">
        <ele>1256.48</ele>
        <time>2016-03-07T09:34:18Z</time>
      </trkpt>
      <trkpt lat="48.05941" lon="7.01738">
        <ele>1256.02</ele>
        <time>2016-03-07T09:34:34Z</time>
      </trkpt>
      <trkpt lat="48.0594" lon="7.01739">
        <ele>1256.1</ele>
        <time>2016-03-07T09:34:49Z</time>
      </trkpt>
      <trkpt lat="48.05939" lon="7.01738">
        <ele>1255.79</ele>
        <time>2016-03-07T09:35:05Z</time>
      </trkpt>
      <trkpt lat="48.0594" lon="7.01735">
        <ele>1255.09</ele>
        <time>2016-03-07T09:35:27Z</time>
      </trkpt>
      <trkpt lat="48.05939" lon="7.01736">
        <ele>1254.03</ele>
        <time>2016-03-07T09:35:47Z</time>
      </trkpt>
      <trkpt lat="48.05939" lon="7.01736">
        <ele>1253.53</ele>
        <time>2016-03-07T09:36:10Z</time>
      </trkpt>
      <trkpt lat="48.0594" lon="7.01734">
        <ele>1252.54</ele>
        <time>2016-03-07T09:36:39Z</time>
      </trkpt>
      <trkpt lat="48.0594" lon="7.01732">
        <ele>1252.08</ele>
        <time>2016-03-07T09:37:05Z</time>
      </trkpt>
      <trkpt lat="48.05939" lon="7.01735">
        <ele>1250.96</ele>
        <time>2016-03-07T09:37:27Z</time>
      </trkpt>
      <trkpt lat="48.05938" lon="7.01736">
        <ele>1251.1</ele>
        <time>2016-03-07T09:37:46Z</time>
      </trkpt>
      <trkpt lat="48.05939" lon="7.01735">
        <ele>1250.35</ele>
        <time>2016-03-07T09:38:13Z</time>
      </trkpt>
      <trkpt lat="48.0594" lon="7.01735">
        <ele>1249.37</ele>
        <time>2016-03-07T09:38:36Z</time>
      </trkpt>
      <trkpt lat="48.0594" lon="7.01736">
        <ele>1249.62</ele>
        <time>2016-03-07T09:39:01Z</time>
      </trkpt>
      <trkpt lat="48.0594" lon="7.01735">
        <ele>1248.99</ele>
        <time>2016-03-07T09:39:24Z</time>
      </trkpt>
      <trkpt lat="48.05933" lon="7.01733">
        <ele>1248.8</ele>
        <time>2016-03-07T09:39:43Z</time>
      </trkpt>
      <trkpt lat="48.05931" lon="7.0173">
        <ele>1249.08</ele>
        <time>2016-03-07T09:40:03Z</time>
      </trkpt>
      <trkpt lat="48.05929" lon="7.01734">
        <ele>1248.8</ele>
        <time>2016-03-07T09:40:29Z</time>
      </trkpt>
      <trkpt lat="48.05924" lon="7.01728">
        <ele>1248.68</ele>
        <time>2016-03-07T09:40:53Z</time>
      </trkpt>
      <trkpt lat="48.05916" lon="7.01715">
        <ele>1249.94</ele>
        <time>2016-03-07T09:41:15Z</time>
      </trkpt>
      <trkpt lat="48.05906" lon="7.0171">
        <ele>1250.64</ele>
        <time>2016-03-07T09:41:37Z</time>
      </trkpt>
      <trkpt lat="48.05896" lon="7.01706">
        <ele>1252.41</ele>
        <time>2016-03-07T09:41:57Z</time>
      </trkpt>
      <trkpt lat="48.05885" lon="7.01702">
        <ele>1253.28</ele>
        <time>2016-03-07T09:42:18Z</time>
      </trkpt>
      <trkpt lat="48.05873" lon="7.01706">
        <ele>1254.49</ele>
        <time>2016-03-07T09:42:40Z</time>
      </trkpt>
      <trkpt lat="48.05861" lon="7.017">
        <ele>1255.9</ele>
        <time>2016-03-07T09:43:06Z</time>
      </trkpt>
      <trkpt lat="48.05851" lon="7.01703">
        <ele>1257.61</ele>
        <time>2016-03-07T09:43:26Z</time>
      </trkpt>
      <trkpt lat="48.05843" lon="7.01709">
        <ele>1259.78</ele>
        <time>2016-03-07T09:43:50Z</time>
      </trkpt>
      <trkpt lat="48.05839" lon="7.01718">
        <ele>1260.56</ele>
        <time>2016-03-07T09:44:11Z</time>
      </trkpt>
      <trkpt lat="48.05832" lon="7.01732">
        <ele>1262.5</ele>
        <time>2016-03-07T09:44:34Z</time>
      </trkpt>
      <trkpt lat="48.05827" lon="7.01744">
        <ele>1263.24</ele>
        <time>2016-03-07T09:44:54Z</time>
      </trkpt>
      <trkpt lat="48.05821" lon="7.01747">
        <ele>1264.04</ele>
        <time>2016-03-07T09:45:16Z</time>
      </trkpt>
      <trkpt lat="48.05811" lon="7.01754">
        <ele>1264.62</ele>
        <time>2016-03-07T09:45:40Z</time>
      </trkpt>
      <trkpt lat="48.05801" lon="7.01765">
        <ele>1265.93</ele>
        <time>2016-03-07T09:46:00Z</time>
      </trkpt>
      <trkpt lat="48.05799" lon="7.01766">
        <ele>1266.42</ele>
        <time>2016-03-07T09:46:19Z</time>
      </trkpt>
      <trkpt lat="48.05797" lon="7.01764">
        <ele>1265.34</ele>
        <time>2016-03-07T09:46:47Z</time>
      </trkpt>
      <trkpt lat="48.05795" lon="7.01761">
        <ele>1265.58</ele>
        <time>2016-03-07T09:47:15Z</time>
      </trkpt>
      <trkpt lat="48.05787" lon="7.01757">
        <ele>1265.83</ele>
        <time>2016-03-07T09:47:33Z</time>
      </trkpt>
      <trkpt lat="48.05777" lon="7.01755">
        <ele>1266.35</ele>
        <time>2016-03-07T09:47:51Z</time>
      </trkpt>
      <trkpt lat="48.05765" lon="7.01759">
        <ele>1268.3</ele>
        <time>2016-03-07T09:48:13Z</time>
      </trkpt>
      <trkpt lat="48.05754" lon="7.01764">
        <ele>1269.96</ele>
        <time>2016-03-07T09:48:32Z</time>
      </trkpt>
      <trkpt lat="48.05743" lon="7.01769">
        <ele>1271.34</ele>
        <time>2016-03-07T09:48:54Z</time>
      </trkpt>
      <trkpt lat="48.05732" lon="7.01778">
        <ele>1272.41</ele>
        <time>2016-03-07T09:49:15Z</time>
      </trkpt>
      <trkpt lat="48.05724" lon="7.01789">
        <ele>1273.38</ele>
        <time>2016-03-07T09:49:36Z</time>
      </trkpt>
      <trkpt lat="48.05715" lon="7.01804">
        <ele>1274.34</ele>
        <time>2016-03-07T09:49:56Z</time>
      </trkpt>
      <trkpt lat="48.05698" lon="7.01806">
        <ele>1275.95</ele>
        <time>2016-03-07T09:50:15Z</time>
      </trkpt>
      <trkpt lat="48.05685" lon="7.01805">
        <ele>1276.66</ele>
        <time>2016-03-07T09:50:32Z</time>
      </trkpt>
      <trkpt lat="48.05673" lon="7.01805">
        <ele>1279.68</ele>
        <time>2016-03-07T09:50:48Z</time>
      </trkpt>
      <trkpt lat="48.0566" lon="7.01806">
        <ele>1278.99</ele>
        <time>2016-03-07T09:51:03Z</time>
      </trkpt>
      <trkpt lat="48.05648" lon="7.01811">
        <ele>1280.14</ele>
        <time>2016-03-07T09:51:20Z</time>
      </trkpt>
      <trkpt lat="48.05638" lon="7.01803">
        <ele>1280.84</ele>
        <time>2016-03-07T09:51:37Z</time>
      </trkpt>
      <trkpt lat="48.0563" lon="7.01784">
        <ele>1279.08</ele>
        <time>2016-03-07T09:51:55Z</time>
      </trkpt>
      <trkpt lat="48.05633" lon="7.01767">
        <ele>1278.03</ele>
        <time>2016-03-07T09:52:12Z</time>
      </trkpt>
      <trkpt lat="48.05637" lon="7.01736">
        <ele>1274.79</ele>
        <time>2016-03-07T09:52:33Z</time>
      </trkpt>
      <trkpt lat="48.05638" lon="7.01709">
        <ele>1271.8</ele>
        <time>2016-03-07T09:52:54Z</time>
      </trkpt>
      <trkpt lat="48.05638" lon="7.01688">
        <ele>1270.12</ele>
        <time>2016-03-07T09:53:09Z</time>
      </trkpt>
      <trkpt lat="48.05634" lon="7.01663">
        <ele>1267.2</ele>
        <time>2016-03-07T09:53:27Z</time>
      </trkpt>
      <trkpt lat="48.05622" lon="7.01652">
        <ele>1265.19</ele>
        <time>2016-03-07T09:53:43Z</time>
      </trkpt>
      <trkpt lat="48.05609" lon="7.01639">
        <ele>1263.93</ele>
        <time>2016-03-07T09:54:04Z</time>
      </trkpt>
      <trkpt lat="48.05595" lon="7.0162">
        <ele>1261.07</ele>
        <time>2016-03-07T09:54:25Z</time>
      </trkpt>
      <trkpt lat="48.05581" lon="7.01597">
        <ele>1259.66</ele>
        <time>2016-03-07T09:54:45Z</time>
      </trkpt>
      <trkpt lat="48.0557" lon="7.01581">
        <ele>1258.16</ele>
        <time>2016-03-07T09:55:06Z</time>
      </trkpt>
      <trkpt lat="48.05556" lon="7.01557">
        <ele>1255.66</ele>
        <time>2016-03-07T09:55:28Z</time>
      </trkpt>
      <trkpt lat="48.05548" lon="7.01545">
        <ele>1254.49</ele>
        <time>2016-03-07T09:55:48Z</time>
      </trkpt>
      <trkpt lat="48.05536" lon="7.01521">
        <ele>1252.36</ele>
        <time>2016-03-07T09:56:12Z</time>
      </trkpt>
      <trkpt lat="48.05521" lon="7.01499">
        <ele>1250.37</ele>
        <time>2016-03-07T09:56:33Z</time>
      </trkpt>
      <trkpt lat="48.05509" lon="7.01482">
        <ele>1247.99</ele>
        <time>2016-03-07T09:56:53Z</time>
      </trkpt>
      <trkpt lat="48.05497" lon="7.0146">
        <ele>1245.56</ele>
        <time>2016-03-07T09:57:13Z</time>
      </trkpt>
      <trkpt lat="48.05491" lon="7.0145">
        <ele>1244.16</ele>
        <time>2016-03-07T09:57:32Z</time>
      </trkpt>
      <trkpt lat="48.05482" lon="7.01442">
        <ele>1244.2</ele>
        <time>2016-03-07T09:57:53Z</time>
      </trkpt>
      <trkpt lat="48.05482" lon="7.01454">
        <ele>1245.44</ele>
        <time>2016-03-07T09:58:13Z</time>
      </trkpt>
      <trkpt lat="48.05479" lon="7.0147">
        <ele>1247.47</ele>
        <time>2016-03-07T09:58:34Z</time>
      </trkpt>
      <trkpt lat="48.0548" lon="7.01486">
        <ele>1248.46</ele>
        <time>2016-03-07T09:58:57Z</time>
      </trkpt>
      <trkpt lat="48.05479" lon="7.01497">
        <ele>1250.36</ele>
        <time>2016-03-07T09:59:16Z</time>
      </trkpt>
      <trkpt lat="48.05482" lon="7.01508">
        <ele>1251.66</ele>
        <time>2016-03-07T09:59:36Z</time>
      </trkpt>
      <trkpt lat="48.05487" lon="7.01524">
        <ele>1253.6</ele>
        <time>2016-03-07T09:59:57Z</time>
      </trkpt>
      <trkpt lat="48.05482" lon="7.01539">
        <ele>1256.02</ele>
        <time>2016-03-07T10:00:17Z</time>
      </trkpt>
      <trkpt lat="48.05477" lon="7.01557">
        <ele>1257.15</ele>
        <time>2016-03-07T10:00:41Z</time>
      </trkpt>
      <trkpt lat="48.05482" lon="7.01569">
        <ele>1258.52</ele>
        <time>2016-03-07T10:00:59Z</time>
      </trkpt>
      <trkpt lat="48.05483" lon="7.01573">
        <ele>1258.36</ele>
        <time>2016-03-07T10:01:23Z</time>
      </trkpt>
      <trkpt lat="48.05485" lon="7.01575">
        <ele>1258.93</ele>
        <time>2016-03-07T10:01:47Z</time>
      </trkpt>
      <trkpt lat="48.05488" lon="7.01585">
        <ele>1259.18</ele>
        <time>2016-03-07T10:02:08Z</time>
      </trkpt>
      <trkpt lat="48.05485" lon="7.01586">
        <ele>1258.54</ele>
        <time>2016-03-07T10:02:33Z</time>
      </trkpt>
      <trkpt lat="48.05488" lon="7.01588">
        <ele>1258.64</ele>
        <time>2016-03-07T10:03:05Z</time>
      </trkpt>
      <trkpt lat="48.05489" lon="7.01591">
        <ele>1258.52</ele>
        <time>2016-03-07T10:03:34Z</time>
      </trkpt>
      <trkpt lat="48.05492" lon="7.01602">
        <ele>1260.29</ele>
        <time>2016-03-07T10:03:52Z</time>
      </trkpt>
      <trkpt lat="48.05493" lon="7.01626">
        <ele>1261.74</ele>
        <time>2016-03-07T10:04:13Z</time>
      </trkpt>
      <trkpt lat="48.05495" lon="7.01649">
        <ele>1264.63</ele>
        <time>2016-03-07T10:04:32Z</time>
      </trkpt>
      <trkpt lat="48.05497" lon="7.01672">
        <ele>1265.51</ele>
        <time>2016-03-07T10:04:50Z</time>
      </trkpt>
      <trkpt lat="48.05502" lon="7.0169">
        <ele>1267.61</ele>
        <time>2016-03-07T10:05:09Z</time>
      </trkpt>
      <trkpt lat="48.05509" lon="7.01713">
        <ele>1269.02</ele>
        <time>2016-03-07T10:05:30Z</time>
      </trkpt>
      <trkpt lat="48.05515" lon="7.01737">
        <ele>1270.76</ele>
        <time>2016-03-07T10:05:52Z</time>
      </trkpt>
      <trkpt lat="48.0551" lon="7.01761">
        <ele>1271.95</ele>
        <time>2016-03-07T10:06:14Z</time>
      </trkpt>
      <trkpt lat="48.05507" lon="7.01786">
        <ele>1272.76</ele>
        <time>2016-03-07T10:06:34Z</time>
      </trkpt>
      <trkpt lat="48.05504" lon="7.01804">
        <ele>1273.45</ele>
        <time>2016-03-07T10:06:51Z</time>
      </trkpt>
      <trkpt lat="48.05508" lon="7.01812">
        <ele>1272.26</ele>
        <time>2016-03-07T10:07:11Z</time>
      </trkpt>
      <trkpt lat="48.05508" lon="7.01817">
        <ele>1273.29</ele>
        <time>2016-03-07T10:07:15Z</time>
      </trkpt>
      <trkpt lat="48.05507" lon="7.01834">
        <ele>1273.46</ele>
        <time>2016-03-07T10:07:30Z</time>
      </trkpt>
      <trkpt lat="48.05519" lon="7.01839">
        <ele>1272.96</ele>
        <time>2016-03-07T10:07:48Z</time>
      </trkpt>
      <trkpt lat="48.05533" lon="7.01842">
        <ele>1272.28</ele>
        <time>2016-03-07T10:08:08Z</time>
      </trkpt>
      <trkpt lat="48.05542" lon="7.01833">
        <ele>1272.31</ele>
        <time>2016-03-07T10:08:29Z</time>
      </trkpt>
      <trkpt lat="48.05553" lon="7.01826">
        <ele>1271.12</ele>
        <time>2016-03-07T10:08:49Z</time>
      </trkpt>
      <trkpt lat="48.0557" lon="7.01827">
        <ele>1271.05</ele>
        <time>2016-03-07T10:09:07Z</time>
      </trkpt>
      <trkpt lat="48.05572" lon="7.01827">
        <ele>1270.34</ele>
        <time>2016-03-07T10:09:09Z</time>
      </trkpt>
      <trkpt lat="48.05591" lon="7.01829">
        <ele>1269.01</ele>
        <time>2016-03-07T10:09:29Z</time>
      </trkpt>
      <trkpt lat="48.05599" lon="7.01829">
        <ele>1268.46</ele>
        <time>2016-03-07T10:09:45Z</time>
      </trkpt>
      <trkpt lat="48.056" lon="7.01829">
        <ele>1268.37</ele>
        <time>2016-03-07T10:09:46Z</time>
      </trkpt>
      <trkpt lat="48.05608" lon="7.01833">
        <ele>1268.82</ele>
        <time>2016-03-07T10:10:02Z</time>
      </trkpt>
      <trkpt lat="48.0562" lon="7.01827">
        <ele>1268.68</ele>
        <time>2016-03-07T10:10:20Z</time>
      </trkpt>
      <trkpt lat="48.05632" lon="7.01821">
        <ele>1268.43</ele>
        <time>2016-03-07T10:10:40Z</time>
      </trkpt>
      <trkpt lat="48.05632" lon="7.0182">
        <ele>1268.18</ele>
        <time>2016-03-07T10:10:59Z</time>
      </trkpt>
      <trkpt lat="48.05633" lon="7.01822">
        <ele>1268.2</ele>
        <time>2016-03-07T10:11:18Z</time>
      </trkpt>
      <trkpt lat="48.05635" lon="7.01824">
        <ele>1267.69</ele>
        <time>2016-03-07T10:11:43Z</time>
      </trkpt>
      <trkpt lat="48.05636" lon="7.01825">
        <ele>1267.98</ele>
        <time>2016-03-07T10:12:10Z</time>
      </trkpt>
      <trkpt lat="48.05636" lon="7.01825">
        <ele>1267.97</ele>
        <time>2016-03-07T10:12:29Z</time>
      </trkpt>
      <trkpt lat="48.05636" lon="7.01827">
        <ele>1266.49</ele>
        <time>2016-03-07T10:13:03Z</time>
      </trkpt>
      <trkpt lat="48.05636" lon="7.01828">
        <ele>1266.32</ele>
        <time>2016-03-07T10:13:33Z</time>
      </trkpt>
      <trkpt lat="48.05636" lon="7.01828">
        <ele>1268.08</ele>
        <time>2016-03-07T10:13:37Z</time>
      </trkpt>
      <trkpt lat="48.05636" lon="7.01827">
        <ele>1267.86</ele>
        <time>2016-03-07T10:14:02Z</time>
      </trkpt>
      <trkpt lat="48.05642" lon="7.01827">
        <ele>1267.53</ele>
        <time>2016-03-07T10:14:20Z</time>
      </trkpt>
      <trkpt lat="48.05643" lon="7.0183">
        <ele>1267.83</ele>
        <time>2016-03-07T10:14:41Z</time>
      </trkpt>
      <trkpt lat="48.05644" lon="7.01831">
        <ele>1267.15</ele>
        <time>2016-03-07T10:15:01Z</time>
      </trkpt>
      <trkpt lat="48.05645" lon="7.01834">
        <ele>1266.96</ele>
        <time>2016-03-07T10:15:03Z</time>
      </trkpt>
      <trkpt lat="48.05657" lon="7.01853">
        <ele>1265.51</ele>
        <time>2016-03-07T10:15:19Z</time>
      </trkpt>
      <trkpt lat="48.05657" lon="7.01854">
        <ele>1265.5</ele>
        <time>2016-03-07T10:15:21Z</time>
      </trkpt>
      <trkpt lat="48.05659" lon="7.01858">
        <ele>1265.59</ele>
        <time>2016-03-07T10:15:24Z</time>
      </trkpt>
      <trkpt lat="48.05667" lon="7.01879">
        <ele>1263.87</ele>
        <time>2016-03-07T10:15:40Z</time>
      </trkpt>
      <trkpt lat="48.05669" lon="7.01897">
        <ele>1263.12</ele>
        <time>2016-03-07T10:15:52Z</time>
      </trkpt>
      <trkpt lat="48.0567" lon="7.019">
        <ele>1262.8</ele>
        <time>2016-03-07T10:15:54Z</time>
      </trkpt>
      <trkpt lat="48.0567" lon="7.01921">
        <ele>1261.62</ele>
        <time>2016-03-07T10:16:07Z</time>
      </trkpt>
      <trkpt lat="48.05668" lon="7.01941">
        <ele>1260.93</ele>
        <time>2016-03-07T10:16:20Z</time>
      </trkpt>
      <trkpt lat="48.05664" lon="7.0196">
        <ele>1259.68</ele>
        <time>2016-03-07T10:16:33Z</time>
      </trkpt>
      <trkpt lat="48.05663" lon="7.01965">
        <ele>1258.91</ele>
        <time>2016-03-07T10:16:36Z</time>
      </trkpt>
      <trkpt lat="48.05662" lon="7.0197">
        <ele>1258.37</ele>
        <time>2016-03-07T10:16:39Z</time>
      </trkpt>
      <trkpt lat="48.05663" lon="7.01983">
        <ele>1257.45</ele>
        <time>2016-03-07T10:16:48Z</time>
      </trkpt>
      <trkpt lat="48.05664" lon="7.01992">
        <ele>1256.86</ele>
        <time>2016-03-07T10:16:53Z</time>
      </trkpt>
      <trkpt lat="48.05665" lon="7.02018">
        <ele>1254.79</ele>
        <time>2016-03-07T10:17:08Z</time>
      </trkpt>
      <trkpt lat="48.05664" lon="7.02037">
        <ele>1253.68</ele>
        <time>2016-03-07T10:17:25Z</time>
      </trkpt>
      <trkpt lat="48.05665" lon="7.02039">
        <ele>1253.81</ele>
        <time>2016-03-07T10:17:27Z</time>
      </trkpt>
      <trkpt lat="48.05665" lon="7.02043">
        <ele>1253.13</ele>
        <time>2016-03-07T10:17:30Z</time>
      </trkpt>
      <trkpt lat="48.05664" lon="7.02046">
        <ele>1253.42</ele>
        <time>2016-03-07T10:17:32Z</time>
      </trkpt>
      <trkpt lat="48.05662" lon="7.02064">
        <ele>1251.44</ele>
        <time>2016-03-07T10:17:43Z</time>
      </trkpt>
      <trkpt lat="48.05662" lon="7.02087">
        <ele>1249.76</ele>
        <time>2016-03-07T10:17:57Z</time>
      </trkpt>
      <trkpt lat="48.05661" lon="7.02092">
        <ele>1249.42</ele>
        <time>2016-03-07T10:18:01Z</time>
      </trkpt>
      <trkpt lat="48.05656" lon="7.02102">
        <ele>1247.89</ele>
        <time>2016-03-07T10:18:11Z</time>
      </trkpt>
      <trkpt lat="48.0565" lon="7.02119">
        <ele>1248.07</ele>
        <time>2016-03-07T10:18:26Z</time>
      </trkpt>
      <trkpt lat="48.05649" lon="7.0214">
        <ele>1246.17</ele>
        <time>2016-03-07T10:18:43Z</time>
      </trkpt>
      <trkpt lat="48.05647" lon="7.02148">
        <ele>1247.05</ele>
        <time>2016-03-07T10:18:48Z</time>
      </trkpt>
      <trkpt lat="48.05636" lon="7.02161">
        <ele>1246.89</ele>
        <time>2016-03-07T10:19:02Z</time>
      </trkpt>
      <trkpt lat="48.05626" lon="7.02181">
        <ele>1247.43</ele>
        <time>2016-03-07T10:19:22Z</time>
      </trkpt>
      <trkpt lat="48.05627" lon="7.02185">
        <ele>1246.81</ele>
        <time>2016-03-07T10:19:46Z</time>
      </trkpt>
      <trkpt lat="48.05621" lon="7.02203">
        <ele>1246.34</ele>
        <time>2016-03-07T10:20:05Z</time>
      </trkpt>
      <trkpt lat="48.05614" lon="7.0222">
        <ele>1246.47</ele>
        <time>2016-03-07T10:20:21Z</time>
      </trkpt>
      <trkpt lat="48.05602" lon="7.02237">
        <ele>1246.33</ele>
        <time>2016-03-07T10:20:41Z</time>
      </trkpt>
      <trkpt lat="48.0559" lon="7.02257">
        <ele>1245.75</ele>
        <time>2016-03-07T10:21:00Z</time>
      </trkpt>
      <trkpt lat="48.05579" lon="7.02269">
        <ele>1244.82</ele>
        <time>2016-03-07T10:21:18Z</time>
      </trkpt>
      <trkpt lat="48.05559" lon="7.02282">
        <ele>1244.24</ele>
        <time>2016-03-07T10:21:39Z</time>
      </trkpt>
      <trkpt lat="48.05545" lon="7.02295">
        <ele>1244.5</ele>
        <time>2016-03-07T10:21:55Z</time>
      </trkpt>
      <trkpt lat="48.05539" lon="7.02298">
        <ele>1243.47</ele>
        <time>2016-03-07T10:22:05Z</time>
      </trkpt>
      <trkpt lat="48.05536" lon="7.02285">
        <ele>1243.53</ele>
        <time>2016-03-07T10:22:21Z</time>
      </trkpt>
      <trkpt lat="48.05535" lon="7.0228">
        <ele>1243.61</ele>
        <time>2016-03-07T10:22:25Z</time>
      </trkpt>
      <trkpt lat="48.0553" lon="7.02267">
        <ele>1244.36</ele>
        <time>2016-03-07T10:22:39Z</time>
      </trkpt>
      <trkpt lat="48.05525" lon="7.0225">
        <ele>1245.89</ele>
        <time>2016-03-07T10:22:58Z</time>
      </trkpt>
      <trkpt lat="48.05517" lon="7.02235">
        <ele>1246.04</ele>
        <time>2016-03-07T10:23:13Z</time>
      </trkpt>
      <trkpt lat="48.05503" lon="7.02217">
        <ele>1247.11</ele>
        <time>2016-03-07T10:23:36Z</time>
      </trkpt>
      <trkpt lat="48.05488" lon="7.02202">
        <ele>1247.5</ele>
        <time>2016-03-07T10:23:58Z</time>
      </trkpt>
      <trkpt lat="48.05474" lon="7.02193">
        <ele>1247.14</ele>
        <time>2016-03-07T10:24:19Z</time>
      </trkpt>
      <trkpt lat="48.05461" lon="7.02178">
        <ele>1247.02</ele>
        <time>2016-03-07T10:24:38Z</time>
      </trkpt>
      <trkpt lat="48.05445" lon="7.02166">
        <ele>1246.43</ele>
        <time>2016-03-07T10:24:57Z</time>
      </trkpt>
      <trkpt lat="48.05431" lon="7.0216">
        <ele>1245.71</ele>
        <time>2016-03-07T10:25:15Z</time>
      </trkpt>
      <trkpt lat="48.05421" lon="7.02147">
        <ele>1245.85</ele>
        <time>2016-03-07T10:25:34Z</time>
      </trkpt>
      <trkpt lat="48.05409" lon="7.02131">
        <ele>1246.44</ele>
        <time>2016-03-07T10:25:58Z</time>
      </trkpt>
      <trkpt lat="48.05401" lon="7.02121">
        <ele>1246.08</ele>
        <time>2016-03-07T10:26:17Z</time>
      </trkpt>
      <trkpt lat="48.05394" lon="7.02116">
        <ele>1246.53</ele>
        <time>2016-03-07T10:26:26Z</time>
      </trkpt>
      <trkpt lat="48.05393" lon="7.02113">
        <ele>1246.2</ele>
        <time>2016-03-07T10:26:28Z</time>
      </trkpt>
      <trkpt lat="48.05386" lon="7.02093">
        <ele>1246.71</ele>
        <time>2016-03-07T10:26:46Z</time>
      </trkpt>
      <trkpt lat="48.05384" lon="7.02083">
        <ele>1246.24</ele>
        <time>2016-03-07T10:27:05Z</time>
      </trkpt>
      <trkpt lat="48.0538" lon="7.02064">
        <ele>1246.88</ele>
        <time>2016-03-07T10:27:21Z</time>
      </trkpt>
      <trkpt lat="48.05371" lon="7.02058">
        <ele>1246.32</ele>
        <time>2016-03-07T10:27:36Z</time>
      </trkpt>
      <trkpt lat="48.05367" lon="7.02057">
        <ele>1246.05</ele>
        <time>2016-03-07T10:27:55Z</time>
      </trkpt>
      <trkpt lat="48.05367" lon="7.02057">
        <ele>1246.08</ele>
        <time>2016-03-07T10:28:22Z</time>
      </trkpt>
      <trkpt lat="48.05361" lon="7.02052">
        <ele>1245.49</ele>
        <time>2016-03-07T10:28:41Z</time>
      </trkpt>
      <trkpt lat="48.05354" lon="7.02052">
        <ele>1243.1</ele>
        <time>2016-03-07T10:28:53Z</time>
      </trkpt>
      <trkpt lat="48.05347" lon="7.02048">
        <ele>1243.34</ele>
        <time>2016-03-07T10:29:12Z</time>
      </trkpt>
      <trkpt lat="48.05339" lon="7.02043">
        <ele>1241.31</ele>
        <time>2016-03-07T10:29:24Z</time>
      </trkpt>
      <trkpt lat="48.05334" lon="7.02043">
        <ele>1240.41</ele>
        <time>2016-03-07T10:29:29Z</time>
      </trkpt>
      <trkpt lat="48.05315" lon="7.02046">
        <ele>1239.39</ele>
        <time>2016-03-07T10:29:44Z</time>
      </trkpt>
      <trkpt lat="48.05304" lon="7.02046">
        <ele>1237.79</ele>
        <time>2016-03-07T10:29:53Z</time>
      </trkpt>
      <trkpt lat="48.05292" lon="7.02032">
        <ele>1238.03</ele>
        <time>2016-03-07T10:30:10Z</time>
      </trkpt>
      <trkpt lat="48.05281" lon="7.02017">
        <ele>1238.2</ele>
        <time>2016-03-07T10:30:29Z</time>
      </trkpt>
      <trkpt lat="48.05273" lon="7.02009">
        <ele>1238.08</ele>
        <time>2016-03-07T10:30:48Z</time>
      </trkpt>
      <trkpt lat="48.05261" lon="7.01992">
        <ele>1237.93</ele>
        <time>2016-03-07T10:31:07Z</time>
      </trkpt>
      <trkpt lat="48.05248" lon="7.01973">
        <ele>1237.26</ele>
        <time>2016-03-07T10:31:27Z</time>
      </trkpt>
      <trkpt lat="48.05234" lon="7.0195">
        <ele>1236.49</ele>
        <time>2016-03-07T10:31:50Z</time>
      </trkpt>
      <trkpt lat="48.05221" lon="7.01939">
        <ele>1235.64</ele>
        <time>2016-03-07T10:32:08Z</time>
      </trkpt>
      <trkpt lat="48.05218" lon="7.01919">
        <ele>1235.64</ele>
        <time>2016-03-07T10:32:25Z</time>
      </trkpt>
      <trkpt lat="48.05215" lon="7.01893">
        <ele>1236.31</ele>
        <time>2016-03-07T10:32:45Z</time>
      </trkpt>
      <trkpt lat="48.05209" lon="7.01875">
        <ele>1236.21</ele>
        <time>2016-03-07T10:33:04Z</time>
      </trkpt>
      <trkpt lat="48.05202" lon="7.01849">
        <ele>1235.3</ele>
        <time>2016-03-07T10:33:25Z</time>
      </trkpt>
      <trkpt lat="48.05198" lon="7.01821">
        <ele>1235.55</ele>
        <time>2016-03-07T10:33:44Z</time>
      </trkpt>
      <trkpt lat="48.052" lon="7.01798">
        <ele>1235.97</ele>
        <time>2016-03-07T10:34:01Z</time>
      </trkpt>
      <trkpt lat="48.05205" lon="7.01768">
        <ele>1235.8</ele>
        <time>2016-03-07T10:34:23Z</time>
      </trkpt>
      <trkpt lat="48.05212" lon="7.01748">
        <ele>1237.33</ele>
        <time>2016-03-07T10:34:43Z</time>
      </trkpt>
      <trkpt lat="48.05213" lon="7.01721">
        <ele>1236.55</ele>
        <time>2016-03-07T10:35:03Z</time>
      </trkpt>
      <trkpt lat="48.05206" lon="7.01698">
        <ele>1235.22</ele>
        <time>2016-03-07T10:35:22Z</time>
      </trkpt>
      <trkpt lat="48.05198" lon="7.01674">
        <ele>1234.51</ele>
        <time>2016-03-07T10:35:42Z</time>
      </trkpt>
      <trkpt lat="48.05194" lon="7.01672">
        <ele>1234.1</ele>
        <time>2016-03-07T10:35:45Z</time>
      </trkpt>
      <trkpt lat="48.05191" lon="7.0167">
        <ele>1234.11</ele>
        <time>2016-03-07T10:35:48Z</time>
      </trkpt>
      <trkpt lat="48.05187" lon="7.01644">
        <ele>1233.75</ele>
        <time>2016-03-07T10:36:04Z</time>
      </trkpt>
      <trkpt lat="48.05188" lon="7.01636">
        <ele>1234.38</ele>
        <time>2016-03-07T10:36:20Z</time>
      </trkpt>
      <trkpt lat="48.05189" lon="7.0164">
        <ele>1234.05</ele>
        <time>2016-03-07T10:36:44Z</time>
      </trkpt>
      <trkpt lat="48.05188" lon="7.0164">
        <ele>1233.73</ele>
        <time>2016-03-07T10:37:07Z</time>
      </trkpt>
      <trkpt lat="48.05189" lon="7.01635">
        <ele>1233.97</ele>
        <time>2016-03-07T10:37:24Z</time>
      </trkpt>
      <trkpt lat="48.05189" lon="7.01637">
        <ele>1233.86</ele>
        <time>2016-03-07T10:37:42Z</time>
      </trkpt>
      <trkpt lat="48.05187" lon="7.01634">
        <ele>1233.84</ele>
        <time>2016-03-07T10:38:01Z</time>
      </trkpt>
      <trkpt lat="48.05188" lon="7.0163">
        <ele>1232.89</ele>
        <time>2016-03-07T10:38:21Z</time>
      </trkpt>
      <trkpt lat="48.05188" lon="7.0163">
        <ele>1233.2</ele>
        <time>2016-03-07T10:38:22Z</time>
      </trkpt>
      <trkpt lat="48.05188" lon="7.01631">
        <ele>1228.23</ele>
        <time>2016-03-07T10:38:49Z</time>
      </trkpt>
      <trkpt lat="48.05188" lon="7.01631">
        <ele>1235.28</ele>
        <time>2016-03-07T10:38:50Z</time>
      </trkpt>
      <trkpt lat="48.05187" lon="7.0163">
        <ele>1231.29</ele>
        <time>2016-03-07T10:39:00Z</time>
      </trkpt>
      <trkpt lat="48.05188" lon="7.0163">
        <ele>1232.34</ele>
        <time>2016-03-07T10:39:01Z</time>
      </trkpt>
      <trkpt lat="48.05188" lon="7.0163">
        <ele>1233.07</ele>
        <time>2016-03-07T10:39:03Z</time>
      </trkpt>
      <trkpt lat="48.05188" lon="7.0163">
        <ele>1233.11</ele>
        <time>2016-03-07T10:39:09Z</time>
      </trkpt>
      <trkpt lat="48.05186" lon="7.01631">
        <ele>1234.26</ele>
        <time>2016-03-07T10:39:34Z</time>
      </trkpt>
      <trkpt lat="48.05185" lon="7.0163">
        <ele>1230.2</ele>
        <time>2016-03-07T10:39:49Z</time>
      </trkpt>
      <trkpt lat="48.05185" lon="7.0163">
        <ele>1233.8</ele>
        <time>2016-03-07T10:39:50Z</time>
      </trkpt>
      <trkpt lat="48.05185" lon="7.01631">
        <ele>1233.8</ele>
        <time>2016-03-07T10:39:51Z</time>
      </trkpt>
      <trkpt lat="48.05184" lon="7.01629">
        <ele>1229.51</ele>
        <time>2016-03-07T10:40:02Z</time>
      </trkpt>
      <trkpt lat="48.05185" lon="7.01629">
        <ele>1234.79</ele>
        <time>2016-03-07T10:40:03Z</time>
      </trkpt>
      <trkpt lat="48.05185" lon="7.01628">
        <ele>1229.33</ele>
        <time>2016-03-07T10:40:06Z</time>
      </trkpt>
      <trkpt lat="48.05185" lon="7.01628">
        <ele>1235.02</ele>
        <time>2016-03-07T10:40:07Z</time>
      </trkpt>
      <trkpt lat="48.05185" lon="7.01629">
        <ele>1233.98</ele>
        <time>2016-03-07T10:40:27Z</time>
      </trkpt>
      <trkpt lat="48.05188" lon="7.01631">
        <ele>1233.71</ele>
        <time>2016-03-07T10:40:57Z</time>
      </trkpt>
      <trkpt lat="48.05188" lon="7.01631">
        <ele>1230.41</ele>
        <time>2016-03-07T10:41:00Z</time>
      </trkpt>
      <trkpt lat="48.05187" lon="7.01631">
        <ele>1234.49</ele>
        <time>2016-03-07T10:41:01Z</time>
      </trkpt>
      <trkpt lat="48.05189" lon="7.01632">
        <ele>1233.87</ele>
        <time>2016-03-07T10:41:26Z</time>
      </trkpt>
      <trkpt lat="48.05189" lon="7.01632">
        <ele>1228.4</ele>
        <time>2016-03-07T10:41:35Z</time>
      </trkpt>
      <trkpt lat="48.05189" lon="7.01632">
        <ele>1234.31</ele>
        <time>2016-03-07T10:41:36Z</time>
      </trkpt>
      <trkpt lat="48.05188" lon="7.01635">
        <ele>1233.39</ele>
        <time>2016-03-07T10:41:55Z</time>
      </trkpt>
      <trkpt lat="48.05189" lon="7.01635">
        <ele>1233.82</ele>
        <time>2016-03-07T10:42:22Z</time>
      </trkpt>
      <trkpt lat="48.05187" lon="7.01632">
        <ele>1233.56</ele>
        <time>2016-03-07T10:42:40Z</time>
      </trkpt>
      <trkpt lat="48.05187" lon="7.01634">
        <ele>1233.72</ele>
        <time>2016-03-07T10:42:58Z</time>
      </trkpt>
      <trkpt lat="48.05189" lon="7.01634">
        <ele>1233.13</ele>
        <time>2016-03-07T10:43:22Z</time>
      </trkpt>
      <trkpt lat="48.05188" lon="7.01635">
        <ele>1233.17</ele>
        <time>2016-03-07T10:43:45Z</time>
      </trkpt>
      <trkpt lat="48.05188" lon="7.01635">
        <ele>1232.74</ele>
        <time>2016-03-07T10:44:13Z</time>
      </trkpt>
      <trkpt lat="48.05188" lon="7.01633">
        <ele>1232.5</ele>
        <time>2016-03-07T10:44:35Z</time>
      </trkpt>
      <trkpt lat="48.05187" lon="7.01633">
        <ele>1229.24</ele>
        <time>2016-03-07T10:44:46Z</time>
      </trkpt>
      <trkpt lat="48.05186" lon="7.01632">
        <ele>1232.95</ele>
        <time>2016-03-07T10:44:52Z</time>
      </trkpt>
      <trkpt lat="48.05187" lon="7.0163">
        <ele>1233.14</ele>
        <time>2016-03-07T10:45:03Z</time>
      </trkpt>
      <trkpt lat="48.05187" lon="7.01631">
        <ele>1233.26</ele>
        <time>2016-03-07T10:45:25Z</time>
      </trkpt>
      <trkpt lat="48.05188" lon="7.01633">
        <ele>1233.21</ele>
        <time>2016-03-07T10:45:46Z</time>
      </trkpt>
      <trkpt lat="48.05188" lon="7.01635">
        <ele>1232.38</ele>
        <time>2016-03-07T10:46:05Z</time>
      </trkpt>
      <trkpt lat="48.05188" lon="7.01634">
        <ele>1233.27</ele>
        <time>2016-03-07T10:46:23Z</time>
      </trkpt>
      <trkpt lat="48.05189" lon="7.01633">
        <ele>1232.77</ele>
        <time>2016-03-07T10:46:51Z</time>
      </trkpt>
      <trkpt lat="48.0519" lon="7.01634">
        <ele>1232.88</ele>
        <time>2016-03-07T10:47:15Z</time>
      </trkpt>
      <trkpt lat="48.05189" lon="7.01635">
        <ele>1232.29</ele>
        <time>2016-03-07T10:47:41Z</time>
      </trkpt>
      <trkpt lat="48.05188" lon="7.01632">
        <ele>1232.78</ele>
        <time>2016-03-07T10:47:58Z</time>
      </trkpt>
      <trkpt lat="48.05191" lon="7.01635">
        <ele>1232.82</ele>
        <time>2016-03-07T10:48:18Z</time>
      </trkpt>
      <trkpt lat="48.05187" lon="7.01635">
        <ele>1232.45</ele>
        <time>2016-03-07T10:48:38Z</time>
      </trkpt>
      <trkpt lat="48.05187" lon="7.01633">
        <ele>1232.95</ele>
        <time>2016-03-07T10:49:00Z</time>
      </trkpt>
      <trkpt lat="48.05186" lon="7.01633">
        <ele>1232.76</ele>
        <time>2016-03-07T10:49:30Z</time>
      </trkpt>
      <trkpt lat="48.05185" lon="7.01633">
        <ele>1232.24</ele>
        <time>2016-03-07T10:49:50Z</time>
      </trkpt>
      <trkpt lat="48.05187" lon="7.01636">
        <ele>1231.93</ele>
        <time>2016-03-07T10:50:17Z</time>
      </trkpt>
      <trkpt lat="48.05186" lon="7.01636">
        <ele>1231.97</ele>
        <time>2016-03-07T10:50:45Z</time>
      </trkpt>
      <trkpt lat="48.05187" lon="7.01636">
        <ele>1232.18</ele>
        <time>2016-03-07T10:51:01Z</time>
      </trkpt>
      <trkpt lat="48.05187" lon="7.01639">
        <ele>1232.07</ele>
        <time>2016-03-07T10:51:28Z</time>
      </trkpt>
      <trkpt lat="48.05187" lon="7.01636">
        <ele>1232.06</ele>
        <time>2016-03-07T10:51:49Z</time>
      </trkpt>
      <trkpt lat="48.05185" lon="7.01625">
        <ele>1231.36</ele>
        <time>2016-03-07T10:52:07Z</time>
      </trkpt>
      <trkpt lat="48.05179" lon="7.01609">
        <ele>1232.09</ele>
        <time>2016-03-07T10:52:25Z</time>
      </trkpt>
      <trkpt lat="48.05174" lon="7.01609">
        <ele>1232.17</ele>
        <time>2016-03-07T10:52:45Z</time>
      </trkpt>
      <trkpt lat="48.05165" lon="7.01602">
        <ele>1232.33</ele>
        <time>2016-03-07T10:53:01Z</time>
      </trkpt>
      <trkpt lat="48.05158" lon="7.01592">
        <ele>1232.77</ele>
        <time>2016-03-07T10:53:18Z</time>
      </trkpt>
      <trkpt lat="48.05156" lon="7.0159">
        <ele>1232.82</ele>
        <time>2016-03-07T10:53:21Z</time>
      </trkpt>
      <trkpt lat="48.05149" lon="7.01585">
        <ele>1233.68</ele>
        <time>2016-03-07T10:53:29Z</time>
      </trkpt>
      <trkpt lat="48.05134" lon="7.01578">
        <ele>1234.53</ele>
        <time>2016-03-07T10:53:47Z</time>
      </trkpt>
      <trkpt lat="48.05119" lon="7.01573">
        <ele>1235.38</ele>
        <time>2016-03-07T10:54:07Z</time>
      </trkpt>
      <trkpt lat="48.05104" lon="7.01571">
        <ele>1236.06</ele>
        <time>2016-03-07T10:54:25Z</time>
      </trkpt>
      <trkpt lat="48.05095" lon="7.01571">
        <ele>1236.78</ele>
        <time>2016-03-07T10:54:37Z</time>
      </trkpt>
      <trkpt lat="48.0509" lon="7.0157">
        <ele>1236.31</ele>
        <time>2016-03-07T10:54:58Z</time>
      </trkpt>
      <trkpt lat="48.05082" lon="7.01568">
        <ele>1235.8</ele>
        <time>2016-03-07T10:55:20Z</time>
      </trkpt>
      <trkpt lat="48.05066" lon="7.01566">
        <ele>1236.87</ele>
        <time>2016-03-07T10:55:36Z</time>
      </trkpt>
      <trkpt lat="48.05044" lon="7.01558">
        <ele>1237.42</ele>
        <time>2016-03-07T10:55:59Z</time>
      </trkpt>
      <trkpt lat="48.05025" lon="7.01555">
        <ele>1239.9</ele>
        <time>2016-03-07T10:56:21Z</time>
      </trkpt>
      <trkpt lat="48.05004" lon="7.01542">
        <ele>1240.56</ele>
        <time>2016-03-07T10:56:43Z</time>
      </trkpt>
      <trkpt lat="48.04991" lon="7.0154">
        <ele>1241.02</ele>
        <time>2016-03-07T10:57:00Z</time>
      </trkpt>
      <trkpt lat="48.04977" lon="7.01536">
        <ele>1242.47</ele>
        <time>2016-03-07T10:57:17Z</time>
      </trkpt>
      <trkpt lat="48.04959" lon="7.01531">
        <ele>1242.91</ele>
        <time>2016-03-07T10:57:37Z</time>
      </trkpt>
      <trkpt lat="48.04944" lon="7.01521">
        <ele>1244.11</ele>
        <time>2016-03-07T10:57:58Z</time>
      </trkpt>
      <trkpt lat="48.04929" lon="7.01511">
        <ele>1245.51</ele>
        <time>2016-03-07T10:58:19Z</time>
      </trkpt>
      <trkpt lat="48.04913" lon="7.015">
        <ele>1247.71</ele>
        <time>2016-03-07T10:58:43Z</time>
      </trkpt>
      <trkpt lat="48.04903" lon="7.01492">
        <ele>1250.09</ele>
        <time>2016-03-07T10:59:02Z</time>
      </trkpt>
      <trkpt lat="48.04895" lon="7.01491">
        <ele>1250.84</ele>
        <time>2016-03-07T10:59:26Z</time>
      </trkpt>
      <trkpt lat="48.04886" lon="7.01483">
        <ele>1252.41</ele>
        <time>2016-03-07T10:59:47Z</time>
      </trkpt>
      <trkpt lat="48.04872" lon="7.01476">
        <ele>1254.47</ele>
        <time>2016-03-07T11:00:05Z</time>
      </trkpt>
      <trkpt lat="48.0486" lon="7.01466">
        <ele>1256.43</ele>
        <time>2016-03-07T11:00:26Z</time>
      </trkpt>
      <trkpt lat="48.04847" lon="7.01463">
        <ele>1258.14</ele>
        <time>2016-03-07T11:00:45Z</time>
      </trkpt>
      <trkpt lat="48.04834" lon="7.01458">
        <ele>1259.85</ele>
        <time>2016-03-07T11:01:03Z</time>
      </trkpt>
      <trkpt lat="48.04819" lon="7.0145">
        <ele>1260.78</ele>
        <time>2016-03-07T11:01:23Z</time>
      </trkpt>
      <trkpt lat="48.04805" lon="7.01444">
        <ele>1263.17</ele>
        <time>2016-03-07T11:01:42Z</time>
      </trkpt>
      <trkpt lat="48.04798" lon="7.0144">
        <ele>1263.9</ele>
        <time>2016-03-07T11:01:58Z</time>
      </trkpt>
      <trkpt lat="48.04789" lon="7.01444">
        <ele>1264.98</ele>
        <time>2016-03-07T11:02:12Z</time>
      </trkpt>
      <trkpt lat="48.04783" lon="7.01452">
        <ele>1265.47</ele>
        <time>2016-03-07T11:02:30Z</time>
      </trkpt>
      <trkpt lat="48.04777" lon="7.01458">
        <ele>1266.37</ele>
        <time>2016-03-07T11:02:47Z</time>
      </trkpt>
      <trkpt lat="48.04765" lon="7.01472">
        <ele>1267.33</ele>
        <time>2016-03-07T11:03:08Z</time>
      </trkpt>
      <trkpt lat="48.04751" lon="7.01486">
        <ele>1268.27</ele>
        <time>2016-03-07T11:03:28Z</time>
      </trkpt>
      <trkpt lat="48.04735" lon="7.01487">
        <ele>1270.17</ele>
        <time>2016-03-07T11:03:50Z</time>
      </trkpt>
      <trkpt lat="48.04731" lon="7.01486">
        <ele>1269.19</ele>
        <time>2016-03-07T11:04:05Z</time>
      </trkpt>
      <trkpt lat="48.04731" lon="7.01485">
        <ele>1269.58</ele>
        <time>2016-03-07T11:04:29Z</time>
      </trkpt>
      <trkpt lat="48.0473" lon="7.01487">
        <ele>1270.25</ele>
        <time>2016-03-07T11:05:00Z</time>
      </trkpt>
      <trkpt lat="48.04723" lon="7.01499">
        <ele>1270.79</ele>
        <time>2016-03-07T11:05:16Z</time>
      </trkpt>
      <trkpt lat="48.04719" lon="7.01485">
        <ele>1270.05</ele>
        <time>2016-03-07T11:05:32Z</time>
      </trkpt>
      <trkpt lat="48.04718" lon="7.01481">
        <ele>1269.92</ele>
        <time>2016-03-07T11:05:35Z</time>
      </trkpt>
      <trkpt lat="48.0471" lon="7.01455">
        <ele>1270.82</ele>
        <time>2016-03-07T11:05:55Z</time>
      </trkpt>
      <trkpt lat="48.04702" lon="7.01438">
        <ele>1271.25</ele>
        <time>2016-03-07T11:06:11Z</time>
      </trkpt>
      <trkpt lat="48.04691" lon="7.01417">
        <ele>1271.24</ele>
        <time>2016-03-07T11:06:30Z</time>
      </trkpt>
      <trkpt lat="48.04678" lon="7.01398">
        <ele>1271.42</ele>
        <time>2016-03-07T11:06:49Z</time>
      </trkpt>
      <trkpt lat="48.04664" lon="7.01382">
        <ele>1272.9</ele>
        <time>2016-03-07T11:07:07Z</time>
      </trkpt>
      <trkpt lat="48.04646" lon="7.01369">
        <ele>1272.34</ele>
        <time>2016-03-07T11:07:28Z</time>
      </trkpt>
      <trkpt lat="48.04631" lon="7.01358">
        <ele>1273.82</ele>
        <time>2016-03-07T11:07:48Z</time>
      </trkpt>
      <trkpt lat="48.04619" lon="7.0135">
        <ele>1274.46</ele>
        <time>2016-03-07T11:08:03Z</time>
      </trkpt>
      <trkpt lat="48.04606" lon="7.01341">
        <ele>1276.69</ele>
        <time>2016-03-07T11:08:20Z</time>
      </trkpt>
      <trkpt lat="48.04591" lon="7.01329">
        <ele>1277.46</ele>
        <time>2016-03-07T11:08:39Z</time>
      </trkpt>
      <trkpt lat="48.04592" lon="7.01328">
        <ele>1277.61</ele>
        <time>2016-03-07T11:08:54Z</time>
      </trkpt>
      <trkpt lat="48.04593" lon="7.01328">
        <ele>1277.08</ele>
        <time>2016-03-07T11:09:19Z</time>
      </trkpt>
      <trkpt lat="48.04593" lon="7.01328">
        <ele>1276.63</ele>
        <time>2016-03-07T11:09:42Z</time>
      </trkpt>
      <trkpt lat="48.04594" lon="7.01328">
        <ele>1277.09</ele>
        <time>2016-03-07T11:10:03Z</time>
      </trkpt>
      <trkpt lat="48.04593" lon="7.01328">
        <ele>1277.1</ele>
        <time>2016-03-07T11:10:24Z</time>
      </trkpt>
      <trkpt lat="48.04594" lon="7.01327">
        <ele>1277.06</ele>
        <time>2016-03-07T11:10:42Z</time>
      </trkpt>
      <trkpt lat="48.04595" lon="7.01325">
        <ele>1277.69</ele>
        <time>2016-03-07T11:11:02Z</time>
      </trkpt>
      <trkpt lat="48.04593" lon="7.01304">
        <ele>1279.02</ele>
        <time>2016-03-07T11:11:21Z</time>
      </trkpt>
      <trkpt lat="48.04593" lon="7.01293">
        <ele>1280.68</ele>
        <time>2016-03-07T11:11:32Z</time>
      </trkpt>
      <trkpt lat="48.04593" lon="7.01281">
        <ele>1281.34</ele>
        <time>2016-03-07T11:11:49Z</time>
      </trkpt>
      <trkpt lat="48.04592" lon="7.01259">
        <ele>1282.4</ele>
        <time>2016-03-07T11:12:09Z</time>
      </trkpt>
      <trkpt lat="48.0459" lon="7.01238">
        <ele>1283.53</ele>
        <time>2016-03-07T11:12:28Z</time>
      </trkpt>
      <trkpt lat="48.04586" lon="7.01217">
        <ele>1283.6</ele>
        <time>2016-03-07T11:12:47Z</time>
      </trkpt>
      <trkpt lat="48.04589" lon="7.01206">
        <ele>1284.26</ele>
        <time>2016-03-07T11:13:03Z</time>
      </trkpt>
      <trkpt lat="48.04591" lon="7.01204">
        <ele>1283.94</ele>
        <time>2016-03-07T11:13:24Z</time>
      </trkpt>
      <trkpt lat="48.04598" lon="7.01204">
        <ele>1283.55</ele>
        <time>2016-03-07T11:13:48Z</time>
      </trkpt>
      <trkpt lat="48.04602" lon="7.01204">
        <ele>1283.56</ele>
        <time>2016-03-07T11:13:55Z</time>
      </trkpt>
      <trkpt lat="48.04607" lon="7.01204">
        <ele>1283.44</ele>
        <time>2016-03-07T11:14:00Z</time>
      </trkpt>
      <trkpt lat="48.04623" lon="7.01205">
        <ele>1282.68</ele>
        <time>2016-03-07T11:14:18Z</time>
      </trkpt>
      <trkpt lat="48.0464" lon="7.01222">
        <ele>1280.91</ele>
        <time>2016-03-07T11:14:39Z</time>
      </trkpt>
      <trkpt lat="48.04654" lon="7.01241">
        <ele>1279.09</ele>
        <time>2016-03-07T11:14:58Z</time>
      </trkpt>
      <trkpt lat="48.04664" lon="7.01256">
        <ele>1278.54</ele>
        <time>2016-03-07T11:15:14Z</time>
      </trkpt>
      <trkpt lat="48.04676" lon="7.0127">
        <ele>1277.22</ele>
        <time>2016-03-07T11:15:31Z</time>
      </trkpt>
      <trkpt lat="48.04685" lon="7.01285">
        <ele>1275.62</ele>
        <time>2016-03-07T11:15:49Z</time>
      </trkpt>
      <trkpt lat="48.04686" lon="7.01286">
        <ele>1275.63</ele>
        <time>2016-03-07T11:15:59Z</time>
      </trkpt>
      <trkpt lat="48.04702" lon="7.0131">
        <ele>1274.12</ele>
        <time>2016-03-07T11:16:19Z</time>
      </trkpt>
      <trkpt lat="48.04717" lon="7.01332">
        <ele>1271.93</ele>
        <time>2016-03-07T11:16:39Z</time>
      </trkpt>
      <trkpt lat="48.04735" lon="7.01357">
        <ele>1270.38</ele>
        <time>2016-03-07T11:17:00Z</time>
      </trkpt>
      <trkpt lat="48.04736" lon="7.0136">
        <ele>1269.6</ele>
        <time>2016-03-07T11:17:03Z</time>
      </trkpt>
      <trkpt lat="48.04738" lon="7.01385">
        <ele>1270.19</ele>
        <time>2016-03-07T11:17:20Z</time>
      </trkpt>
      <trkpt lat="48.04743" lon="7.01407">
        <ele>1269.03</ele>
        <time>2016-03-07T11:17:37Z</time>
      </trkpt>
      <trkpt lat="48.0475" lon="7.01429">
        <ele>1268.69</ele>
        <time>2016-03-07T11:17:56Z</time>
      </trkpt>
      <trkpt lat="48.04761" lon="7.01453">
        <ele>1267.37</ele>
        <time>2016-03-07T11:18:16Z</time>
      </trkpt>
      <trkpt lat="48.04765" lon="7.01469">
        <ele>1267.23</ele>
        <time>2016-03-07T11:18:28Z</time>
      </trkpt>
      <trkpt lat="48.04766" lon="7.01486">
        <ele>1267.3</ele>
        <time>2016-03-07T11:18:45Z</time>
      </trkpt>
      <trkpt lat="48.04766" lon="7.01486">
        <ele>1267.99</ele>
        <time>2016-03-07T11:19:07Z</time>
      </trkpt>
      <trkpt lat="48.04768" lon="7.01488">
        <ele>1267.66</ele>
        <time>2016-03-07T11:19:16Z</time>
      </trkpt>
      <trkpt lat="48.04778" lon="7.01498">
        <ele>1266.64</ele>
        <time>2016-03-07T11:19:30Z</time>
      </trkpt>
      <trkpt lat="48.04789" lon="7.0151">
        <ele>1264.9</ele>
        <time>2016-03-07T11:19:47Z</time>
      </trkpt>
      <trkpt lat="48.04789" lon="7.01511">
        <ele>1265.03</ele>
        <time>2016-03-07T11:19:48Z</time>
      </trkpt>
      <trkpt lat="48.04797" lon="7.01521">
        <ele>1264.29</ele>
        <time>2016-03-07T11:20:05Z</time>
      </trkpt>
      <trkpt lat="48.04802" lon="7.01524">
        <ele>1263.01</ele>
        <time>2016-03-07T11:20:25Z</time>
      </trkpt>
      <trkpt lat="48.04813" lon="7.01519">
        <ele>1261.27</ele>
        <time>2016-03-07T11:20:42Z</time>
      </trkpt>
      <trkpt lat="48.04826" lon="7.01519">
        <ele>1260.72</ele>
        <time>2016-03-07T11:21:02Z</time>
      </trkpt>
      <trkpt lat="48.04831" lon="7.01521">
        <ele>1260.02</ele>
        <time>2016-03-07T11:21:17Z</time>
      </trkpt>
      <trkpt lat="48.04834" lon="7.01531">
        <ele>1259.7</ele>
        <time>2016-03-07T11:21:36Z</time>
      </trkpt>
      <trkpt lat="48.04835" lon="7.01527">
        <ele>1259.66</ele>
        <time>2016-03-07T11:21:54Z</time>
      </trkpt>
      <trkpt lat="48.04835" lon="7.0153">
        <ele>1259.97</ele>
        <time>2016-03-07T11:22:11Z</time>
      </trkpt>
      <trkpt lat="48.04835" lon="7.01536">
        <ele>1258.63</ele>
        <time>2016-03-07T11:22:31Z</time>
      </trkpt>
      <trkpt lat="48.04831" lon="7.01534">
        <ele>1259.72</ele>
        <time>2016-03-07T11:22:58Z</time>
      </trkpt>
      <trkpt lat="48.0483" lon="7.01533">
        <ele>1259.24</ele>
        <time>2016-03-07T11:23:29Z</time>
      </trkpt>
      <trkpt lat="48.04829" lon="7.01531">
        <ele>1260.35</ele>
        <time>2016-03-07T11:23:54Z</time>
      </trkpt>
      <trkpt lat="48.0483" lon="7.01531">
        <ele>1256.91</ele>
        <time>2016-03-07T11:24:00Z</time>
      </trkpt>
      <trkpt lat="48.0483" lon="7.01531">
        <ele>1260.7</ele>
        <time>2016-03-07T11:24:02Z</time>
      </trkpt>
      <trkpt lat="48.04834" lon="7.01537">
        <ele>1258.64</ele>
        <time>2016-03-07T11:24:19Z</time>
      </trkpt>
      <trkpt lat="48.04833" lon="7.01538">
        <ele>1258.75</ele>
        <time>2016-03-07T11:24:47Z</time>
      </trkpt>
      <trkpt lat="48.04833" lon="7.01539">
        <ele>1258.46</ele>
        <time>2016-03-07T11:25:05Z</time>
      </trkpt>
      <trkpt lat="48.04836" lon="7.01548">
        <ele>1255.98</ele>
        <time>2016-03-07T11:25:22Z</time>
      </trkpt>
      <trkpt lat="48.04848" lon="7.01565">
        <ele>1253.35</ele>
        <time>2016-03-07T11:25:42Z</time>
      </trkpt>
      <trkpt lat="48.0486" lon="7.01571">
        <ele>1251.56</ele>
        <time>2016-03-07T11:26:01Z</time>
      </trkpt>
      <trkpt lat="48.04869" lon="7.01584">
        <ele>1249.38</ele>
        <time>2016-03-07T11:26:19Z</time>
      </trkpt>
      <trkpt lat="48.0488" lon="7.01595">
        <ele>1246.34</ele>
        <time>2016-03-07T11:26:34Z</time>
      </trkpt>
      <trkpt lat="48.0489" lon="7.01605">
        <ele>1243.23</ele>
        <time>2016-03-07T11:26:48Z</time>
      </trkpt>
      <trkpt lat="48.04904" lon="7.01617">
        <ele>1240.63</ele>
        <time>2016-03-07T11:27:09Z</time>
      </trkpt>
      <trkpt lat="48.04907" lon="7.01619">
        <ele>1240.57</ele>
        <time>2016-03-07T11:27:30Z</time>
      </trkpt>
      <trkpt lat="48.04909" lon="7.01627">
        <ele>1239.56</ele>
        <time>2016-03-07T11:27:37Z</time>
      </trkpt>
      <trkpt lat="48.04918" lon="7.01641">
        <ele>1236.71</ele>
        <time>2016-03-07T11:27:49Z</time>
      </trkpt>
      <trkpt lat="48.04927" lon="7.01658">
        <ele>1234.58</ele>
        <time>2016-03-07T11:28:04Z</time>
      </trkpt>
      <trkpt lat="48.04938" lon="7.01676">
        <ele>1234.13</ele>
        <time>2016-03-07T11:28:20Z</time>
      </trkpt>
      <trkpt lat="48.04949" lon="7.01693">
        <ele>1234.57</ele>
        <time>2016-03-07T11:28:40Z</time>
      </trkpt>
      <trkpt lat="48.0496" lon="7.01708">
        <ele>1235.5</ele>
        <time>2016-03-07T11:29:00Z</time>
      </trkpt>
      <trkpt lat="48.04969" lon="7.01718">
        <ele>1235.59</ele>
        <time>2016-03-07T11:29:19Z</time>
      </trkpt>
      <trkpt lat="48.04982" lon="7.01733">
        <ele>1234.69</ele>
        <time>2016-03-07T11:29:38Z</time>
      </trkpt>
      <trkpt lat="48.04998" lon="7.0174">
        <ele>1234.46</ele>
        <time>2016-03-07T11:29:58Z</time>
      </trkpt>
      <trkpt lat="48.05015" lon="7.01746">
        <ele>1233.14</ele>
        <time>2016-03-07T11:30:18Z</time>
      </trkpt>
      <trkpt lat="48.0503" lon="7.01754">
        <ele>1231.99</ele>
        <time>2016-03-07T11:30:36Z</time>
      </trkpt>
      <trkpt lat="48.05048" lon="7.01766">
        <ele>1230.31</ele>
        <time>2016-03-07T11:30:57Z</time>
      </trkpt>
      <trkpt lat="48.05053" lon="7.01769">
        <ele>1228.89</ele>
        <time>2016-03-07T11:31:03Z</time>
      </trkpt>
      <trkpt lat="48.05068" lon="7.0178">
        <ele>1226.77</ele>
        <time>2016-03-07T11:31:24Z</time>
      </trkpt>
      <trkpt lat="48.0508" lon="7.01792">
        <ele>1225.1</ele>
        <time>2016-03-07T11:31:44Z</time>
      </trkpt>
      <trkpt lat="48.05085" lon="7.01795">
        <ele>1225.64</ele>
        <time>2016-03-07T11:32:05Z</time>
      </trkpt>
      <trkpt lat="48.05096" lon="7.01792">
        <ele>1224.5</ele>
        <time>2016-03-07T11:32:22Z</time>
      </trkpt>
      <trkpt lat="48.05106" lon="7.01809">
        <ele>1222.45</ele>
        <time>2016-03-07T11:32:40Z</time>
      </trkpt>
      <trkpt lat="48.05111" lon="7.01825">
        <ele>1222.07</ele>
        <time>2016-03-07T11:32:58Z</time>
      </trkpt>
      <trkpt lat="48.05112" lon="7.01827">
        <ele>1221.3</ele>
        <time>2016-03-07T11:33:08Z</time>
      </trkpt>
      <trkpt lat="48.05116" lon="7.01829">
        <ele>1221.11</ele>
        <time>2016-03-07T11:33:13Z</time>
      </trkpt>
      <trkpt lat="48.05127" lon="7.01847">
        <ele>1219.08</ele>
        <time>2016-03-07T11:33:30Z</time>
      </trkpt>
      <trkpt lat="48.05128" lon="7.01857">
        <ele>1218.46</ele>
        <time>2016-03-07T11:33:46Z</time>
      </trkpt>
      <trkpt lat="48.05125" lon="7.0187">
        <ele>1216.57</ele>
        <time>2016-03-07T11:34:04Z</time>
      </trkpt>
      <trkpt lat="48.05122" lon="7.01877">
        <ele>1215.85</ele>
        <time>2016-03-07T11:34:23Z</time>
      </trkpt>
      <trkpt lat="48.0512" lon="7.01888">
        <ele>1215.09</ele>
        <time>2016-03-07T11:34:42Z</time>
      </trkpt>
      <trkpt lat="48.05114" lon="7.01895">
        <ele>1213.63</ele>
        <time>2016-03-07T11:35:02Z</time>
      </trkpt>
      <trkpt lat="48.05116" lon="7.01915">
        <ele>1211.84</ele>
        <time>2016-03-07T11:35:20Z</time>
      </trkpt>
      <trkpt lat="48.05116" lon="7.01929">
        <ele>1211.71</ele>
        <time>2016-03-07T11:35:38Z</time>
      </trkpt>
      <trkpt lat="48.05114" lon="7.01953">
        <ele>1210.88</ele>
        <time>2016-03-07T11:35:56Z</time>
      </trkpt>
      <trkpt lat="48.05111" lon="7.01977">
        <ele>1209.85</ele>
        <time>2016-03-07T11:36:16Z</time>
      </trkpt>
      <trkpt lat="48.05116" lon="7.01999">
        <ele>1211.05</ele>
        <time>2016-03-07T11:36:34Z</time>
      </trkpt>
      <trkpt lat="48.05114" lon="7.02026">
        <ele>1210.95</ele>
        <time>2016-03-07T11:36:55Z</time>
      </trkpt>
      <trkpt lat="48.05113" lon="7.02041">
        <ele>1211.56</ele>
        <time>2016-03-07T11:37:07Z</time>
      </trkpt>
      <trkpt lat="48.05106" lon="7.02063">
        <ele>1210.78</ele>
        <time>2016-03-07T11:37:28Z</time>
      </trkpt>
      <trkpt lat="48.05099" lon="7.02082">
        <ele>1210.37</ele>
        <time>2016-03-07T11:37:45Z</time>
      </trkpt>
      <trkpt lat="48.05089" lon="7.02094">
        <ele>1209.83</ele>
        <time>2016-03-07T11:37:59Z</time>
      </trkpt>
      <trkpt lat="48.05084" lon="7.02116">
        <ele>1210.55</ele>
        <time>2016-03-07T11:38:20Z</time>
      </trkpt>
      <trkpt lat="48.05074" lon="7.02129">
        <ele>1208.02</ele>
        <time>2016-03-07T11:38:40Z</time>
      </trkpt>
      <trkpt lat="48.0506" lon="7.02145">
        <ele>1207.58</ele>
        <time>2016-03-07T11:38:58Z</time>
      </trkpt>
      <trkpt lat="48.05056" lon="7.02168">
        <ele>1207.91</ele>
        <time>2016-03-07T11:39:20Z</time>
      </trkpt>
      <trkpt lat="48.05057" lon="7.02175">
        <ele>1207.77</ele>
        <time>2016-03-07T11:39:44Z</time>
      </trkpt>
      <trkpt lat="48.05055" lon="7.02187">
        <ele>1206.26</ele>
        <time>2016-03-07T11:39:59Z</time>
      </trkpt>
      <trkpt lat="48.05054" lon="7.02217">
        <ele>1208.05</ele>
        <time>2016-03-07T11:40:20Z</time>
      </trkpt>
      <trkpt lat="48.05053" lon="7.02243">
        <ele>1209.46</ele>
        <time>2016-03-07T11:40:44Z</time>
      </trkpt>
      <trkpt lat="48.0505" lon="7.02256">
        <ele>1209.36</ele>
        <time>2016-03-07T11:41:03Z</time>
      </trkpt>
      <trkpt lat="48.0504" lon="7.02268">
        <ele>1210.16</ele>
        <time>2016-03-07T11:41:22Z</time>
      </trkpt>
      <trkpt lat="48.05037" lon="7.02273">
        <ele>1209.43</ele>
        <time>2016-03-07T11:41:27Z</time>
      </trkpt>
      <trkpt lat="48.05035" lon="7.02276">
        <ele>1209.74</ele>
        <time>2016-03-07T11:41:30Z</time>
      </trkpt>
      <trkpt lat="48.05033" lon="7.02285">
        <ele>1209.26</ele>
        <time>2016-03-07T11:42:00Z</time>
      </trkpt>
      <trkpt lat="48.05032" lon="7.02285">
        <ele>1208.94</ele>
        <time>2016-03-07T11:42:34Z</time>
      </trkpt>
      <trkpt lat="48.05031" lon="7.02286">
        <ele>1209.05</ele>
        <time>2016-03-07T11:42:57Z</time>
      </trkpt>
      <trkpt lat="48.05031" lon="7.02296">
        <ele>1209.46</ele>
        <time>2016-03-07T11:43:12Z</time>
      </trkpt>
      <trkpt lat="48.05038" lon="7.02304">
        <ele>1209.95</ele>
        <time>2016-03-07T11:43:29Z</time>
      </trkpt>
      <trkpt lat="48.05037" lon="7.02303">
        <ele>1210.02</ele>
        <time>2016-03-07T11:43:40Z</time>
      </trkpt>
      <trkpt lat="48.05034" lon="7.023">
        <ele>1210.48</ele>
        <time>2016-03-07T11:43:43Z</time>
      </trkpt>
      <trkpt lat="48.0503" lon="7.0229">
        <ele>1208.81</ele>
        <time>2016-03-07T11:44:01Z</time>
      </trkpt>
      <trkpt lat="48.05029" lon="7.02286">
        <ele>1209.64</ele>
        <time>2016-03-07T11:44:31Z</time>
      </trkpt>
      <trkpt lat="48.05028" lon="7.02285">
        <ele>1209.46</ele>
        <time>2016-03-07T11:44:59Z</time>
      </trkpt>
      <trkpt lat="48.05028" lon="7.02286">
        <ele>1209.67</ele>
        <time>2016-03-07T11:45:38Z</time>
      </trkpt>
      <trkpt lat="48.05028" lon="7.02288">
        <ele>1209.36</ele>
        <time>2016-03-07T11:46:05Z</time>
      </trkpt>
      <trkpt lat="48.05029" lon="7.02288">
        <ele>1209.53</ele>
        <time>2016-03-07T11:46:23Z</time>
      </trkpt>
      <trkpt lat="48.05029" lon="7.02287">
        <ele>1209.88</ele>
        <time>2016-03-07T11:46:49Z</time>
      </trkpt>
      <trkpt lat="48.05028" lon="7.02287">
        <ele>1210.27</ele>
        <time>2016-03-07T11:47:22Z</time>
      </trkpt>
      <trkpt lat="48.05028" lon="7.02286">
        <ele>1210.43</ele>
        <time>2016-03-07T11:47:49Z</time>
      </trkpt>
      <trkpt lat="48.05028" lon="7.02287">
        <ele>1210.05</ele>
        <time>2016-03-07T11:48:26Z</time>
      </trkpt>
      <trkpt lat="48.05028" lon="7.02287">
        <ele>1210.47</ele>
        <time>2016-03-07T11:48:57Z</time>
      </trkpt>
      <trkpt lat="48.05028" lon="7.02287">
        <ele>1210.68</ele>
        <time>2016-03-07T11:49:32Z</time>
      </trkpt>
      <trkpt lat="48.05028" lon="7.02287">
        <ele>1210.77</ele>
        <time>2016-03-07T11:49:57Z</time>
      </trkpt>
      <trkpt lat="48.05028" lon="7.02287">
        <ele>1210.74</ele>
        <time>2016-03-07T11:50:25Z</time>
      </trkpt>
      <trkpt lat="48.05028" lon="7.02287">
        <ele>1210.44</ele>
        <time>2016-03-07T11:50:53Z</time>
      </trkpt>
      <trkpt lat="48.05028" lon="7.0229">
        <ele>1210.48</ele>
        <time>2016-03-07T11:51:16Z</time>
      </trkpt>
      <trkpt lat="48.05031" lon="7.02295">
        <ele>1211</ele>
        <time>2016-03-07T11:51:24Z</time>
      </trkpt>
      <trkpt lat="48.05032" lon="7.02298">
        <ele>1211.35</ele>
        <time>2016-03-07T11:51:27Z</time>
      </trkpt>
      <trkpt lat="48.05039" lon="7.02304">
        <ele>1211.85</ele>
        <time>2016-03-07T11:51:40Z</time>
      </trkpt>
      <trkpt lat="48.05042" lon="7.02305">
        <ele>1211.8</ele>
        <time>2016-03-07T11:51:52Z</time>
      </trkpt>
      <trkpt lat="48.0505" lon="7.0231">
        <ele>1211.15</ele>
        <time>2016-03-07T11:52:08Z</time>
      </trkpt>
      <trkpt lat="48.05059" lon="7.02317">
        <ele>1210.25</ele>
        <time>2016-03-07T11:52:22Z</time>
      </trkpt>
      <trkpt lat="48.05061" lon="7.02319">
        <ele>1209.22</ele>
        <time>2016-03-07T11:52:25Z</time>
      </trkpt>
      <trkpt lat="48.05079" lon="7.02336">
        <ele>1206.42</ele>
        <time>2016-03-07T11:52:47Z</time>
      </trkpt>
      <trkpt lat="48.05091" lon="7.02347">
        <ele>1204.75</ele>
        <time>2016-03-07T11:53:03Z</time>
      </trkpt>
      <trkpt lat="48.05107" lon="7.02357">
        <ele>1201.85</ele>
        <time>2016-03-07T11:53:21Z</time>
      </trkpt>
      <trkpt lat="48.05123" lon="7.02367">
        <ele>1199.52</ele>
        <time>2016-03-07T11:53:39Z</time>
      </trkpt>
      <trkpt lat="48.05136" lon="7.02362">
        <ele>1198.3</ele>
        <time>2016-03-07T11:53:58Z</time>
      </trkpt>
      <trkpt lat="48.05148" lon="7.02354">
        <ele>1199.13</ele>
        <time>2016-03-07T11:54:13Z</time>
      </trkpt>
      <trkpt lat="48.05163" lon="7.02342">
        <ele>1198.42</ele>
        <time>2016-03-07T11:54:34Z</time>
      </trkpt>
      <trkpt lat="48.05177" lon="7.02331">
        <ele>1199.06</ele>
        <time>2016-03-07T11:54:54Z</time>
      </trkpt>
      <trkpt lat="48.05181" lon="7.02328">
        <ele>1199.59</ele>
        <time>2016-03-07T11:55:08Z</time>
      </trkpt>
      <trkpt lat="48.05186" lon="7.0233">
        <ele>1198.76</ele>
        <time>2016-03-07T11:55:22Z</time>
      </trkpt>
      <trkpt lat="48.05188" lon="7.02331">
        <ele>1198.89</ele>
        <time>2016-03-07T11:55:24Z</time>
      </trkpt>
      <trkpt lat="48.05194" lon="7.02334">
        <ele>1199.2</ele>
        <time>2016-03-07T11:55:31Z</time>
      </trkpt>
      <trkpt lat="48.05207" lon="7.02342">
        <ele>1200.17</ele>
        <time>2016-03-07T11:55:49Z</time>
      </trkpt>
      <trkpt lat="48.05222" lon="7.02349">
        <ele>1199.38</ele>
        <time>2016-03-07T11:56:05Z</time>
      </trkpt>
      <trkpt lat="48.05237" lon="7.02354">
        <ele>1200</ele>
        <time>2016-03-07T11:56:23Z</time>
      </trkpt>
      <trkpt lat="48.05253" lon="7.0236">
        <ele>1201.87</ele>
        <time>2016-03-07T11:56:42Z</time>
      </trkpt>
      <trkpt lat="48.05266" lon="7.02365">
        <ele>1202.77</ele>
        <time>2016-03-07T11:56:59Z</time>
      </trkpt>
      <trkpt lat="48.05282" lon="7.02372">
        <ele>1203.63</ele>
        <time>2016-03-07T11:57:19Z</time>
      </trkpt>
      <trkpt lat="48.05296" lon="7.02378">
        <ele>1205.43</ele>
        <time>2016-03-07T11:57:38Z</time>
      </trkpt>
      <trkpt lat="48.05308" lon="7.02388">
        <ele>1206.37</ele>
        <time>2016-03-07T11:57:56Z</time>
      </trkpt>
      <trkpt lat="48.05309" lon="7.0239">
        <ele>1205.82</ele>
        <time>2016-03-07T11:57:58Z</time>
      </trkpt>
      <trkpt lat="48.05314" lon="7.02406">
        <ele>1206.92</ele>
        <time>2016-03-07T11:58:13Z</time>
      </trkpt>
      <trkpt lat="48.05315" lon="7.02407">
        <ele>1206.15</ele>
        <time>2016-03-07T11:58:16Z</time>
      </trkpt>
      <trkpt lat="48.05316" lon="7.02413">
        <ele>1206.29</ele>
        <time>2016-03-07T11:58:20Z</time>
      </trkpt>
      <trkpt lat="48.05321" lon="7.02449">
        <ele>1206.02</ele>
        <time>2016-03-07T11:58:43Z</time>
      </trkpt>
      <trkpt lat="48.05326" lon="7.02477">
        <ele>1206.11</ele>
        <time>2016-03-07T11:59:02Z</time>
      </trkpt>
      <trkpt lat="48.05328" lon="7.02509">
        <ele>1205.27</ele>
        <time>2016-03-07T11:59:22Z</time>
      </trkpt>
      <trkpt lat="48.05327" lon="7.02519">
        <ele>1205.04</ele>
        <time>2016-03-07T11:59:33Z</time>
      </trkpt>
      <trkpt lat="48.05324" lon="7.02526">
        <ele>1204.68</ele>
        <time>2016-03-07T11:59:37Z</time>
      </trkpt>
      <trkpt lat="48.05323" lon="7.0253">
        <ele>1200.9</ele>
        <time>2016-03-07T11:59:48Z</time>
      </trkpt>
      <trkpt lat="48.05323" lon="7.02531">
        <ele>1206.31</ele>
        <time>2016-03-07T11:59:49Z</time>
      </trkpt>
      <trkpt lat="48.05323" lon="7.02532">
        <ele>1204.13</ele>
        <time>2016-03-07T11:59:51Z</time>
      </trkpt>
      <trkpt lat="48.05319" lon="7.02545">
        <ele>1203.05</ele>
        <time>2016-03-07T11:59:59Z</time>
      </trkpt>
      <trkpt lat="48.05314" lon="7.0256">
        <ele>1200.72</ele>
        <time>2016-03-07T12:00:08Z</time>
      </trkpt>
      <trkpt lat="48.05313" lon="7.02578">
        <ele>1199.65</ele>
        <time>2016-03-07T12:00:20Z</time>
      </trkpt>
      <trkpt lat="48.05316" lon="7.02597">
        <ele>1202.74</ele>
        <time>2016-03-07T12:13:09Z</time>
      </trkpt>
      <trkpt lat="48.05319" lon="7.02574">
        <ele>1202.04</ele>
        <time>2016-03-07T12:14:19Z</time>
      </trkpt>
      <trkpt lat="48.05307" lon="7.02614">
        <ele>1204.63</ele>
        <time>2016-03-07T12:51:05Z</time>
      </trkpt>
      <trkpt lat="48.05325" lon="7.02567">
        <ele>1200.99</ele>
        <time>2016-03-07T12:51:34Z</time>
      </trkpt>
      <trkpt lat="48.05326" lon="7.02566">
        <ele>1200.76</ele>
        <time>2016-03-07T12:51:35Z</time>
      </trkpt>
      <trkpt lat="48.05325" lon="7.02569">
        <ele>1197.64</ele>
        <time>2016-03-07T12:51:49Z</time>
      </trkpt>
      <trkpt lat="48.05315" lon="7.02589">
        <ele>1194.5</ele>
        <time>2016-03-07T12:52:36Z</time>
      </trkpt>
      <trkpt lat="48.05315" lon="7.0259">
        <ele>1194.5</ele>
        <time>2016-03-07T12:52:37Z</time>
      </trkpt>
      <trkpt lat="48.05315" lon="7.0259">
        <ele>1195.97</ele>
        <time>2016-03-07T12:52:57Z</time>
      </trkpt>
      <trkpt lat="48.05327" lon="7.02554">
        <ele>1197.2</ele>
        <time>2016-03-07T13:48:26Z</time>
      </trkpt>
      <trkpt lat="48.05331" lon="7.02564">
        <ele>1200.45</ele>
        <time>2016-03-07T13:48:38Z</time>
      </trkpt>
      <trkpt lat="48.05314" lon="7.02597">
        <ele>1205.11</ele>
        <time>2016-03-07T13:48:49Z</time>
      </trkpt>
      <trkpt lat="48.05314" lon="7.02597">
        <ele>1204.74</ele>
        <time>2016-03-07T13:48:50Z</time>
      </trkpt>
      <trkpt lat="48.05315" lon="7.02594">
        <ele>1208.01</ele>
        <time>2016-03-07T13:48:55Z</time>
      </trkpt>
      <trkpt lat="48.05317" lon="7.02587">
        <ele>1211.04</ele>
        <time>2016-03-07T13:49:06Z</time>
      </trkpt>
      <trkpt lat="48.05318" lon="7.02586">
        <ele>1207.99</ele>
        <time>2016-03-07T13:49:11Z</time>
      </trkpt>
      <trkpt lat="48.05318" lon="7.02586">
        <ele>1212.68</ele>
        <time>2016-03-07T13:49:12Z</time>
      </trkpt>
      <trkpt lat="48.05317" lon="7.02586">
        <ele>1211.81</ele>
        <time>2016-03-07T13:49:29Z</time>
      </trkpt>
      <trkpt lat="48.05318" lon="7.02584">
        <ele>1215.3</ele>
        <time>2016-03-07T13:49:51Z</time>
      </trkpt>
      <trkpt lat="48.05318" lon="7.02585">
        <ele>1211.39</ele>
        <time>2016-03-07T13:49:52Z</time>
      </trkpt>
      <trkpt lat="48.05318" lon="7.02585">
        <ele>1215.15</ele>
        <time>2016-03-07T13:49:53Z</time>
      </trkpt>
      <trkpt lat="48.05319" lon="7.02586">
        <ele>1213.29</ele>
        <time>2016-03-07T13:50:06Z</time>
      </trkpt>
      <trkpt lat="48.05321" lon="7.02583">
        <ele>1214.24</ele>
        <time>2016-03-07T13:50:37Z</time>
      </trkpt>
      <trkpt lat="48.0532" lon="7.02584">
        <ele>1210.42</ele>
        <time>2016-03-07T13:50:58Z</time>
      </trkpt>
      <trkpt lat="48.0532" lon="7.02584">
        <ele>1213.53</ele>
        <time>2016-03-07T13:51:00Z</time>
      </trkpt>
      <trkpt lat="48.05322" lon="7.02584">
        <ele>1213.16</ele>
        <time>2016-03-07T13:51:15Z</time>
      </trkpt>
      <trkpt lat="48.05322" lon="7.02584">
        <ele>1216.39</ele>
        <time>2016-03-07T13:51:17Z</time>
      </trkpt>
      <trkpt lat="48.05322" lon="7.02584">
        <ele>1215.03</ele>
        <time>2016-03-07T13:51:23Z</time>
      </trkpt>
      <trkpt lat="48.05321" lon="7.02583">
        <ele>1210.14</ele>
        <time>2016-03-07T13:51:38Z</time>
      </trkpt>
      <trkpt lat="48.0532" lon="7.02583">
        <ele>1214.96</ele>
        <time>2016-03-07T13:51:39Z</time>
      </trkpt>
      <trkpt lat="48.05317" lon="7.02585">
        <ele>1213.76</ele>
        <time>2016-03-07T13:52:32Z</time>
      </trkpt>
      <trkpt lat="48.05317" lon="7.02584">
        <ele>1212.37</ele>
        <time>2016-03-07T13:52:38Z</time>
      </trkpt>
      <trkpt lat="48.0532" lon="7.02582">
        <ele>1214.1</ele>
        <time>2016-03-07T13:53:04Z</time>
      </trkpt>
      <trkpt lat="48.0532" lon="7.02582">
        <ele>1210.99</ele>
        <time>2016-03-07T13:53:14Z</time>
      </trkpt>
      <trkpt lat="48.0532" lon="7.02582">
        <ele>1217.67</ele>
        <time>2016-03-07T13:53:16Z</time>
      </trkpt>
      <trkpt lat="48.0532" lon="7.02582">
        <ele>1215.03</ele>
        <time>2016-03-07T13:53:17Z</time>
      </trkpt>
      <trkpt lat="48.05321" lon="7.02583">
        <ele>1206.67</ele>
        <time>2016-03-07T13:53:20Z</time>
      </trkpt>
      <trkpt lat="48.05321" lon="7.02583">
        <ele>1213.84</ele>
        <time>2016-03-07T13:53:21Z</time>
      </trkpt>
      <trkpt lat="48.05322" lon="7.02583">
        <ele>1213.67</ele>
        <time>2016-03-07T13:53:26Z</time>
      </trkpt>
      <trkpt lat="48.05322" lon="7.02584">
        <ele>1212.34</ele>
        <time>2016-03-07T13:53:29Z</time>
      </trkpt>
      <trkpt lat="48.05321" lon="7.02585">
        <ele>1215.4</ele>
        <time>2016-03-07T13:53:35Z</time>
      </trkpt>
      <trkpt lat="48.05322" lon="7.02583">
        <ele>1210.74</ele>
        <time>2016-03-07T13:53:44Z</time>
      </trkpt>
      <trkpt lat="48.05322" lon="7.02583">
        <ele>1213.74</ele>
        <time>2016-03-07T13:53:46Z</time>
      </trkpt>
      <trkpt lat="48.05322" lon="7.02583">
        <ele>1213.73</ele>
        <time>2016-03-07T13:53:47Z</time>
      </trkpt>
      <trkpt lat="48.05321" lon="7.02584">
        <ele>1214.38</ele>
        <time>2016-03-07T13:54:12Z</time>
      </trkpt>
      <trkpt lat="48.05319" lon="7.02586">
        <ele>1214.53</ele>
        <time>2016-03-07T13:54:25Z</time>
      </trkpt>
      <trkpt lat="48.05319" lon="7.02585">
        <ele>1214.28</ele>
        <time>2016-03-07T13:54:53Z</time>
      </trkpt>
      <trkpt lat="48.05317" lon="7.02587">
        <ele>1214.67</ele>
        <time>2016-03-07T13:55:15Z</time>
      </trkpt>
      <trkpt lat="48.05319" lon="7.02586">
        <ele>1214.95</ele>
        <time>2016-03-07T13:55:40Z</time>
      </trkpt>
      <trkpt lat="48.05319" lon="7.02585">
        <ele>1214.64</ele>
        <time>2016-03-07T13:56:06Z</time>
      </trkpt>
      <trkpt lat="48.05319" lon="7.02585">
        <ele>1214.48</ele>
        <time>2016-03-07T13:56:26Z</time>
      </trkpt>
      <trkpt lat="48.05317" lon="7.02587">
        <ele>1214.38</ele>
        <time>2016-03-07T13:56:29Z</time>
      </trkpt>
      <trkpt lat="48.05319" lon="7.0259">
        <ele>1214.02</ele>
        <time>2016-03-07T13:56:42Z</time>
      </trkpt>
      <trkpt lat="48.05318" lon="7.02586">
        <ele>1213.7</ele>
        <time>2016-03-07T13:56:59Z</time>
      </trkpt>
      <trkpt lat="48.05318" lon="7.02585">
        <ele>1214.11</ele>
        <time>2016-03-07T13:57:26Z</time>
      </trkpt>
      <trkpt lat="48.05315" lon="7.02584">
        <ele>1213.86</ele>
        <time>2016-03-07T13:57:40Z</time>
      </trkpt>
      <trkpt lat="48.05315" lon="7.02582">
        <ele>1215.03</ele>
        <time>2016-03-07T13:58:01Z</time>
      </trkpt>
      <trkpt lat="48.05314" lon="7.0258">
        <ele>1214.83</ele>
        <time>2016-03-07T13:58:25Z</time>
      </trkpt>
      <trkpt lat="48.05315" lon="7.02578">
        <ele>1214.11</ele>
        <time>2016-03-07T13:58:47Z</time>
      </trkpt>
      <trkpt lat="48.05315" lon="7.02574">
        <ele>1214.05</ele>
        <time>2016-03-07T13:58:55Z</time>
      </trkpt>
      <trkpt lat="48.05321" lon="7.02553">
        <ele>1216.16</ele>
        <time>2016-03-07T13:59:14Z</time>
      </trkpt>
      <trkpt lat="48.05328" lon="7.02532">
        <ele>1218.73</ele>
        <time>2016-03-07T13:59:34Z</time>
      </trkpt>
      <trkpt lat="48.05331" lon="7.02508">
        <ele>1219.78</ele>
        <time>2016-03-07T13:59:55Z</time>
      </trkpt>
      <trkpt lat="48.05332" lon="7.02503">
        <ele>1219.38</ele>
        <time>2016-03-07T13:59:59Z</time>
      </trkpt>
      <trkpt lat="48.05328" lon="7.02477">
        <ele>1220.62</ele>
        <time>2016-03-07T14:00:18Z</time>
      </trkpt>
      <trkpt lat="48.05322" lon="7.02452">
        <ele>1219.68</ele>
        <time>2016-03-07T14:00:36Z</time>
      </trkpt>
      <trkpt lat="48.05317" lon="7.02434">
        <ele>1219.26</ele>
        <time>2016-03-07T14:00:52Z</time>
      </trkpt>
      <trkpt lat="48.05313" lon="7.02409">
        <ele>1219.56</ele>
        <time>2016-03-07T14:01:09Z</time>
      </trkpt>
      <trkpt lat="48.05309" lon="7.02385">
        <ele>1219.54</ele>
        <time>2016-03-07T14:01:25Z</time>
      </trkpt>
      <trkpt lat="48.05304" lon="7.02355">
        <ele>1220.39</ele>
        <time>2016-03-07T14:01:44Z</time>
      </trkpt>
      <trkpt lat="48.05297" lon="7.02329">
        <ele>1220.73</ele>
        <time>2016-03-07T14:02:02Z</time>
      </trkpt>
      <trkpt lat="48.0529" lon="7.02306">
        <ele>1222.67</ele>
        <time>2016-03-07T14:02:19Z</time>
      </trkpt>
      <trkpt lat="48.05282" lon="7.02284">
        <ele>1223.4</ele>
        <time>2016-03-07T14:02:36Z</time>
      </trkpt>
      <trkpt lat="48.05277" lon="7.02259">
        <ele>1224.31</ele>
        <time>2016-03-07T14:02:53Z</time>
      </trkpt>
      <trkpt lat="48.05271" lon="7.02238">
        <ele>1225.11</ele>
        <time>2016-03-07T14:03:09Z</time>
      </trkpt>
      <trkpt lat="48.05264" lon="7.02214">
        <ele>1224.47</ele>
        <time>2016-03-07T14:03:27Z</time>
      </trkpt>
      <trkpt lat="48.05256" lon="7.02191">
        <ele>1225.23</ele>
        <time>2016-03-07T14:03:45Z</time>
      </trkpt>
      <trkpt lat="48.05247" lon="7.02163">
        <ele>1227.07</ele>
        <time>2016-03-07T14:04:06Z</time>
      </trkpt>
      <trkpt lat="48.05238" lon="7.02137">
        <ele>1227.73</ele>
        <time>2016-03-07T14:04:25Z</time>
      </trkpt>
      <trkpt lat="48.05232" lon="7.02113">
        <ele>1228.42</ele>
        <time>2016-03-07T14:04:42Z</time>
      </trkpt>
      <trkpt lat="48.05225" lon="7.02089">
        <ele>1230.06</ele>
        <time>2016-03-07T14:04:59Z</time>
      </trkpt>
      <trkpt lat="48.05216" lon="7.0206">
        <ele>1231</ele>
        <time>2016-03-07T14:05:20Z</time>
      </trkpt>
      <trkpt lat="48.05208" lon="7.02036">
        <ele>1231.69</ele>
        <time>2016-03-07T14:05:39Z</time>
      </trkpt>
      <trkpt lat="48.05202" lon="7.02015">
        <ele>1232.77</ele>
        <time>2016-03-07T14:05:57Z</time>
      </trkpt>
      <trkpt lat="48.05194" lon="7.01993">
        <ele>1233.91</ele>
        <time>2016-03-07T14:06:15Z</time>
      </trkpt>
      <trkpt lat="48.05189" lon="7.01978">
        <ele>1233.86</ele>
        <time>2016-03-07T14:06:27Z</time>
      </trkpt>
      <trkpt lat="48.05181" lon="7.01961">
        <ele>1233.29</ele>
        <time>2016-03-07T14:06:42Z</time>
      </trkpt>
      <trkpt lat="48.05172" lon="7.0194">
        <ele>1233.68</ele>
        <time>2016-03-07T14:06:59Z</time>
      </trkpt>
      <trkpt lat="48.05164" lon="7.01915">
        <ele>1233.05</ele>
        <time>2016-03-07T14:07:14Z</time>
      </trkpt>
      <trkpt lat="48.05162" lon="7.01887">
        <ele>1232.77</ele>
        <time>2016-03-07T14:07:31Z</time>
      </trkpt>
      <trkpt lat="48.05163" lon="7.01853">
        <ele>1234.18</ele>
        <time>2016-03-07T14:07:53Z</time>
      </trkpt>
      <trkpt lat="48.05165" lon="7.01832">
        <ele>1234.72</ele>
        <time>2016-03-07T14:08:07Z</time>
      </trkpt>
      <trkpt lat="48.05168" lon="7.01801">
        <ele>1235.14</ele>
        <time>2016-03-07T14:08:27Z</time>
      </trkpt>
      <trkpt lat="48.05173" lon="7.01777">
        <ele>1235.01</ele>
        <time>2016-03-07T14:08:45Z</time>
      </trkpt>
      <trkpt lat="48.05176" lon="7.01751">
        <ele>1235.88</ele>
        <time>2016-03-07T14:09:02Z</time>
      </trkpt>
      <trkpt lat="48.05178" lon="7.01734">
        <ele>1236.59</ele>
        <time>2016-03-07T14:09:17Z</time>
      </trkpt>
      <trkpt lat="48.05179" lon="7.0172">
        <ele>1236.49</ele>
        <time>2016-03-07T14:09:36Z</time>
      </trkpt>
      <trkpt lat="48.05179" lon="7.017">
        <ele>1237.26</ele>
        <time>2016-03-07T14:09:52Z</time>
      </trkpt>
      <trkpt lat="48.05181" lon="7.01676">
        <ele>1237.26</ele>
        <time>2016-03-07T14:10:10Z</time>
      </trkpt>
      <trkpt lat="48.05182" lon="7.01653">
        <ele>1237.56</ele>
        <time>2016-03-07T14:10:26Z</time>
      </trkpt>
      <trkpt lat="48.05184" lon="7.01636">
        <ele>1237.95</ele>
        <time>2016-03-07T14:10:38Z</time>
      </trkpt>
      <trkpt lat="48.05184" lon="7.01628">
        <ele>1237.73</ele>
        <time>2016-03-07T14:10:44Z</time>
      </trkpt>
      <trkpt lat="48.05186" lon="7.01602">
        <ele>1237.3</ele>
        <time>2016-03-07T14:11:02Z</time>
      </trkpt>
      <trkpt lat="48.05189" lon="7.01579">
        <ele>1236.65</ele>
        <time>2016-03-07T14:11:19Z</time>
      </trkpt>
      <trkpt lat="48.05191" lon="7.0156">
        <ele>1235.78</ele>
        <time>2016-03-07T14:11:34Z</time>
      </trkpt>
      <trkpt lat="48.05192" lon="7.01538">
        <ele>1235.05</ele>
        <time>2016-03-07T14:11:49Z</time>
      </trkpt>
      <trkpt lat="48.05191" lon="7.01524">
        <ele>1233.43</ele>
        <time>2016-03-07T14:12:00Z</time>
      </trkpt>
      <trkpt lat="48.05195" lon="7.01495">
        <ele>1232.56</ele>
        <time>2016-03-07T14:12:21Z</time>
      </trkpt>
      <trkpt lat="48.05197" lon="7.01481">
        <ele>1232.64</ele>
        <time>2016-03-07T14:12:35Z</time>
      </trkpt>
      <trkpt lat="48.05196" lon="7.01481">
        <ele>1232.24</ele>
        <time>2016-03-07T14:13:00Z</time>
      </trkpt>
      <trkpt lat="48.05195" lon="7.01478">
        <ele>1232.45</ele>
        <time>2016-03-07T14:13:19Z</time>
      </trkpt>
      <trkpt lat="48.05194" lon="7.01472">
        <ele>1232.37</ele>
        <time>2016-03-07T14:13:40Z</time>
      </trkpt>
      <trkpt lat="48.05196" lon="7.01471">
        <ele>1231.95</ele>
        <time>2016-03-07T14:14:11Z</time>
      </trkpt>
      <trkpt lat="48.05196" lon="7.01469">
        <ele>1232.12</ele>
        <time>2016-03-07T14:14:46Z</time>
      </trkpt>
      <trkpt lat="48.05196" lon="7.01469">
        <ele>1231.19</ele>
        <time>2016-03-07T14:15:12Z</time>
      </trkpt>
      <trkpt lat="48.05195" lon="7.0147">
        <ele>1232.02</ele>
        <time>2016-03-07T14:15:36Z</time>
      </trkpt>
      <trkpt lat="48.05195" lon="7.01466">
        <ele>1230.82</ele>
        <time>2016-03-07T14:15:54Z</time>
      </trkpt>
      <trkpt lat="48.052" lon="7.01459">
        <ele>1230.27</ele>
        <time>2016-03-07T14:16:13Z</time>
      </trkpt>
      <trkpt lat="48.05205" lon="7.01456">
        <ele>1229.7</ele>
        <time>2016-03-07T14:16:31Z</time>
      </trkpt>
      <trkpt lat="48.0521" lon="7.01454">
        <ele>1229.85</ele>
        <time>2016-03-07T14:16:58Z</time>
      </trkpt>
      <trkpt lat="48.05212" lon="7.01452">
        <ele>1229.03</ele>
        <time>2016-03-07T14:17:19Z</time>
      </trkpt>
      <trkpt lat="48.05215" lon="7.01453">
        <ele>1229.21</ele>
        <time>2016-03-07T14:17:23Z</time>
      </trkpt>
      <trkpt lat="48.0523" lon="7.01455">
        <ele>1228.94</ele>
        <time>2016-03-07T14:17:39Z</time>
      </trkpt>
      <trkpt lat="48.05233" lon="7.01455">
        <ele>1228.71</ele>
        <time>2016-03-07T14:17:42Z</time>
      </trkpt>
      <trkpt lat="48.0524" lon="7.01453">
        <ele>1228.35</ele>
        <time>2016-03-07T14:17:49Z</time>
      </trkpt>
      <trkpt lat="48.05245" lon="7.01445">
        <ele>1227.7</ele>
        <time>2016-03-07T14:18:04Z</time>
      </trkpt>
      <trkpt lat="48.05239" lon="7.01448">
        <ele>1228.36</ele>
        <time>2016-03-07T14:18:17Z</time>
      </trkpt>
      <trkpt lat="48.05233" lon="7.01452">
        <ele>1228</ele>
        <time>2016-03-07T14:18:35Z</time>
      </trkpt>
      <trkpt lat="48.05233" lon="7.01447">
        <ele>1229.33</ele>
        <time>2016-03-07T14:18:52Z</time>
      </trkpt>
      <trkpt lat="48.05233" lon="7.01446">
        <ele>1228.54</ele>
        <time>2016-03-07T14:19:17Z</time>
      </trkpt>
      <trkpt lat="48.05237" lon="7.01435">
        <ele>1227.57</ele>
        <time>2016-03-07T14:19:32Z</time>
      </trkpt>
      <trkpt lat="48.05243" lon="7.01427">
        <ele>1227.03</ele>
        <time>2016-03-07T14:19:50Z</time>
      </trkpt>
      <trkpt lat="48.0525" lon="7.01419">
        <ele>1226.4</ele>
        <time>2016-03-07T14:20:13Z</time>
      </trkpt>
      <trkpt lat="48.05257" lon="7.01412">
        <ele>1224.87</ele>
        <time>2016-03-07T14:20:35Z</time>
      </trkpt>
      <trkpt lat="48.05264" lon="7.01391">
        <ele>1223.05</ele>
        <time>2016-03-07T14:20:57Z</time>
      </trkpt>
      <trkpt lat="48.05267" lon="7.01388">
        <ele>1222.66</ele>
        <time>2016-03-07T14:21:01Z</time>
      </trkpt>
      <trkpt lat="48.05275" lon="7.01381">
        <ele>1222.18</ele>
        <time>2016-03-07T14:21:16Z</time>
      </trkpt>
      <trkpt lat="48.05279" lon="7.01377">
        <ele>1222.62</ele>
        <time>2016-03-07T14:21:45Z</time>
      </trkpt>
      <trkpt lat="48.05287" lon="7.01379">
        <ele>1222.34</ele>
        <time>2016-03-07T14:22:11Z</time>
      </trkpt>
      <trkpt lat="48.05292" lon="7.01369">
        <ele>1220.67</ele>
        <time>2016-03-07T14:22:38Z</time>
      </trkpt>
      <trkpt lat="48.05297" lon="7.01363">
        <ele>1220.12</ele>
        <time>2016-03-07T14:22:57Z</time>
      </trkpt>
      <trkpt lat="48.05305" lon="7.01347">
        <ele>1217.95</ele>
        <time>2016-03-07T14:23:21Z</time>
      </trkpt>
      <trkpt lat="48.05307" lon="7.01343">
        <ele>1217.28</ele>
        <time>2016-03-07T14:23:25Z</time>
      </trkpt>
      <trkpt lat="48.05321" lon="7.01322">
        <ele>1215.71</ele>
        <time>2016-03-07T14:23:44Z</time>
      </trkpt>
      <trkpt lat="48.05332" lon="7.01303">
        <ele>1213.32</ele>
        <time>2016-03-07T14:24:05Z</time>
      </trkpt>
      <trkpt lat="48.05336" lon="7.01301">
        <ele>1214.03</ele>
        <time>2016-03-07T14:24:29Z</time>
      </trkpt>
      <trkpt lat="48.0534" lon="7.01289">
        <ele>1213.37</ele>
        <time>2016-03-07T14:24:52Z</time>
      </trkpt>
      <trkpt lat="48.05353" lon="7.01278">
        <ele>1210.34</ele>
        <time>2016-03-07T14:25:10Z</time>
      </trkpt>
      <trkpt lat="48.05371" lon="7.01265">
        <ele>1208.99</ele>
        <time>2016-03-07T14:25:32Z</time>
      </trkpt>
      <trkpt lat="48.05376" lon="7.01264">
        <ele>1209.08</ele>
        <time>2016-03-07T14:25:57Z</time>
      </trkpt>
      <trkpt lat="48.05381" lon="7.01262">
        <ele>1208.81</ele>
        <time>2016-03-07T14:26:20Z</time>
      </trkpt>
      <trkpt lat="48.05382" lon="7.0126">
        <ele>1208.91</ele>
        <time>2016-03-07T14:26:22Z</time>
      </trkpt>
      <trkpt lat="48.05388" lon="7.01251">
        <ele>1208.13</ele>
        <time>2016-03-07T14:26:38Z</time>
      </trkpt>
      <trkpt lat="48.05388" lon="7.01248">
        <ele>1207.85</ele>
        <time>2016-03-07T14:26:42Z</time>
      </trkpt>
      <trkpt lat="48.05399" lon="7.01232">
        <ele>1207.67</ele>
        <time>2016-03-07T14:27:00Z</time>
      </trkpt>
      <trkpt lat="48.05404" lon="7.01225">
        <ele>1205.86</ele>
        <time>2016-03-07T14:27:08Z</time>
      </trkpt>
      <trkpt lat="48.0542" lon="7.01216">
        <ele>1203.93</ele>
        <time>2016-03-07T14:27:30Z</time>
      </trkpt>
      <trkpt lat="48.05433" lon="7.01223">
        <ele>1205.42</ele>
        <time>2016-03-07T14:27:49Z</time>
      </trkpt>
      <trkpt lat="48.05446" lon="7.01227">
        <ele>1205.31</ele>
        <time>2016-03-07T14:28:07Z</time>
      </trkpt>
      <trkpt lat="48.05457" lon="7.01226">
        <ele>1206.5</ele>
        <time>2016-03-07T14:28:28Z</time>
      </trkpt>
      <trkpt lat="48.05462" lon="7.01228">
        <ele>1206.53</ele>
        <time>2016-03-07T14:28:48Z</time>
      </trkpt>
      <trkpt lat="48.0547" lon="7.0123">
        <ele>1206.6</ele>
        <time>2016-03-07T14:29:06Z</time>
      </trkpt>
      <trkpt lat="48.05475" lon="7.01219">
        <ele>1204.41</ele>
        <time>2016-03-07T14:29:25Z</time>
      </trkpt>
      <trkpt lat="48.05483" lon="7.01214">
        <ele>1201.38</ele>
        <time>2016-03-07T14:29:34Z</time>
      </trkpt>
      <trkpt lat="48.05487" lon="7.01199">
        <ele>1200.14</ele>
        <time>2016-03-07T14:29:49Z</time>
      </trkpt>
      <trkpt lat="48.05487" lon="7.01195">
        <ele>1200.91</ele>
        <time>2016-03-07T14:30:17Z</time>
      </trkpt>
      <trkpt lat="48.05485" lon="7.01192">
        <ele>1200</ele>
        <time>2016-03-07T14:30:46Z</time>
      </trkpt>
      <trkpt lat="48.05484" lon="7.01171">
        <ele>1197.66</ele>
        <time>2016-03-07T14:31:07Z</time>
      </trkpt>
      <trkpt lat="48.05491" lon="7.01145">
        <ele>1194.63</ele>
        <time>2016-03-07T14:31:32Z</time>
      </trkpt>
      <trkpt lat="48.05492" lon="7.01121">
        <ele>1193.56</ele>
        <time>2016-03-07T14:31:47Z</time>
      </trkpt>
      <trkpt lat="48.05497" lon="7.01093">
        <ele>1191.29</ele>
        <time>2016-03-07T14:32:09Z</time>
      </trkpt>
      <trkpt lat="48.05505" lon="7.01084">
        <ele>1190.98</ele>
        <time>2016-03-07T14:32:26Z</time>
      </trkpt>
      <trkpt lat="48.05516" lon="7.01085">
        <ele>1189.44</ele>
        <time>2016-03-07T14:32:48Z</time>
      </trkpt>
      <trkpt lat="48.0552" lon="7.01085">
        <ele>1189.31</ele>
        <time>2016-03-07T14:32:52Z</time>
      </trkpt>
      <trkpt lat="48.05538" lon="7.01089">
        <ele>1186.83</ele>
        <time>2016-03-07T14:33:12Z</time>
      </trkpt>
      <trkpt lat="48.05553" lon="7.01095">
        <ele>1184.89</ele>
        <time>2016-03-07T14:33:30Z</time>
      </trkpt>
      <trkpt lat="48.05569" lon="7.0111">
        <ele>1182.37</ele>
        <time>2016-03-07T14:33:53Z</time>
      </trkpt>
      <trkpt lat="48.05581" lon="7.01125">
        <ele>1180.37</ele>
        <time>2016-03-07T14:34:11Z</time>
      </trkpt>
      <trkpt lat="48.05596" lon="7.01134">
        <ele>1177.32</ele>
        <time>2016-03-07T14:34:29Z</time>
      </trkpt>
      <trkpt lat="48.05606" lon="7.01137">
        <ele>1176.1</ele>
        <time>2016-03-07T14:34:51Z</time>
      </trkpt>
      <trkpt lat="48.05608" lon="7.01138">
        <ele>1175.84</ele>
        <time>2016-03-07T14:35:12Z</time>
      </trkpt>
      <trkpt lat="48.0561" lon="7.01141">
        <ele>1175.69</ele>
        <time>2016-03-07T14:35:44Z</time>
      </trkpt>
      <trkpt lat="48.0561" lon="7.0114">
        <ele>1174.99</ele>
        <time>2016-03-07T14:35:58Z</time>
      </trkpt>
      <trkpt lat="48.0561" lon="7.01136">
        <ele>1175.66</ele>
        <time>2016-03-07T14:36:28Z</time>
      </trkpt>
      <trkpt lat="48.05611" lon="7.01139">
        <ele>1175.73</ele>
        <time>2016-03-07T14:37:12Z</time>
      </trkpt>
      <trkpt lat="48.05609" lon="7.01137">
        <ele>1175.44</ele>
        <time>2016-03-07T14:37:36Z</time>
      </trkpt>
      <trkpt lat="48.05607" lon="7.01137">
        <ele>1176.03</ele>
        <time>2016-03-07T14:38:01Z</time>
      </trkpt>
      <trkpt lat="48.05607" lon="7.01143">
        <ele>1176.17</ele>
        <time>2016-03-07T14:38:32Z</time>
      </trkpt>
      <trkpt lat="48.056" lon="7.01132">
        <ele>1176.65</ele>
        <time>2016-03-07T14:38:55Z</time>
      </trkpt>
      <trkpt lat="48.05593" lon="7.0112">
        <ele>1177.41</ele>
        <time>2016-03-07T14:39:16Z</time>
      </trkpt>
      <trkpt lat="48.05584" lon="7.01102">
        <ele>1178.61</ele>
        <time>2016-03-07T14:39:37Z</time>
      </trkpt>
      <trkpt lat="48.05573" lon="7.0108">
        <ele>1180.26</ele>
        <time>2016-03-07T14:39:58Z</time>
      </trkpt>
      <trkpt lat="48.05559" lon="7.01051">
        <ele>1180.97</ele>
        <time>2016-03-07T14:40:19Z</time>
      </trkpt>
      <trkpt lat="48.05548" lon="7.01035">
        <ele>1181.88</ele>
        <time>2016-03-07T14:40:37Z</time>
      </trkpt>
      <trkpt lat="48.05536" lon="7.01015">
        <ele>1183.58</ele>
        <time>2016-03-07T14:40:59Z</time>
      </trkpt>
      <trkpt lat="48.05524" lon="7.00999">
        <ele>1184.76</ele>
        <time>2016-03-07T14:41:20Z</time>
      </trkpt>
      <trkpt lat="48.05508" lon="7.00997">
        <ele>1185.2</ele>
        <time>2016-03-07T14:41:41Z</time>
      </trkpt>
      <trkpt lat="48.05496" lon="7.00994">
        <ele>1187.6</ele>
        <time>2016-03-07T14:42:01Z</time>
      </trkpt>
      <trkpt lat="48.05479" lon="7.00999">
        <ele>1188.01</ele>
        <time>2016-03-07T14:42:21Z</time>
      </trkpt>
      <trkpt lat="48.05468" lon="7.01013">
        <ele>1189.17</ele>
        <time>2016-03-07T14:42:40Z</time>
      </trkpt>
      <trkpt lat="48.05464" lon="7.01016">
        <ele>1189.25</ele>
        <time>2016-03-07T14:42:45Z</time>
      </trkpt>
      <trkpt lat="48.0546" lon="7.01019">
        <ele>1189.01</ele>
        <time>2016-03-07T14:42:49Z</time>
      </trkpt>
      <trkpt lat="48.05446" lon="7.01024">
        <ele>1189.51</ele>
        <time>2016-03-07T14:43:04Z</time>
      </trkpt>
      <trkpt lat="48.05445" lon="7.01025">
        <ele>1188.67</ele>
        <time>2016-03-07T14:43:06Z</time>
      </trkpt>
      <trkpt lat="48.05437" lon="7.01019">
        <ele>1188.38</ele>
        <time>2016-03-07T14:43:21Z</time>
      </trkpt>
      <trkpt lat="48.05439" lon="7.01018">
        <ele>1187.53</ele>
        <time>2016-03-07T14:43:50Z</time>
      </trkpt>
      <trkpt lat="48.05436" lon="7.01016">
        <ele>1187.66</ele>
        <time>2016-03-07T14:44:15Z</time>
      </trkpt>
      <trkpt lat="48.05437" lon="7.0101">
        <ele>1187.23</ele>
        <time>2016-03-07T14:44:20Z</time>
      </trkpt>
      <trkpt lat="48.05437" lon="7.01003">
        <ele>1186.66</ele>
        <time>2016-03-07T14:44:25Z</time>
      </trkpt>
      <trkpt lat="48.05435" lon="7.00977">
        <ele>1184.04</ele>
        <time>2016-03-07T14:44:43Z</time>
      </trkpt>
      <trkpt lat="48.05432" lon="7.00947">
        <ele>1181.99</ele>
        <time>2016-03-07T14:45:04Z</time>
      </trkpt>
      <trkpt lat="48.05431" lon="7.00931">
        <ele>1179.57</ele>
        <time>2016-03-07T14:45:16Z</time>
      </trkpt>
      <trkpt lat="48.05431" lon="7.00922">
        <ele>1179.1</ele>
        <time>2016-03-07T14:45:31Z</time>
      </trkpt>
      <trkpt lat="48.05431" lon="7.00917">
        <ele>1178.03</ele>
        <time>2016-03-07T14:45:34Z</time>
      </trkpt>
      <trkpt lat="48.05427" lon="7.0089">
        <ele>1174.98</ele>
        <time>2016-03-07T14:45:54Z</time>
      </trkpt>
      <trkpt lat="48.05426" lon="7.00874">
        <ele>1171.9</ele>
        <time>2016-03-07T14:46:05Z</time>
      </trkpt>
      <trkpt lat="48.05426" lon="7.00865">
        <ele>1170.71</ele>
        <time>2016-03-07T14:46:11Z</time>
      </trkpt>
      <trkpt lat="48.05426" lon="7.00849">
        <ele>1168.37</ele>
        <time>2016-03-07T14:46:28Z</time>
      </trkpt>
      <trkpt lat="48.05429" lon="7.0083">
        <ele>1165.69</ele>
        <time>2016-03-07T14:46:52Z</time>
      </trkpt>
      <trkpt lat="48.05427" lon="7.00813">
        <ele>1163</ele>
        <time>2016-03-07T14:47:07Z</time>
      </trkpt>
      <trkpt lat="48.05426" lon="7.00797">
        <ele>1160.46</ele>
        <time>2016-03-07T14:47:25Z</time>
      </trkpt>
      <trkpt lat="48.05426" lon="7.00789">
        <ele>1158.91</ele>
        <time>2016-03-07T14:47:49Z</time>
      </trkpt>
      <trkpt lat="48.05426" lon="7.00771">
        <ele>1155.31</ele>
        <time>2016-03-07T14:48:05Z</time>
      </trkpt>
      <trkpt lat="48.05424" lon="7.00751">
        <ele>1151.94</ele>
        <time>2016-03-07T14:48:24Z</time>
      </trkpt>
      <trkpt lat="48.05422" lon="7.00734">
        <ele>1148.88</ele>
        <time>2016-03-07T14:48:38Z</time>
      </trkpt>
      <trkpt lat="48.05422" lon="7.00732">
        <ele>1148.59</ele>
        <time>2016-03-07T14:48:39Z</time>
      </trkpt>
      <trkpt lat="48.05419" lon="7.00714">
        <ele>1145.64</ele>
        <time>2016-03-07T14:48:57Z</time>
      </trkpt>
      <trkpt lat="48.05416" lon="7.00697">
        <ele>1143.1</ele>
        <time>2016-03-07T14:49:14Z</time>
      </trkpt>
      <trkpt lat="48.05414" lon="7.00677">
        <ele>1139.93</ele>
        <time>2016-03-07T14:49:28Z</time>
      </trkpt>
      <trkpt lat="48.05414" lon="7.00674">
        <ele>1139.58</ele>
        <time>2016-03-07T14:49:30Z</time>
      </trkpt>
      <trkpt lat="48.05412" lon="7.00661">
        <ele>1137.23</ele>
        <time>2016-03-07T14:49:39Z</time>
      </trkpt>
      <trkpt lat="48.05409" lon="7.00646">
        <ele>1134.05</ele>
        <time>2016-03-07T14:49:50Z</time>
      </trkpt>
      <trkpt lat="48.05406" lon="7.00626">
        <ele>1130.85</ele>
        <time>2016-03-07T14:50:06Z</time>
      </trkpt>
      <trkpt lat="48.05404" lon="7.00606">
        <ele>1128.02</ele>
        <time>2016-03-07T14:50:23Z</time>
      </trkpt>
      <trkpt lat="48.05403" lon="7.0059">
        <ele>1124.9</ele>
        <time>2016-03-07T14:50:38Z</time>
      </trkpt>
      <trkpt lat="48.05402" lon="7.00583">
        <ele>1124.3</ele>
        <time>2016-03-07T14:50:55Z</time>
      </trkpt>
      <trkpt lat="48.05404" lon="7.00575">
        <ele>1122.37</ele>
        <time>2016-03-07T14:51:04Z</time>
      </trkpt>
      <trkpt lat="48.05406" lon="7.00562">
        <ele>1120.25</ele>
        <time>2016-03-07T14:51:19Z</time>
      </trkpt>
      <trkpt lat="48.054" lon="7.00559">
        <ele>1119.3</ele>
        <time>2016-03-07T14:51:36Z</time>
      </trkpt>
      <trkpt lat="48.05396" lon="7.00559">
        <ele>1118.08</ele>
        <time>2016-03-07T14:51:41Z</time>
      </trkpt>
      <trkpt lat="48.05389" lon="7.0056">
        <ele>1117.27</ele>
        <time>2016-03-07T14:51:59Z</time>
      </trkpt>
      <trkpt lat="48.05386" lon="7.00561">
        <ele>1116.76</ele>
        <time>2016-03-07T14:52:16Z</time>
      </trkpt>
      <trkpt lat="48.05382" lon="7.00556">
        <ele>1115.02</ele>
        <time>2016-03-07T14:52:22Z</time>
      </trkpt>
      <trkpt lat="48.05386" lon="7.00534">
        <ele>1112.1</ele>
        <time>2016-03-07T14:52:38Z</time>
      </trkpt>
      <trkpt lat="48.05388" lon="7.00518">
        <ele>1111.81</ele>
        <time>2016-03-07T14:52:55Z</time>
      </trkpt>
      <trkpt lat="48.05389" lon="7.0051">
        <ele>1111.04</ele>
        <time>2016-03-07T14:53:09Z</time>
      </trkpt>
      <trkpt lat="48.05388" lon="7.00506">
        <ele>1110.92</ele>
        <time>2016-03-07T14:53:22Z</time>
      </trkpt>
      <trkpt lat="48.05389" lon="7.00505">
        <ele>1111.18</ele>
        <time>2016-03-07T14:53:24Z</time>
      </trkpt>
      <trkpt lat="48.05409" lon="7.00494">
        <ele>1111.05</ele>
        <time>2016-03-07T14:53:43Z</time>
      </trkpt>
      <trkpt lat="48.05418" lon="7.00494">
        <ele>1110.9</ele>
        <time>2016-03-07T14:53:53Z</time>
      </trkpt>
      <trkpt lat="48.0543" lon="7.00489">
        <ele>1111.12</ele>
        <time>2016-03-07T14:54:09Z</time>
      </trkpt>
      <trkpt lat="48.05433" lon="7.00491">
        <ele>1111.11</ele>
        <time>2016-03-07T14:54:34Z</time>
      </trkpt>
      <trkpt lat="48.05432" lon="7.00501">
        <ele>1110.87</ele>
        <time>2016-03-07T14:54:47Z</time>
      </trkpt>
      <trkpt lat="48.05436" lon="7.00505">
        <ele>1110.87</ele>
        <time>2016-03-07T14:54:56Z</time>
      </trkpt>
      <trkpt lat="48.05444" lon="7.00511">
        <ele>1111.06</ele>
        <time>2016-03-07T14:55:11Z</time>
      </trkpt>
      <trkpt lat="48.05438" lon="7.0051">
        <ele>1111.23</ele>
        <time>2016-03-07T14:55:32Z</time>
      </trkpt>
      <trkpt lat="48.0544" lon="7.00512">
        <ele>1111.08</ele>
        <time>2016-03-07T14:55:40Z</time>
      </trkpt>
      <trkpt lat="48.05444" lon="7.00514">
        <ele>1111.31</ele>
        <time>2016-03-07T14:55:44Z</time>
      </trkpt>
      <trkpt lat="48.05454" lon="7.0052">
        <ele>1111.14</ele>
        <time>2016-03-07T14:55:59Z</time>
      </trkpt>
      <trkpt lat="48.05454" lon="7.00522">
        <ele>1110.92</ele>
        <time>2016-03-07T14:56:18Z</time>
      </trkpt>
      <trkpt lat="48.05456" lon="7.00524">
        <ele>1111.2</ele>
        <time>2016-03-07T14:56:22Z</time>
      </trkpt>
      <trkpt lat="48.05471" lon="7.00543">
        <ele>1110.85</ele>
        <time>2016-03-07T14:56:41Z</time>
      </trkpt>
      <trkpt lat="48.05474" lon="7.00546">
        <ele>1110.83</ele>
        <time>2016-03-07T14:56:44Z</time>
      </trkpt>
      <trkpt lat="48.05483" lon="7.00551">
        <ele>1109.85</ele>
        <time>2016-03-07T14:56:54Z</time>
      </trkpt>
      <trkpt lat="48.05485" lon="7.00551">
        <ele>1109.82</ele>
        <time>2016-03-07T14:56:56Z</time>
      </trkpt>
      <trkpt lat="48.05487" lon="7.00549">
        <ele>1110.09</ele>
        <time>2016-03-07T14:56:58Z</time>
      </trkpt>
      <trkpt lat="48.05492" lon="7.00546">
        <ele>1110.29</ele>
        <time>2016-03-07T14:57:04Z</time>
      </trkpt>
      <trkpt lat="48.05494" lon="7.00546">
        <ele>1109.54</ele>
        <time>2016-03-07T14:57:19Z</time>
      </trkpt>
      <trkpt lat="48.055" lon="7.00555">
        <ele>1109.91</ele>
        <time>2016-03-07T14:57:36Z</time>
      </trkpt>
      <trkpt lat="48.05506" lon="7.00561">
        <ele>1110.87</ele>
        <time>2016-03-07T14:57:52Z</time>
      </trkpt>
      <trkpt lat="48.05502" lon="7.00555">
        <ele>1110.76</ele>
        <time>2016-03-07T14:58:08Z</time>
      </trkpt>
      <trkpt lat="48.05498" lon="7.0055">
        <ele>1110.36</ele>
        <time>2016-03-07T14:58:24Z</time>
      </trkpt>
      <trkpt lat="48.05497" lon="7.0055">
        <ele>1110.95</ele>
        <time>2016-03-07T14:58:48Z</time>
      </trkpt>
      <trkpt lat="48.05497" lon="7.00542">
        <ele>1108.61</ele>
        <time>2016-03-07T14:59:04Z</time>
      </trkpt>
      <trkpt lat="48.05506" lon="7.00539">
        <ele>1106.51</ele>
        <time>2016-03-07T14:59:20Z</time>
      </trkpt>
      <trkpt lat="48.05513" lon="7.00532">
        <ele>1104.63</ele>
        <time>2016-03-07T14:59:37Z</time>
      </trkpt>
      <trkpt lat="48.05517" lon="7.00534">
        <ele>1102.27</ele>
        <time>2016-03-07T14:59:53Z</time>
      </trkpt>
      <trkpt lat="48.05521" lon="7.0053">
        <ele>1099.72</ele>
        <time>2016-03-07T15:00:09Z</time>
      </trkpt>
      <trkpt lat="48.05526" lon="7.00531">
        <ele>1099.37</ele>
        <time>2016-03-07T15:00:33Z</time>
      </trkpt>
      <trkpt lat="48.05527" lon="7.00524">
        <ele>1097.31</ele>
        <time>2016-03-07T15:00:53Z</time>
      </trkpt>
      <trkpt lat="48.05534" lon="7.00526">
        <ele>1094.45</ele>
        <time>2016-03-07T15:01:14Z</time>
      </trkpt>
      <trkpt lat="48.05547" lon="7.00534">
        <ele>1091.54</ele>
        <time>2016-03-07T15:01:33Z</time>
      </trkpt>
      <trkpt lat="48.05563" lon="7.00545">
        <ele>1088.6</ele>
        <time>2016-03-07T15:01:55Z</time>
      </trkpt>
      <trkpt lat="48.05574" lon="7.00553">
        <ele>1085.59</ele>
        <time>2016-03-07T15:02:13Z</time>
      </trkpt>
      <trkpt lat="48.05591" lon="7.00558">
        <ele>1083.49</ele>
        <time>2016-03-07T15:02:38Z</time>
      </trkpt>
      <trkpt lat="48.056" lon="7.00561">
        <ele>1082.8</ele>
        <time>2016-03-07T15:03:02Z</time>
      </trkpt>
      <trkpt lat="48.05612" lon="7.00567">
        <ele>1080.85</ele>
        <time>2016-03-07T15:03:22Z</time>
      </trkpt>
      <trkpt lat="48.05616" lon="7.0057">
        <ele>1080.51</ele>
        <time>2016-03-07T15:03:42Z</time>
      </trkpt>
      <trkpt lat="48.05621" lon="7.00572">
        <ele>1078.17</ele>
        <time>2016-03-07T15:04:08Z</time>
      </trkpt>
      <trkpt lat="48.05632" lon="7.00577">
        <ele>1076.97</ele>
        <time>2016-03-07T15:04:26Z</time>
      </trkpt>
      <trkpt lat="48.05643" lon="7.00579">
        <ele>1073.92</ele>
        <time>2016-03-07T15:04:46Z</time>
      </trkpt>
      <trkpt lat="48.05649" lon="7.00573">
        <ele>1070.65</ele>
        <time>2016-03-07T15:05:02Z</time>
      </trkpt>
      <trkpt lat="48.05662" lon="7.00578">
        <ele>1068.81</ele>
        <time>2016-03-07T15:05:23Z</time>
      </trkpt>
      <trkpt lat="48.05671" lon="7.0058">
        <ele>1068.03</ele>
        <time>2016-03-07T15:05:44Z</time>
      </trkpt>
      <trkpt lat="48.05683" lon="7.00587">
        <ele>1066.59</ele>
        <time>2016-03-07T15:06:05Z</time>
      </trkpt>
      <trkpt lat="48.05689" lon="7.00594">
        <ele>1066.14</ele>
        <time>2016-03-07T15:06:28Z</time>
      </trkpt>
      <trkpt lat="48.05686" lon="7.00595">
        <ele>1066.55</ele>
        <time>2016-03-07T15:06:45Z</time>
      </trkpt>
      <trkpt lat="48.05688" lon="7.006">
        <ele>1066.45</ele>
        <time>2016-03-07T15:07:06Z</time>
      </trkpt>
      <trkpt lat="48.0569" lon="7.00602">
        <ele>1066.45</ele>
        <time>2016-03-07T15:07:39Z</time>
      </trkpt>
      <trkpt lat="48.05691" lon="7.00604">
        <ele>1066.35</ele>
        <time>2016-03-07T15:08:13Z</time>
      </trkpt>
      <trkpt lat="48.05688" lon="7.00604">
        <ele>1066.88</ele>
        <time>2016-03-07T15:08:42Z</time>
      </trkpt>
      <trkpt lat="48.05695" lon="7.00604">
        <ele>1066.24</ele>
        <time>2016-03-07T15:09:02Z</time>
      </trkpt>
      <trkpt lat="48.05706" lon="7.00608">
        <ele>1063.14</ele>
        <time>2016-03-07T15:09:22Z</time>
      </trkpt>
      <trkpt lat="48.05716" lon="7.00614">
        <ele>1060.41</ele>
        <time>2016-03-07T15:09:40Z</time>
      </trkpt>
      <trkpt lat="48.05727" lon="7.00619">
        <ele>1057.34</ele>
        <time>2016-03-07T15:09:59Z</time>
      </trkpt>
      <trkpt lat="48.05737" lon="7.00625">
        <ele>1054.32</ele>
        <time>2016-03-07T15:10:18Z</time>
      </trkpt>
      <trkpt lat="48.05741" lon="7.00625">
        <ele>1053.88</ele>
        <time>2016-03-07T15:10:41Z</time>
      </trkpt>
      <trkpt lat="48.05743" lon="7.00627">
        <ele>1054.63</ele>
        <time>2016-03-07T15:11:00Z</time>
      </trkpt>
      <trkpt lat="48.0575" lon="7.00636">
        <ele>1053.42</ele>
        <time>2016-03-07T15:11:20Z</time>
      </trkpt>
      <trkpt lat="48.05758" lon="7.00642">
        <ele>1051.49</ele>
        <time>2016-03-07T15:11:35Z</time>
      </trkpt>
      <trkpt lat="48.05766" lon="7.00651">
        <ele>1050.3</ele>
        <time>2016-03-07T15:11:54Z</time>
      </trkpt>
      <trkpt lat="48.05776" lon="7.00657">
        <ele>1048.07</ele>
        <time>2016-03-07T15:12:13Z</time>
      </trkpt>
      <trkpt lat="48.05787" lon="7.00666">
        <ele>1045.24</ele>
        <time>2016-03-07T15:12:30Z</time>
      </trkpt>
      <trkpt lat="48.058" lon="7.00671">
        <ele>1042.15</ele>
        <time>2016-03-07T15:12:49Z</time>
      </trkpt>
      <trkpt lat="48.05811" lon="7.00673">
        <ele>1039.79</ele>
        <time>2016-03-07T15:13:10Z</time>
      </trkpt>
      <trkpt lat="48.05812" lon="7.00682">
        <ele>1039.15</ele>
        <time>2016-03-07T15:13:35Z</time>
      </trkpt>
      <trkpt lat="48.05818" lon="7.0069">
        <ele>1037.73</ele>
        <time>2016-03-07T15:13:56Z</time>
      </trkpt>
      <trkpt lat="48.05828" lon="7.007">
        <ele>1034.86</ele>
        <time>2016-03-07T15:14:16Z</time>
      </trkpt>
      <trkpt lat="48.05831" lon="7.00703">
        <ele>1034.27</ele>
        <time>2016-03-07T15:14:37Z</time>
      </trkpt>
      <trkpt lat="48.05836" lon="7.00707">
        <ele>1032.35</ele>
        <time>2016-03-07T15:14:59Z</time>
      </trkpt>
      <trkpt lat="48.05843" lon="7.00711">
        <ele>1030.77</ele>
        <time>2016-03-07T15:15:21Z</time>
      </trkpt>
      <trkpt lat="48.05852" lon="7.00715">
        <ele>1028.17</ele>
        <time>2016-03-07T15:15:39Z</time>
      </trkpt>
      <trkpt lat="48.05862" lon="7.00725">
        <ele>1026.03</ele>
        <time>2016-03-07T15:16:01Z</time>
      </trkpt>
      <trkpt lat="48.05869" lon="7.00735">
        <ele>1024.59</ele>
        <time>2016-03-07T15:16:23Z</time>
      </trkpt>
      <trkpt lat="48.05881" lon="7.00746">
        <ele>1021.46</ele>
        <time>2016-03-07T15:16:44Z</time>
      </trkpt>
      <trkpt lat="48.05888" lon="7.00753">
        <ele>1020.41</ele>
        <time>2016-03-07T15:17:06Z</time>
      </trkpt>
      <trkpt lat="48.05889" lon="7.00758">
        <ele>1020.1</ele>
        <time>2016-03-07T15:17:32Z</time>
      </trkpt>
      <trkpt lat="48.05895" lon="7.00767">
        <ele>1018.24</ele>
        <time>2016-03-07T15:17:53Z</time>
      </trkpt>
      <trkpt lat="48.05899" lon="7.00778">
        <ele>1016.78</ele>
        <time>2016-03-07T15:18:18Z</time>
      </trkpt>
      <trkpt lat="48.05901" lon="7.00781">
        <ele>1015.62</ele>
        <time>2016-03-07T15:18:28Z</time>
      </trkpt>
      <trkpt lat="48.059" lon="7.0079">
        <ele>1015.45</ele>
        <time>2016-03-07T15:18:50Z</time>
      </trkpt>
      <trkpt lat="48.05902" lon="7.00791">
        <ele>1015.47</ele>
        <time>2016-03-07T15:19:15Z</time>
      </trkpt>
      <trkpt lat="48.05904" lon="7.00801">
        <ele>1015.14</ele>
        <time>2016-03-07T15:19:45Z</time>
      </trkpt>
      <trkpt lat="48.05903" lon="7.00802">
        <ele>1013.72</ele>
        <time>2016-03-07T15:20:07Z</time>
      </trkpt>
      <trkpt lat="48.059" lon="7.00803">
        <ele>1014.76</ele>
        <time>2016-03-07T15:20:13Z</time>
      </trkpt>
      <trkpt lat="48.05899" lon="7.00806">
        <ele>1015.32</ele>
        <time>2016-03-07T15:20:19Z</time>
      </trkpt>
      <trkpt lat="48.05896" lon="7.00812">
        <ele>1015.93</ele>
        <time>2016-03-07T15:20:44Z</time>
      </trkpt>
      <trkpt lat="48.05894" lon="7.00812">
        <ele>1016.09</ele>
        <time>2016-03-07T15:21:29Z</time>
      </trkpt>
      <trkpt lat="48.05889" lon="7.00813">
        <ele>1016.73</ele>
        <time>2016-03-07T15:22:08Z</time>
      </trkpt>
      <trkpt lat="48.0589" lon="7.00811">
        <ele>1017.86</ele>
        <time>2016-03-07T15:22:11Z</time>
      </trkpt>
      <trkpt lat="48.05901" lon="7.00792">
        <ele>1014.79</ele>
        <time>2016-03-07T15:22:33Z</time>
      </trkpt>
      <trkpt lat="48.059" lon="7.00785">
        <ele>1015.18</ele>
        <time>2016-03-07T15:22:40Z</time>
      </trkpt>
      <trkpt lat="48.05893" lon="7.00774">
        <ele>1018.07</ele>
        <time>2016-03-07T15:23:00Z</time>
      </trkpt>
      <trkpt lat="48.05885" lon="7.0076">
        <ele>1021.18</ele>
        <time>2016-03-07T15:23:24Z</time>
      </trkpt>
      <trkpt lat="48.05876" lon="7.0075">
        <ele>1023.41</ele>
        <time>2016-03-07T15:23:46Z</time>
      </trkpt>
      <trkpt lat="48.05867" lon="7.00745">
        <ele>1025.99</ele>
        <time>2016-03-07T15:24:07Z</time>
      </trkpt>
      <trkpt lat="48.05862" lon="7.00737">
        <ele>1025.86</ele>
        <time>2016-03-07T15:24:31Z</time>
      </trkpt>
      <trkpt lat="48.05851" lon="7.00729">
        <ele>1029.25</ele>
        <time>2016-03-07T15:24:55Z</time>
      </trkpt>
      <trkpt lat="48.0584" lon="7.00726">
        <ele>1031.64</ele>
        <time>2016-03-07T15:25:18Z</time>
      </trkpt>
      <trkpt lat="48.05833" lon="7.00718">
        <ele>1032.98</ele>
        <time>2016-03-07T15:25:41Z</time>
      </trkpt>
      <trkpt lat="48.0583" lon="7.00717">
        <ele>1034.65</ele>
        <time>2016-03-07T15:26:07Z</time>
      </trkpt>
      <trkpt lat="48.0583" lon="7.0073">
        <ele>1035.49</ele>
        <time>2016-03-07T15:26:29Z</time>
      </trkpt>
      <trkpt lat="48.05834" lon="7.00744">
        <ele>1036.15</ele>
        <time>2016-03-07T15:26:49Z</time>
      </trkpt>
      <trkpt lat="48.05835" lon="7.00761">
        <ele>1037.39</ele>
        <time>2016-03-07T15:27:11Z</time>
      </trkpt>
      <trkpt lat="48.05839" lon="7.00785">
        <ele>1037.86</ele>
        <time>2016-03-07T15:27:37Z</time>
      </trkpt>
      <trkpt lat="48.05839" lon="7.00786">
        <ele>1038.01</ele>
        <time>2016-03-07T15:27:38Z</time>
      </trkpt>
      <trkpt lat="48.05846" lon="7.00802">
        <ele>1037.56</ele>
        <time>2016-03-07T15:28:02Z</time>
      </trkpt>
      <trkpt lat="48.05854" lon="7.00819">
        <ele>1038.63</ele>
        <time>2016-03-07T15:28:27Z</time>
      </trkpt>
      <trkpt lat="48.05858" lon="7.0084">
        <ele>1039.74</ele>
        <time>2016-03-07T15:28:52Z</time>
      </trkpt>
      <trkpt lat="48.05864" lon="7.00855">
        <ele>1040.49</ele>
        <time>2016-03-07T15:29:11Z</time>
      </trkpt>
      <trkpt lat="48.05863" lon="7.00871">
        <ele>1040.29</ele>
        <time>2016-03-07T15:29:33Z</time>
      </trkpt>
      <trkpt lat="48.05865" lon="7.00878">
        <ele>1039.75</ele>
        <time>2016-03-07T15:29:41Z</time>
      </trkpt>
      <trkpt lat="48.05866" lon="7.00881">
        <ele>1039.96</ele>
        <time>2016-03-07T15:29:45Z</time>
      </trkpt>
      <trkpt lat="48.05867" lon="7.00886">
        <ele>1040.09</ele>
        <time>2016-03-07T15:29:51Z</time>
      </trkpt>
      <trkpt lat="48.05869" lon="7.00892">
        <ele>1040.05</ele>
        <time>2016-03-07T15:30:02Z</time>
      </trkpt>
      <trkpt lat="48.05872" lon="7.00893">
        <ele>1039.98</ele>
        <time>2016-03-07T15:30:06Z</time>
      </trkpt>
      <trkpt lat="48.05886" lon="7.00902">
        <ele>1041.71</ele>
        <time>2016-03-07T15:30:30Z</time>
      </trkpt>
      <trkpt lat="48.05894" lon="7.00908">
        <ele>1041.61</ele>
        <time>2016-03-07T15:30:50Z</time>
      </trkpt>
      <trkpt lat="48.05896" lon="7.00909">
        <ele>1041.92</ele>
        <time>2016-03-07T15:30:53Z</time>
      </trkpt>
      <trkpt lat="48.05906" lon="7.00908">
        <ele>1041.88</ele>
        <time>2016-03-07T15:31:20Z</time>
      </trkpt>
      <trkpt lat="48.05911" lon="7.00914">
        <ele>1041.92</ele>
        <time>2016-03-07T15:31:46Z</time>
      </trkpt>
      <trkpt lat="48.05921" lon="7.00922">
        <ele>1042.68</ele>
        <time>2016-03-07T15:32:12Z</time>
      </trkpt>
      <trkpt lat="48.05934" lon="7.0093">
        <ele>1043.82</ele>
        <time>2016-03-07T15:32:36Z</time>
      </trkpt>
      <trkpt lat="48.05944" lon="7.00942">
        <ele>1043.83</ele>
        <time>2016-03-07T15:32:58Z</time>
      </trkpt>
      <trkpt lat="48.05956" lon="7.00962">
        <ele>1044.63</ele>
        <time>2016-03-07T15:33:23Z</time>
      </trkpt>
      <trkpt lat="48.05965" lon="7.00975">
        <ele>1045.16</ele>
        <time>2016-03-07T15:33:47Z</time>
      </trkpt>
      <trkpt lat="48.05972" lon="7.00988">
        <ele>1045.92</ele>
        <time>2016-03-07T15:34:09Z</time>
      </trkpt>
      <trkpt lat="48.05981" lon="7.01002">
        <ele>1046.91</ele>
        <time>2016-03-07T15:34:34Z</time>
      </trkpt>
      <trkpt lat="48.05988" lon="7.01011">
        <ele>1047.26</ele>
        <time>2016-03-07T15:34:55Z</time>
      </trkpt>
      <trkpt lat="48.05994" lon="7.01027">
        <ele>1047.5</ele>
        <time>2016-03-07T15:35:17Z</time>
      </trkpt>
      <trkpt lat="48.05995" lon="7.01033">
        <ele>1048.11</ele>
        <time>2016-03-07T15:35:25Z</time>
      </trkpt>
      <trkpt lat="48.0601" lon="7.01042">
        <ele>1048.36</ele>
        <time>2016-03-07T15:35:48Z</time>
      </trkpt>
      <trkpt lat="48.06021" lon="7.01036">
        <ele>1048.77</ele>
        <time>2016-03-07T15:36:15Z</time>
      </trkpt>
      <trkpt lat="48.06022" lon="7.01037">
        <ele>1048.89</ele>
        <time>2016-03-07T15:36:44Z</time>
      </trkpt>
      <trkpt lat="48.06025" lon="7.0104">
        <ele>1048.52</ele>
        <time>2016-03-07T15:37:06Z</time>
      </trkpt>
      <trkpt lat="48.06027" lon="7.0104">
        <ele>1050.59</ele>
        <time>2016-03-07T15:37:20Z</time>
      </trkpt>
      <trkpt lat="48.06027" lon="7.01038">
        <ele>1047.95</ele>
        <time>2016-03-07T15:37:32Z</time>
      </trkpt>
      <trkpt lat="48.06028" lon="7.01039">
        <ele>1050.87</ele>
        <time>2016-03-07T15:38:05Z</time>
      </trkpt>
      <trkpt lat="48.06029" lon="7.01035">
        <ele>1048.06</ele>
        <time>2016-03-07T15:38:36Z</time>
      </trkpt>
      <trkpt lat="48.06028" lon="7.01038">
        <ele>1048.4</ele>
        <time>2016-03-07T15:39:02Z</time>
      </trkpt>
      <trkpt lat="48.06028" lon="7.01036">
        <ele>1048.97</ele>
        <time>2016-03-07T15:39:29Z</time>
      </trkpt>
      <trkpt lat="48.06027" lon="7.01035">
        <ele>1048.83</ele>
        <time>2016-03-07T15:39:58Z</time>
      </trkpt>
      <trkpt lat="48.06025" lon="7.01037">
        <ele>1045.94</ele>
        <time>2016-03-07T15:40:03Z</time>
      </trkpt>
      <trkpt lat="48.06024" lon="7.01037">
        <ele>1048.9</ele>
        <time>2016-03-07T15:40:11Z</time>
      </trkpt>
      <trkpt lat="48.06024" lon="7.01036">
        <ele>1044.25</ele>
        <time>2016-03-07T15:40:13Z</time>
      </trkpt>
      <trkpt lat="48.06024" lon="7.01036">
        <ele>1044.26</ele>
        <time>2016-03-07T15:40:14Z</time>
      </trkpt>
      <trkpt lat="48.06025" lon="7.01036">
        <ele>1049.08</ele>
        <time>2016-03-07T15:40:19Z</time>
      </trkpt>
      <trkpt lat="48.06025" lon="7.01036">
        <ele>1048.53</ele>
        <time>2016-03-07T15:40:20Z</time>
      </trkpt>
      <trkpt lat="48.06023" lon="7.01043">
        <ele>1047.79</ele>
        <time>2016-03-07T15:40:48Z</time>
      </trkpt>
      <trkpt lat="48.06032" lon="7.01044">
        <ele>1048.05</ele>
        <time>2016-03-07T15:41:12Z</time>
      </trkpt>
      <trkpt lat="48.0603" lon="7.0104">
        <ele>1047.56</ele>
        <time>2016-03-07T15:41:40Z</time>
      </trkpt>
      <trkpt lat="48.06039" lon="7.01055">
        <ele>1049.07</ele>
        <time>2016-03-07T15:42:03Z</time>
      </trkpt>
      <trkpt lat="48.06044" lon="7.01068">
        <ele>1048.95</ele>
        <time>2016-03-07T15:42:20Z</time>
      </trkpt>
      <trkpt lat="48.06046" lon="7.01077">
        <ele>1049.22</ele>
        <time>2016-03-07T15:42:39Z</time>
      </trkpt>
      <trkpt lat="48.06054" lon="7.01086">
        <ele>1048.84</ele>
        <time>2016-03-07T15:43:01Z</time>
      </trkpt>
      <trkpt lat="48.0606" lon="7.01095">
        <ele>1050.31</ele>
        <time>2016-03-07T15:43:22Z</time>
      </trkpt>
      <trkpt lat="48.06069" lon="7.01101">
        <ele>1050.71</ele>
        <time>2016-03-07T15:43:45Z</time>
      </trkpt>
      <trkpt lat="48.06078" lon="7.01111">
        <ele>1052.4</ele>
        <time>2016-03-07T15:44:06Z</time>
      </trkpt>
      <trkpt lat="48.06084" lon="7.01126">
        <ele>1053.24</ele>
        <time>2016-03-07T15:44:28Z</time>
      </trkpt>
      <trkpt lat="48.06092" lon="7.01136">
        <ele>1053.6</ele>
        <time>2016-03-07T15:44:48Z</time>
      </trkpt>
      <trkpt lat="48.06101" lon="7.01148">
        <ele>1054.88</ele>
        <time>2016-03-07T15:45:10Z</time>
      </trkpt>
      <trkpt lat="48.06103" lon="7.01153">
        <ele>1054.76</ele>
        <time>2016-03-07T15:45:30Z</time>
      </trkpt>
      <trkpt lat="48.06111" lon="7.0117">
        <ele>1055.46</ele>
        <time>2016-03-07T15:45:53Z</time>
      </trkpt>
      <trkpt lat="48.06116" lon="7.01182">
        <ele>1056.79</ele>
        <time>2016-03-07T15:46:12Z</time>
      </trkpt>
      <trkpt lat="48.06123" lon="7.01195">
        <ele>1057.1</ele>
        <time>2016-03-07T15:46:33Z</time>
      </trkpt>
      <trkpt lat="48.06129" lon="7.01206">
        <ele>1057.66</ele>
        <time>2016-03-07T15:46:52Z</time>
      </trkpt>
      <trkpt lat="48.06132" lon="7.01215">
        <ele>1058.33</ele>
        <time>2016-03-07T15:47:11Z</time>
      </trkpt>
      <trkpt lat="48.06143" lon="7.01223">
        <ele>1059.12</ele>
        <time>2016-03-07T15:47:33Z</time>
      </trkpt>
      <trkpt lat="48.06155" lon="7.0123">
        <ele>1059.37</ele>
        <time>2016-03-07T15:47:57Z</time>
      </trkpt>
      <trkpt lat="48.06167" lon="7.01236">
        <ele>1060.73</ele>
        <time>2016-03-07T15:48:20Z</time>
      </trkpt>
      <trkpt lat="48.06176" lon="7.01244">
        <ele>1061.42</ele>
        <time>2016-03-07T15:48:44Z</time>
      </trkpt>
      <trkpt lat="48.06187" lon="7.01254">
        <ele>1062.03</ele>
        <time>2016-03-07T15:49:05Z</time>
      </trkpt>
      <trkpt lat="48.06199" lon="7.01263">
        <ele>1063.24</ele>
        <time>2016-03-07T15:49:26Z</time>
      </trkpt>
      <trkpt lat="48.06208" lon="7.01274">
        <ele>1063.69</ele>
        <time>2016-03-07T15:49:47Z</time>
      </trkpt>
      <trkpt lat="48.06218" lon="7.01289">
        <ele>1065.05</ele>
        <time>2016-03-07T15:50:08Z</time>
      </trkpt>
      <trkpt lat="48.06227" lon="7.01299">
        <ele>1065.82</ele>
        <time>2016-03-07T15:50:29Z</time>
      </trkpt>
      <trkpt lat="48.06232" lon="7.01312">
        <ele>1066.86</ele>
        <time>2016-03-07T15:50:50Z</time>
      </trkpt>
      <trkpt lat="48.06238" lon="7.01319">
        <ele>1066.43</ele>
        <time>2016-03-07T15:51:11Z</time>
      </trkpt>
      <trkpt lat="48.06243" lon="7.01317">
        <ele>1066.72</ele>
        <time>2016-03-07T15:51:38Z</time>
      </trkpt>
      <trkpt lat="48.06244" lon="7.01317">
        <ele>1066.8</ele>
        <time>2016-03-07T15:51:59Z</time>
      </trkpt>
      <trkpt lat="48.06244" lon="7.01317">
        <ele>1066.62</ele>
        <time>2016-03-07T15:52:26Z</time>
      </trkpt>
      <trkpt lat="48.06242" lon="7.01319">
        <ele>1067.29</ele>
        <time>2016-03-07T15:52:53Z</time>
      </trkpt>
      <trkpt lat="48.06241" lon="7.01317">
        <ele>1067.51</ele>
        <time>2016-03-07T15:53:23Z</time>
      </trkpt>
      <trkpt lat="48.06241" lon="7.01317">
        <ele>1066.21</ele>
        <time>2016-03-07T15:53:37Z</time>
      </trkpt>
      <trkpt lat="48.06247" lon="7.01329">
        <ele>1067.74</ele>
        <time>2016-03-07T15:53:58Z</time>
      </trkpt>
      <trkpt lat="48.06257" lon="7.01344">
        <ele>1068.63</ele>
        <time>2016-03-07T15:54:18Z</time>
      </trkpt>
      <trkpt lat="48.06264" lon="7.01362">
        <ele>1069.26</ele>
        <time>2016-03-07T15:54:42Z</time>
      </trkpt>
      <trkpt lat="48.06268" lon="7.01381">
        <ele>1070.2</ele>
        <time>2016-03-07T15:55:04Z</time>
      </trkpt>
      <trkpt lat="48.06272" lon="7.014">
        <ele>1071.2</ele>
        <time>2016-03-07T15:55:26Z</time>
      </trkpt>
      <trkpt lat="48.06277" lon="7.01415">
        <ele>1071.83</ele>
        <time>2016-03-07T15:55:48Z</time>
      </trkpt>
      <trkpt lat="48.06278" lon="7.01433">
        <ele>1073.27</ele>
        <time>2016-03-07T15:56:10Z</time>
      </trkpt>
      <trkpt lat="48.06283" lon="7.01447">
        <ele>1073.85</ele>
        <time>2016-03-07T15:56:31Z</time>
      </trkpt>
      <trkpt lat="48.06283" lon="7.01463">
        <ele>1075.01</ele>
        <time>2016-03-07T15:56:53Z</time>
      </trkpt>
      <trkpt lat="48.06286" lon="7.01485">
        <ele>1075.88</ele>
        <time>2016-03-07T15:57:16Z</time>
      </trkpt>
      <trkpt lat="48.0629" lon="7.01505">
        <ele>1077.66</ele>
        <time>2016-03-07T15:57:42Z</time>
      </trkpt>
      <trkpt lat="48.06293" lon="7.01522">
        <ele>1078.28</ele>
        <time>2016-03-07T15:58:04Z</time>
      </trkpt>
      <trkpt lat="48.06298" lon="7.01541">
        <ele>1080.04</ele>
        <time>2016-03-07T15:58:28Z</time>
      </trkpt>
      <trkpt lat="48.06304" lon="7.0156">
        <ele>1081.57</ele>
        <time>2016-03-07T15:58:52Z</time>
      </trkpt>
      <trkpt lat="48.06311" lon="7.01568">
        <ele>1082.43</ele>
        <time>2016-03-07T15:59:07Z</time>
      </trkpt>
      <trkpt lat="48.06318" lon="7.01582">
        <ele>1083.47</ele>
        <time>2016-03-07T15:59:30Z</time>
      </trkpt>
      <trkpt lat="48.06319" lon="7.01583">
        <ele>1083.74</ele>
        <time>2016-03-07T15:59:31Z</time>
      </trkpt>
      <trkpt lat="48.06331" lon="7.01588">
        <ele>1084.14</ele>
        <time>2016-03-07T15:59:54Z</time>
      </trkpt>
      <trkpt lat="48.06333" lon="7.01588">
        <ele>1084.01</ele>
        <time>2016-03-07T16:00:20Z</time>
      </trkpt>
      <trkpt lat="48.06334" lon="7.01588">
        <ele>1084.29</ele>
        <time>2016-03-07T16:00:44Z</time>
      </trkpt>
      <trkpt lat="48.06333" lon="7.01587">
        <ele>1083.77</ele>
        <time>2016-03-07T16:00:57Z</time>
      </trkpt>
      <trkpt lat="48.06332" lon="7.01586">
        <ele>1083.8</ele>
        <time>2016-03-07T16:01:17Z</time>
      </trkpt>
      <trkpt lat="48.06334" lon="7.01584">
        <ele>1083.92</ele>
        <time>2016-03-07T16:01:38Z</time>
      </trkpt>
      <trkpt lat="48.06335" lon="7.01583">
        <ele>1084.43</ele>
        <time>2016-03-07T16:02:04Z</time>
      </trkpt>
      <trkpt lat="48.06333" lon="7.01581">
        <ele>1083.49</ele>
        <time>2016-03-07T16:02:32Z</time>
      </trkpt>
      <trkpt lat="48.06334" lon="7.01584">
        <ele>1083.79</ele>
        <time>2016-03-07T16:02:58Z</time>
      </trkpt>
      <trkpt lat="48.06335" lon="7.01585">
        <ele>1084.62</ele>
        <time>2016-03-07T16:03:28Z</time>
      </trkpt>
      <trkpt lat="48.06334" lon="7.01586">
        <ele>1084.19</ele>
        <time>2016-03-07T16:03:52Z</time>
      </trkpt>
      <trkpt lat="48.06333" lon="7.01585">
        <ele>1085.04</ele>
        <time>2016-03-07T16:04:14Z</time>
      </trkpt>
      <trkpt lat="48.06335" lon="7.01594">
        <ele>1085.08</ele>
        <time>2016-03-07T16:04:40Z</time>
      </trkpt>
      <trkpt lat="48.06341" lon="7.01612">
        <ele>1086.45</ele>
        <time>2016-03-07T16:05:04Z</time>
      </trkpt>
      <trkpt lat="48.06347" lon="7.01624">
        <ele>1088.34</ele>
        <time>2016-03-07T16:05:26Z</time>
      </trkpt>
      <trkpt lat="48.0635" lon="7.01641">
        <ele>1091.44</ele>
        <time>2016-03-07T16:05:51Z</time>
      </trkpt>
      <trkpt lat="48.06354" lon="7.01655">
        <ele>1092.45</ele>
        <time>2016-03-07T16:06:13Z</time>
      </trkpt>
      <trkpt lat="48.06362" lon="7.01672">
        <ele>1093.62</ele>
        <time>2016-03-07T16:06:35Z</time>
      </trkpt>
      <trkpt lat="48.06366" lon="7.01691">
        <ele>1095.04</ele>
        <time>2016-03-07T16:06:55Z</time>
      </trkpt>
      <trkpt lat="48.06369" lon="7.01708">
        <ele>1096.73</ele>
        <time>2016-03-07T16:07:16Z</time>
      </trkpt>
      <trkpt lat="48.06374" lon="7.01721">
        <ele>1097.92</ele>
        <time>2016-03-07T16:07:40Z</time>
      </trkpt>
      <trkpt lat="48.06375" lon="7.01742">
        <ele>1101.11</ele>
        <time>2016-03-07T16:08:05Z</time>
      </trkpt>
      <trkpt lat="48.06379" lon="7.0176">
        <ele>1101.6</ele>
        <time>2016-03-07T16:08:27Z</time>
      </trkpt>
      <trkpt lat="48.06377" lon="7.01776">
        <ele>1104.21</ele>
        <time>2016-03-07T16:08:50Z</time>
      </trkpt>
      <trkpt lat="48.06377" lon="7.01781">
        <ele>1103.88</ele>
        <time>2016-03-07T16:09:02Z</time>
      </trkpt>
      <trkpt lat="48.06373" lon="7.01789">
        <ele>1104.74</ele>
        <time>2016-03-07T16:09:29Z</time>
      </trkpt>
      <trkpt lat="48.06376" lon="7.01785">
        <ele>1104.39</ele>
        <time>2016-03-07T16:09:58Z</time>
      </trkpt>
      <trkpt lat="48.06375" lon="7.01786">
        <ele>1103.62</ele>
        <time>2016-03-07T16:10:17Z</time>
      </trkpt>
      <trkpt lat="48.06375" lon="7.01786">
        <ele>1101.2</ele>
        <time>2016-03-07T16:10:39Z</time>
      </trkpt>
      <trkpt lat="48.06374" lon="7.01788">
        <ele>1104.49</ele>
        <time>2016-03-07T16:10:42Z</time>
      </trkpt>
      <trkpt lat="48.06373" lon="7.01788">
        <ele>1104.4</ele>
        <time>2016-03-07T16:10:43Z</time>
      </trkpt>
      <trkpt lat="48.06373" lon="7.01788">
        <ele>1100.57</ele>
        <time>2016-03-07T16:10:48Z</time>
      </trkpt>
      <trkpt lat="48.06373" lon="7.01788">
        <ele>1103.66</ele>
        <time>2016-03-07T16:10:50Z</time>
      </trkpt>
      <trkpt lat="48.06376" lon="7.0179">
        <ele>1104.06</ele>
        <time>2016-03-07T16:11:17Z</time>
      </trkpt>
      <trkpt lat="48.06376" lon="7.01788">
        <ele>1104.77</ele>
        <time>2016-03-07T16:11:45Z</time>
      </trkpt>
      <trkpt lat="48.06379" lon="7.01788">
        <ele>1104.33</ele>
        <time>2016-03-07T16:12:10Z</time>
      </trkpt>
      <trkpt lat="48.0638" lon="7.01788">
        <ele>1104.87</ele>
        <time>2016-03-07T16:12:15Z</time>
      </trkpt>
      <trkpt lat="48.06381" lon="7.01788">
        <ele>1091.29</ele>
        <time>2016-03-07T16:12:24Z</time>
      </trkpt>
      <trkpt lat="48.06381" lon="7.01788">
        <ele>1104.19</ele>
        <time>2016-03-07T16:12:25Z</time>
      </trkpt>
      <trkpt lat="48.06377" lon="7.01788">
        <ele>1104.27</ele>
        <time>2016-03-07T16:12:54Z</time>
      </trkpt>
      <trkpt lat="48.06376" lon="7.01788">
        <ele>1104.35</ele>
        <time>2016-03-07T16:13:06Z</time>
      </trkpt>
      <trkpt lat="48.06376" lon="7.01788">
        <ele>1104.44</ele>
        <time>2016-03-07T16:13:13Z</time>
      </trkpt>
      <trkpt lat="48.06376" lon="7.01788">
        <ele>1101.17</ele>
        <time>2016-03-07T16:13:19Z</time>
      </trkpt>
      <trkpt lat="48.06376" lon="7.01788">
        <ele>1104.41</ele>
        <time>2016-03-07T16:13:20Z</time>
      </trkpt>
      <trkpt lat="48.06377" lon="7.0179">
        <ele>1104.05</ele>
        <time>2016-03-07T16:13:48Z</time>
      </trkpt>
      <trkpt lat="48.06375" lon="7.0179">
        <ele>1098.04</ele>
        <time>2016-03-07T16:14:11Z</time>
      </trkpt>
      <trkpt lat="48.06375" lon="7.01791">
        <ele>1104.4</ele>
        <time>2016-03-07T16:14:12Z</time>
      </trkpt>
      <trkpt lat="48.06374" lon="7.01792">
        <ele>1093.32</ele>
        <time>2016-03-07T16:14:13Z</time>
      </trkpt>
      <trkpt lat="48.06374" lon="7.01792">
        <ele>1105.19</ele>
        <time>2016-03-07T16:14:14Z</time>
      </trkpt>
      <trkpt lat="48.06373" lon="7.01792">
        <ele>1099.87</ele>
        <time>2016-03-07T16:14:15Z</time>
      </trkpt>
      <trkpt lat="48.06373" lon="7.01793">
        <ele>1102.96</ele>
        <time>2016-03-07T16:14:16Z</time>
      </trkpt>
      <trkpt lat="48.06372" lon="7.01795">
        <ele>1106.58</ele>
        <time>2016-03-07T16:14:19Z</time>
      </trkpt>
      <trkpt lat="48.06372" lon="7.01795">
        <ele>1101.62</ele>
        <time>2016-03-07T16:14:20Z</time>
      </trkpt>
      <trkpt lat="48.06372" lon="7.01795">
        <ele>1106.06</ele>
        <time>2016-03-07T16:14:21Z</time>
      </trkpt>
      <trkpt lat="48.06372" lon="7.01797">
        <ele>1101.62</ele>
        <time>2016-03-07T16:14:23Z</time>
      </trkpt>
      <trkpt lat="48.06372" lon="7.01799">
        <ele>1104.84</ele>
        <time>2016-03-07T16:14:26Z</time>
      </trkpt>
      <trkpt lat="48.06372" lon="7.018">
        <ele>1099.3</ele>
        <time>2016-03-07T16:14:27Z</time>
      </trkpt>
      <trkpt lat="48.06371" lon="7.018">
        <ele>1105.93</ele>
        <time>2016-03-07T16:14:28Z</time>
      </trkpt>
      <trkpt lat="48.06371" lon="7.01801">
        <ele>1101.04</ele>
        <time>2016-03-07T16:14:29Z</time>
      </trkpt>
      <trkpt lat="48.06371" lon="7.01802">
        <ele>1107.12</ele>
        <time>2016-03-07T16:14:30Z</time>
      </trkpt>
      <trkpt lat="48.06371" lon="7.01803">
        <ele>1100.97</ele>
        <time>2016-03-07T16:14:31Z</time>
      </trkpt>
      <trkpt lat="48.06371" lon="7.01803">
        <ele>1107.15</ele>
        <time>2016-03-07T16:14:32Z</time>
      </trkpt>
      <trkpt lat="48.06371" lon="7.01804">
        <ele>1101.46</ele>
        <time>2016-03-07T16:14:33Z</time>
      </trkpt>
      <trkpt lat="48.0637" lon="7.01805">
        <ele>1107.18</ele>
        <time>2016-03-07T16:14:34Z</time>
      </trkpt>
      <trkpt lat="48.0637" lon="7.01806">
        <ele>1100.38</ele>
        <time>2016-03-07T16:14:35Z</time>
      </trkpt>
      <trkpt lat="48.06369" lon="7.01806">
        <ele>1108.33</ele>
        <time>2016-03-07T16:14:36Z</time>
      </trkpt>
      <trkpt lat="48.06372" lon="7.01808">
        <ele>1099.23</ele>
        <time>2016-03-07T16:14:40Z</time>
      </trkpt>
      <trkpt lat="48.06371" lon="7.01811">
        <ele>1108.24</ele>
        <time>2016-03-07T16:14:41Z</time>
      </trkpt>
      <trkpt lat="48.0637" lon="7.01811">
        <ele>1098.86</ele>
        <time>2016-03-07T16:14:42Z</time>
      </trkpt>
      <trkpt lat="48.0637" lon="7.01812">
        <ele>1109.03</ele>
        <time>2016-03-07T16:14:43Z</time>
      </trkpt>
      <trkpt lat="48.0637" lon="7.01813">
        <ele>1101.73</ele>
        <time>2016-03-07T16:14:44Z</time>
      </trkpt>
      <trkpt lat="48.0637" lon="7.01814">
        <ele>1108.04</ele>
        <time>2016-03-07T16:14:45Z</time>
      </trkpt>
      <trkpt lat="48.06369" lon="7.01815">
        <ele>1103.59</ele>
        <time>2016-03-07T16:14:47Z</time>
      </trkpt>
      <trkpt lat="48.06368" lon="7.01817">
        <ele>1108.55</ele>
        <time>2016-03-07T16:14:48Z</time>
      </trkpt>
      <trkpt lat="48.06368" lon="7.01818">
        <ele>1108.74</ele>
        <time>2016-03-07T16:14:49Z</time>
      </trkpt>
      <trkpt lat="48.06365" lon="7.01824">
        <ele>1105.3</ele>
        <time>2016-03-07T16:14:57Z</time>
      </trkpt>
      <trkpt lat="48.06364" lon="7.01826">
        <ele>1109.24</ele>
        <time>2016-03-07T16:15:00Z</time>
      </trkpt>
      <trkpt lat="48.06363" lon="7.01827">
        <ele>1100.34</ele>
        <time>2016-03-07T16:15:01Z</time>
      </trkpt>
      <trkpt lat="48.06363" lon="7.01827">
        <ele>1108.51</ele>
        <time>2016-03-07T16:15:02Z</time>
      </trkpt>
      <trkpt lat="48.06363" lon="7.01828">
        <ele>1104.38</ele>
        <time>2016-03-07T16:15:03Z</time>
      </trkpt>
      <trkpt lat="48.06362" lon="7.01829">
        <ele>1109.89</ele>
        <time>2016-03-07T16:15:04Z</time>
      </trkpt>
      <trkpt lat="48.06362" lon="7.0183">
        <ele>1104.67</ele>
        <time>2016-03-07T16:15:05Z</time>
      </trkpt>
      <trkpt lat="48.06362" lon="7.01831">
        <ele>1109.26</ele>
        <time>2016-03-07T16:15:06Z</time>
      </trkpt>
      <trkpt lat="48.06362" lon="7.01832">
        <ele>1104.86</ele>
        <time>2016-03-07T16:15:07Z</time>
      </trkpt>
      <trkpt lat="48.06362" lon="7.01832">
        <ele>1110.41</ele>
        <time>2016-03-07T16:15:08Z</time>
      </trkpt>
      <trkpt lat="48.06362" lon="7.01833">
        <ele>1106.72</ele>
        <time>2016-03-07T16:15:09Z</time>
      </trkpt>
      <trkpt lat="48.06361" lon="7.01833">
        <ele>1110.25</ele>
        <time>2016-03-07T16:15:10Z</time>
      </trkpt>
      <trkpt lat="48.06359" lon="7.01836">
        <ele>1106.21</ele>
        <time>2016-03-07T16:15:15Z</time>
      </trkpt>
      <trkpt lat="48.06359" lon="7.01837">
        <ele>1111.69</ele>
        <time>2016-03-07T16:15:16Z</time>
      </trkpt>
      <trkpt lat="48.06358" lon="7.01838">
        <ele>1108.58</ele>
        <time>2016-03-07T16:15:17Z</time>
      </trkpt>
      <trkpt lat="48.06357" lon="7.01843">
        <ele>1111.76</ele>
        <time>2016-03-07T16:15:23Z</time>
      </trkpt>
      <trkpt lat="48.06357" lon="7.01844">
        <ele>1107.34</ele>
        <time>2016-03-07T16:15:24Z</time>
      </trkpt>
      <trkpt lat="48.06356" lon="7.01844">
        <ele>1111.25</ele>
        <time>2016-03-07T16:15:25Z</time>
      </trkpt>
      <trkpt lat="48.06355" lon="7.01847">
        <ele>1107.68</ele>
        <time>2016-03-07T16:15:29Z</time>
      </trkpt>
      <trkpt lat="48.06356" lon="7.01848">
        <ele>1111.08</ele>
        <time>2016-03-07T16:15:30Z</time>
      </trkpt>
      <trkpt lat="48.06356" lon="7.01848">
        <ele>1104.92</ele>
        <time>2016-03-07T16:15:31Z</time>
      </trkpt>
      <trkpt lat="48.06355" lon="7.01849">
        <ele>1112.36</ele>
        <time>2016-03-07T16:15:32Z</time>
      </trkpt>
      <trkpt lat="48.06355" lon="7.01849">
        <ele>1105.23</ele>
        <time>2016-03-07T16:15:33Z</time>
      </trkpt>
      <trkpt lat="48.06355" lon="7.0185">
        <ele>1109.49</ele>
        <time>2016-03-07T16:15:34Z</time>
      </trkpt>
      <trkpt lat="48.06354" lon="7.01851">
        <ele>1105.25</ele>
        <time>2016-03-07T16:15:38Z</time>
      </trkpt>
      <trkpt lat="48.06353" lon="7.01852">
        <ele>1111.31</ele>
        <time>2016-03-07T16:15:39Z</time>
      </trkpt>
      <trkpt lat="48.06352" lon="7.01854">
        <ele>1107.67</ele>
        <time>2016-03-07T16:15:42Z</time>
      </trkpt>
      <trkpt lat="48.06352" lon="7.01855">
        <ele>1111.53</ele>
        <time>2016-03-07T16:15:43Z</time>
      </trkpt>
      <trkpt lat="48.06351" lon="7.01855">
        <ele>1106.59</ele>
        <time>2016-03-07T16:15:44Z</time>
      </trkpt>
      <trkpt lat="48.06351" lon="7.01856">
        <ele>1112.17</ele>
        <time>2016-03-07T16:15:45Z</time>
      </trkpt>
      <trkpt lat="48.06351" lon="7.01857">
        <ele>1105.52</ele>
        <time>2016-03-07T16:15:46Z</time>
      </trkpt>
      <trkpt lat="48.06351" lon="7.01858">
        <ele>1112.35</ele>
        <time>2016-03-07T16:15:47Z</time>
      </trkpt>
      <trkpt lat="48.0635" lon="7.01859">
        <ele>1107.55</ele>
        <time>2016-03-07T16:15:48Z</time>
      </trkpt>
      <trkpt lat="48.0635" lon="7.01859">
        <ele>1112.91</ele>
        <time>2016-03-07T16:15:49Z</time>
      </trkpt>
      <trkpt lat="48.06349" lon="7.0186">
        <ele>1108.35</ele>
        <time>2016-03-07T16:15:50Z</time>
      </trkpt>
      <trkpt lat="48.06349" lon="7.0186">
        <ele>1112.75</ele>
        <time>2016-03-07T16:15:51Z</time>
      </trkpt>
      <trkpt lat="48.06349" lon="7.01861">
        <ele>1109.65</ele>
        <time>2016-03-07T16:15:52Z</time>
      </trkpt>
      <trkpt lat="48.06347" lon="7.01866">
        <ele>1105.25</ele>
        <time>2016-03-07T16:15:59Z</time>
      </trkpt>
      <trkpt lat="48.06347" lon="7.01866">
        <ele>1113.17</ele>
        <time>2016-03-07T16:16:00Z</time>
      </trkpt>
      <trkpt lat="48.06345" lon="7.0187">
        <ele>1109.86</ele>
        <time>2016-03-07T16:16:05Z</time>
      </trkpt>
      <trkpt lat="48.06344" lon="7.01873">
        <ele>1111.94</ele>
        <time>2016-03-07T16:16:08Z</time>
      </trkpt>
      <trkpt lat="48.06342" lon="7.01875">
        <ele>1108.21</ele>
        <time>2016-03-07T16:16:11Z</time>
      </trkpt>
      <trkpt lat="48.06341" lon="7.01875">
        <ele>1112.6</ele>
        <time>2016-03-07T16:16:12Z</time>
      </trkpt>
      <trkpt lat="48.06341" lon="7.01876">
        <ele>1107.98</ele>
        <time>2016-03-07T16:16:13Z</time>
      </trkpt>
      <trkpt lat="48.0634" lon="7.01876">
        <ele>1113.72</ele>
        <time>2016-03-07T16:16:14Z</time>
      </trkpt>
      <trkpt lat="48.0634" lon="7.01877">
        <ele>1107.5</ele>
        <time>2016-03-07T16:16:15Z</time>
      </trkpt>
      <trkpt lat="48.0634" lon="7.01877">
        <ele>1113.87</ele>
        <time>2016-03-07T16:16:16Z</time>
      </trkpt>
      <trkpt lat="48.06339" lon="7.01878">
        <ele>1110.07</ele>
        <time>2016-03-07T16:16:17Z</time>
      </trkpt>
      <trkpt lat="48.06339" lon="7.01879">
        <ele>1114.1</ele>
        <time>2016-03-07T16:16:18Z</time>
      </trkpt>
      <trkpt lat="48.06338" lon="7.01879">
        <ele>1110.64</ele>
        <time>2016-03-07T16:16:19Z</time>
      </trkpt>
      <trkpt lat="48.06339" lon="7.0188">
        <ele>1114.68</ele>
        <time>2016-03-07T16:16:20Z</time>
      </trkpt>
      <trkpt lat="48.06338" lon="7.01881">
        <ele>1111.08</ele>
        <time>2016-03-07T16:16:21Z</time>
      </trkpt>
      <trkpt lat="48.06338" lon="7.01882">
        <ele>1114.6</ele>
        <time>2016-03-07T16:16:22Z</time>
      </trkpt>
      <trkpt lat="48.06337" lon="7.01883">
        <ele>1111.25</ele>
        <time>2016-03-07T16:16:23Z</time>
      </trkpt>
      <trkpt lat="48.06337" lon="7.01884">
        <ele>1114.54</ele>
        <time>2016-03-07T16:16:24Z</time>
      </trkpt>
      <trkpt lat="48.06336" lon="7.01885">
        <ele>1110.86</ele>
        <time>2016-03-07T16:16:25Z</time>
      </trkpt>
      <trkpt lat="48.06336" lon="7.01886">
        <ele>1114.67</ele>
        <time>2016-03-07T16:16:26Z</time>
      </trkpt>
      <trkpt lat="48.06336" lon="7.01887">
        <ele>1106.62</ele>
        <time>2016-03-07T16:16:27Z</time>
      </trkpt>
      <trkpt lat="48.06335" lon="7.01887">
        <ele>1110.34</ele>
        <time>2016-03-07T16:16:28Z</time>
      </trkpt>
      <trkpt lat="48.06333" lon="7.0189">
        <ele>1113.59</ele>
        <time>2016-03-07T16:16:31Z</time>
      </trkpt>
      <trkpt lat="48.06333" lon="7.01891">
        <ele>1113.26</ele>
        <time>2016-03-07T16:16:32Z</time>
      </trkpt>
      <trkpt lat="48.06331" lon="7.01899">
        <ele>1111.11</ele>
        <time>2016-03-07T16:16:42Z</time>
      </trkpt>
      <trkpt lat="48.06331" lon="7.019">
        <ele>1114.68</ele>
        <time>2016-03-07T16:16:43Z</time>
      </trkpt>
      <trkpt lat="48.06331" lon="7.01901">
        <ele>1110.63</ele>
        <time>2016-03-07T16:16:44Z</time>
      </trkpt>
      <trkpt lat="48.06331" lon="7.01901">
        <ele>1115.25</ele>
        <time>2016-03-07T16:16:45Z</time>
      </trkpt>
      <trkpt lat="48.06332" lon="7.01904">
        <ele>1111.73</ele>
        <time>2016-03-07T16:16:48Z</time>
      </trkpt>
      <trkpt lat="48.06332" lon="7.01906">
        <ele>1115.04</ele>
        <time>2016-03-07T16:16:51Z</time>
      </trkpt>
      <trkpt lat="48.06332" lon="7.01908">
        <ele>1105.29</ele>
        <time>2016-03-07T16:16:55Z</time>
      </trkpt>
      <trkpt lat="48.06331" lon="7.01908">
        <ele>1116.42</ele>
        <time>2016-03-07T16:16:56Z</time>
      </trkpt>
      <trkpt lat="48.06331" lon="7.01909">
        <ele>1109.14</ele>
        <time>2016-03-07T16:16:57Z</time>
      </trkpt>
      <trkpt lat="48.06331" lon="7.01909">
        <ele>1117.54</ele>
        <time>2016-03-07T16:16:58Z</time>
      </trkpt>
      <trkpt lat="48.06331" lon="7.0191">
        <ele>1113.22</ele>
        <time>2016-03-07T16:16:59Z</time>
      </trkpt>
      <trkpt lat="48.0633" lon="7.01911">
        <ele>1116.81</ele>
        <time>2016-03-07T16:17:00Z</time>
      </trkpt>
      <trkpt lat="48.06328" lon="7.01913">
        <ele>1112.15</ele>
        <time>2016-03-07T16:17:04Z</time>
      </trkpt>
      <trkpt lat="48.06328" lon="7.01914">
        <ele>1115.27</ele>
        <time>2016-03-07T16:17:05Z</time>
      </trkpt>
      <trkpt lat="48.06328" lon="7.01914">
        <ele>1110.64</ele>
        <time>2016-03-07T16:17:06Z</time>
      </trkpt>
      <trkpt lat="48.06328" lon="7.01915">
        <ele>1115.21</ele>
        <time>2016-03-07T16:17:07Z</time>
      </trkpt>
      <trkpt lat="48.06328" lon="7.01915">
        <ele>1111.62</ele>
        <time>2016-03-07T16:17:08Z</time>
      </trkpt>
      <trkpt lat="48.06328" lon="7.01916">
        <ele>1116.45</ele>
        <time>2016-03-07T16:17:09Z</time>
      </trkpt>
      <trkpt lat="48.06326" lon="7.01917">
        <ele>1110.52</ele>
        <time>2016-03-07T16:17:12Z</time>
      </trkpt>
      <trkpt lat="48.06326" lon="7.01917">
        <ele>1117.28</ele>
        <time>2016-03-07T16:17:13Z</time>
      </trkpt>
      <trkpt lat="48.06325" lon="7.01918">
        <ele>1108.19</ele>
        <time>2016-03-07T16:17:15Z</time>
      </trkpt>
      <trkpt lat="48.06325" lon="7.01919">
        <ele>1117.1</ele>
        <time>2016-03-07T16:17:16Z</time>
      </trkpt>
      <trkpt lat="48.06324" lon="7.0192">
        <ele>1110.79</ele>
        <time>2016-03-07T16:17:17Z</time>
      </trkpt>
      <trkpt lat="48.06324" lon="7.01921">
        <ele>1117.87</ele>
        <time>2016-03-07T16:17:19Z</time>
      </trkpt>
      <trkpt lat="48.06324" lon="7.01921">
        <ele>1116.75</ele>
        <time>2016-03-07T16:17:20Z</time>
      </trkpt>
      <trkpt lat="48.06324" lon="7.01922">
        <ele>1109.12</ele>
        <time>2016-03-07T16:17:21Z</time>
      </trkpt>
      <trkpt lat="48.06324" lon="7.01922">
        <ele>1118.84</ele>
        <time>2016-03-07T16:17:22Z</time>
      </trkpt>
      <trkpt lat="48.06323" lon="7.01924">
        <ele>1114.99</ele>
        <time>2016-03-07T16:17:23Z</time>
      </trkpt>
      <trkpt lat="48.06324" lon="7.01924">
        <ele>1119.35</ele>
        <time>2016-03-07T16:17:24Z</time>
      </trkpt>
      <trkpt lat="48.06324" lon="7.01925">
        <ele>1115.53</ele>
        <time>2016-03-07T16:17:26Z</time>
      </trkpt>
      <trkpt lat="48.06323" lon="7.01925">
        <ele>1109.91</ele>
        <time>2016-03-07T16:17:28Z</time>
      </trkpt>
      <trkpt lat="48.06322" lon="7.01925">
        <ele>1118.33</ele>
        <time>2016-03-07T16:17:29Z</time>
      </trkpt>
      <trkpt lat="48.06322" lon="7.01926">
        <ele>1110.89</ele>
        <time>2016-03-07T16:17:30Z</time>
      </trkpt>
      <trkpt lat="48.06321" lon="7.01927">
        <ele>1117.98</ele>
        <time>2016-03-07T16:17:31Z</time>
      </trkpt>
      <trkpt lat="48.06321" lon="7.01928">
        <ele>1113</ele>
        <time>2016-03-07T16:17:32Z</time>
      </trkpt>
      <trkpt lat="48.0632" lon="7.01928">
        <ele>1118.72</ele>
        <time>2016-03-07T16:17:33Z</time>
      </trkpt>
      <trkpt lat="48.0632" lon="7.01929">
        <ele>1114.64</ele>
        <time>2016-03-07T16:17:34Z</time>
      </trkpt>
      <trkpt lat="48.06319" lon="7.0193">
        <ele>1118.22</ele>
        <time>2016-03-07T16:17:35Z</time>
      </trkpt>
      <trkpt lat="48.06318" lon="7.01931">
        <ele>1114.86</ele>
        <time>2016-03-07T16:17:36Z</time>
      </trkpt>
      <trkpt lat="48.06317" lon="7.01931">
        <ele>1119.39</ele>
        <time>2016-03-07T16:17:37Z</time>
      </trkpt>
      <trkpt lat="48.06317" lon="7.01932">
        <ele>1113.8</ele>
        <time>2016-03-07T16:17:38Z</time>
      </trkpt>
      <trkpt lat="48.06316" lon="7.01933">
        <ele>1118.21</ele>
        <time>2016-03-07T16:17:39Z</time>
      </trkpt>
      <trkpt lat="48.06315" lon="7.01934">
        <ele>1109.28</ele>
        <time>2016-03-07T16:17:45Z</time>
      </trkpt>
      <trkpt lat="48.06315" lon="7.01934">
        <ele>1119.55</ele>
        <time>2016-03-07T16:17:46Z</time>
      </trkpt>
      <trkpt lat="48.06314" lon="7.01935">
        <ele>1118.22</ele>
        <time>2016-03-07T16:17:47Z</time>
      </trkpt>
      <trkpt lat="48.06316" lon="7.01937">
        <ele>1118.32</ele>
        <time>2016-03-07T16:18:12Z</time>
      </trkpt>
      <trkpt lat="48.06316" lon="7.01934">
        <ele>1117.14</ele>
        <time>2016-03-07T16:18:38Z</time>
      </trkpt>
      <trkpt lat="48.06317" lon="7.01938">
        <ele>1118.09</ele>
        <time>2016-03-07T16:19:02Z</time>
      </trkpt>
      <trkpt lat="48.06318" lon="7.01943">
        <ele>1118.84</ele>
        <time>2016-03-07T16:19:32Z</time>
      </trkpt>
      <trkpt lat="48.06316" lon="7.0194">
        <ele>1117.82</ele>
        <time>2016-03-07T16:19:59Z</time>
      </trkpt>
      <trkpt lat="48.06315" lon="7.01936">
        <ele>1117.79</ele>
        <time>2016-03-07T16:20:29Z</time>
      </trkpt>
      <trkpt lat="48.06319" lon="7.01936">
        <ele>1118</ele>
        <time>2016-03-07T16:20:58Z</time>
      </trkpt>
      <trkpt lat="48.0632" lon="7.01932">
        <ele>1118.35</ele>
        <time>2016-03-07T16:21:26Z</time>
      </trkpt>
      <trkpt lat="48.06318" lon="7.01934">
        <ele>1117.75</ele>
        <time>2016-03-07T16:21:52Z</time>
      </trkpt>
      <trkpt lat="48.06317" lon="7.01934">
        <ele>1117.83</ele>
        <time>2016-03-07T16:22:21Z</time>
      </trkpt>
      <trkpt lat="48.0632" lon="7.01937">
        <ele>1117.77</ele>
        <time>2016-03-07T16:22:47Z</time>
      </trkpt>
      <trkpt lat="48.06319" lon="7.01937">
        <ele>1117.73</ele>
        <time>2016-03-07T16:23:17Z</time>
      </trkpt>
      <trkpt lat="48.06318" lon="7.01938">
        <ele>1113.39</ele>
        <time>2016-03-07T16:23:25Z</time>
      </trkpt>
      <trkpt lat="48.06318" lon="7.01939">
        <ele>1115.47</ele>
        <time>2016-03-07T16:23:26Z</time>
      </trkpt>
      <trkpt lat="48.06317" lon="7.01939">
        <ele>1112.38</ele>
        <time>2016-03-07T16:23:27Z</time>
      </trkpt>
      <trkpt lat="48.06316" lon="7.01939">
        <ele>1119.49</ele>
        <time>2016-03-07T16:23:28Z</time>
      </trkpt>
      <trkpt lat="48.06316" lon="7.0194">
        <ele>1115.75</ele>
        <time>2016-03-07T16:23:29Z</time>
      </trkpt>
      <trkpt lat="48.06315" lon="7.0194">
        <ele>1119.03</ele>
        <time>2016-03-07T16:23:30Z</time>
      </trkpt>
      <trkpt lat="48.06314" lon="7.01942">
        <ele>1114.08</ele>
        <time>2016-03-07T16:23:33Z</time>
      </trkpt>
      <trkpt lat="48.06314" lon="7.01943">
        <ele>1120.96</ele>
        <time>2016-03-07T16:23:34Z</time>
      </trkpt>
      <trkpt lat="48.06313" lon="7.01943">
        <ele>1116.02</ele>
        <time>2016-03-07T16:23:35Z</time>
      </trkpt>
      <trkpt lat="48.06313" lon="7.01944">
        <ele>1119.41</ele>
        <time>2016-03-07T16:23:36Z</time>
      </trkpt>
      <trkpt lat="48.06311" lon="7.01945">
        <ele>1120.01</ele>
        <time>2016-03-07T16:23:40Z</time>
      </trkpt>
      <trkpt lat="48.06311" lon="7.01946">
        <ele>1119.09</ele>
        <time>2016-03-07T16:23:42Z</time>
      </trkpt>
      <trkpt lat="48.0631" lon="7.01948">
        <ele>1112.46</ele>
        <time>2016-03-07T16:23:52Z</time>
      </trkpt>
      <trkpt lat="48.06309" lon="7.01949">
        <ele>1114.83</ele>
        <time>2016-03-07T16:23:53Z</time>
      </trkpt>
      <trkpt lat="48.06309" lon="7.01949">
        <ele>1120.77</ele>
        <time>2016-03-07T16:23:54Z</time>
      </trkpt>
      <trkpt lat="48.06308" lon="7.0195">
        <ele>1116.24</ele>
        <time>2016-03-07T16:23:55Z</time>
      </trkpt>
      <trkpt lat="48.06307" lon="7.01951">
        <ele>1120.19</ele>
        <time>2016-03-07T16:23:57Z</time>
      </trkpt>
      <trkpt lat="48.06307" lon="7.01951">
        <ele>1118.83</ele>
        <time>2016-03-07T16:23:58Z</time>
      </trkpt>
      <trkpt lat="48.06306" lon="7.01957">
        <ele>1113.59</ele>
        <time>2016-03-07T16:24:06Z</time>
      </trkpt>
      <trkpt lat="48.06306" lon="7.01958">
        <ele>1120.81</ele>
        <time>2016-03-07T16:24:07Z</time>
      </trkpt>
      <trkpt lat="48.06305" lon="7.01958">
        <ele>1122.66</ele>
        <time>2016-03-07T16:24:09Z</time>
      </trkpt>
      <trkpt lat="48.06305" lon="7.01958">
        <ele>1117.13</ele>
        <time>2016-03-07T16:24:10Z</time>
      </trkpt>
      <trkpt lat="48.06305" lon="7.01959">
        <ele>1123.12</ele>
        <time>2016-03-07T16:24:11Z</time>
      </trkpt>
      <trkpt lat="48.06304" lon="7.01959">
        <ele>1119.04</ele>
        <time>2016-03-07T16:24:12Z</time>
      </trkpt>
      <trkpt lat="48.06304" lon="7.0196">
        <ele>1123.6</ele>
        <time>2016-03-07T16:24:13Z</time>
      </trkpt>
      <trkpt lat="48.06304" lon="7.01961">
        <ele>1119.95</ele>
        <time>2016-03-07T16:24:14Z</time>
      </trkpt>
      <trkpt lat="48.06303" lon="7.01962">
        <ele>1125.09</ele>
        <time>2016-03-07T16:24:15Z</time>
      </trkpt>
      <trkpt lat="48.06303" lon="7.01962">
        <ele>1120.59</ele>
        <time>2016-03-07T16:24:16Z</time>
      </trkpt>
      <trkpt lat="48.06302" lon="7.01963">
        <ele>1124.68</ele>
        <time>2016-03-07T16:24:17Z</time>
      </trkpt>
      <trkpt lat="48.06302" lon="7.01964">
        <ele>1116.01</ele>
        <time>2016-03-07T16:24:18Z</time>
      </trkpt>
      <trkpt lat="48.06302" lon="7.01964">
        <ele>1121.43</ele>
        <time>2016-03-07T16:24:19Z</time>
      </trkpt>
      <trkpt lat="48.06302" lon="7.01966">
        <ele>1123.14</ele>
        <time>2016-03-07T16:24:21Z</time>
      </trkpt>
      <trkpt lat="48.06301" lon="7.01967">
        <ele>1121.26</ele>
        <time>2016-03-07T16:24:23Z</time>
      </trkpt>
      <trkpt lat="48.06296" lon="7.01978">
        <ele>1116.69</ele>
        <time>2016-03-07T16:24:33Z</time>
      </trkpt>
      <trkpt lat="48.06295" lon="7.01979">
        <ele>1124.05</ele>
        <time>2016-03-07T16:24:34Z</time>
      </trkpt>
      <trkpt lat="48.06295" lon="7.0198">
        <ele>1120.52</ele>
        <time>2016-03-07T16:24:35Z</time>
      </trkpt>
      <trkpt lat="48.06295" lon="7.01981">
        <ele>1125.44</ele>
        <time>2016-03-07T16:24:36Z</time>
      </trkpt>
      <trkpt lat="48.06294" lon="7.01981">
        <ele>1119.57</ele>
        <time>2016-03-07T16:24:37Z</time>
      </trkpt>
      <trkpt lat="48.06294" lon="7.01982">
        <ele>1126.26</ele>
        <time>2016-03-07T16:24:38Z</time>
      </trkpt>
      <trkpt lat="48.06294" lon="7.01982">
        <ele>1118.35</ele>
        <time>2016-03-07T16:24:39Z</time>
      </trkpt>
      <trkpt lat="48.06293" lon="7.01983">
        <ele>1125.49</ele>
        <time>2016-03-07T16:24:40Z</time>
      </trkpt>
      <trkpt lat="48.06292" lon="7.01985">
        <ele>1121.94</ele>
        <time>2016-03-07T16:24:44Z</time>
      </trkpt>
      <trkpt lat="48.06289" lon="7.01988">
        <ele>1126.53</ele>
        <time>2016-03-07T16:24:49Z</time>
      </trkpt>
      <trkpt lat="48.06288" lon="7.01992">
        <ele>1122.33</ele>
        <time>2016-03-07T16:24:55Z</time>
      </trkpt>
      <trkpt lat="48.06287" lon="7.01992">
        <ele>1126.07</ele>
        <time>2016-03-07T16:24:56Z</time>
      </trkpt>
      <trkpt lat="48.06287" lon="7.01993">
        <ele>1118.63</ele>
        <time>2016-03-07T16:24:57Z</time>
      </trkpt>
      <trkpt lat="48.06287" lon="7.01993">
        <ele>1127.63</ele>
        <time>2016-03-07T16:24:58Z</time>
      </trkpt>
      <trkpt lat="48.06286" lon="7.01994">
        <ele>1122.37</ele>
        <time>2016-03-07T16:24:59Z</time>
      </trkpt>
      <trkpt lat="48.06286" lon="7.01995">
        <ele>1127.31</ele>
        <time>2016-03-07T16:25:00Z</time>
      </trkpt>
      <trkpt lat="48.06285" lon="7.01995">
        <ele>1119.58</ele>
        <time>2016-03-07T16:25:01Z</time>
      </trkpt>
      <trkpt lat="48.06285" lon="7.01996">
        <ele>1127.94</ele>
        <time>2016-03-07T16:25:02Z</time>
      </trkpt>
      <trkpt lat="48.06285" lon="7.01996">
        <ele>1123.51</ele>
        <time>2016-03-07T16:25:03Z</time>
      </trkpt>
      <trkpt lat="48.06285" lon="7.01997">
        <ele>1126.88</ele>
        <time>2016-03-07T16:25:05Z</time>
      </trkpt>
      <trkpt lat="48.06284" lon="7.01997">
        <ele>1123.46</ele>
        <time>2016-03-07T16:25:06Z</time>
      </trkpt>
      <trkpt lat="48.06284" lon="7.01998">
        <ele>1127.66</ele>
        <time>2016-03-07T16:25:07Z</time>
      </trkpt>
      <trkpt lat="48.06284" lon="7.01998">
        <ele>1124.12</ele>
        <time>2016-03-07T16:25:08Z</time>
      </trkpt>
      <trkpt lat="48.06283" lon="7.01999">
        <ele>1128.4</ele>
        <time>2016-03-07T16:25:09Z</time>
      </trkpt>
      <trkpt lat="48.06283" lon="7.02">
        <ele>1122.46</ele>
        <time>2016-03-07T16:25:10Z</time>
      </trkpt>
      <trkpt lat="48.06282" lon="7.02001">
        <ele>1128.75</ele>
        <time>2016-03-07T16:25:11Z</time>
      </trkpt>
      <trkpt lat="48.06281" lon="7.02002">
        <ele>1123.76</ele>
        <time>2016-03-07T16:25:12Z</time>
      </trkpt>
      <trkpt lat="48.06281" lon="7.02003">
        <ele>1127.76</ele>
        <time>2016-03-07T16:25:14Z</time>
      </trkpt>
      <trkpt lat="48.0628" lon="7.02004">
        <ele>1124.23</ele>
        <time>2016-03-07T16:25:15Z</time>
      </trkpt>
      <trkpt lat="48.0628" lon="7.02005">
        <ele>1128.15</ele>
        <time>2016-03-07T16:25:16Z</time>
      </trkpt>
      <trkpt lat="48.0628" lon="7.02005">
        <ele>1120.14</ele>
        <time>2016-03-07T16:25:17Z</time>
      </trkpt>
      <trkpt lat="48.0628" lon="7.02006">
        <ele>1128.34</ele>
        <time>2016-03-07T16:25:18Z</time>
      </trkpt>
      <trkpt lat="48.06279" lon="7.02007">
        <ele>1122.8</ele>
        <time>2016-03-07T16:25:19Z</time>
      </trkpt>
      <trkpt lat="48.06279" lon="7.02008">
        <ele>1128.6</ele>
        <time>2016-03-07T16:25:20Z</time>
      </trkpt>
      <trkpt lat="48.06279" lon="7.02009">
        <ele>1118.76</ele>
        <time>2016-03-07T16:25:21Z</time>
      </trkpt>
      <trkpt lat="48.06278" lon="7.02009">
        <ele>1130.05</ele>
        <time>2016-03-07T16:25:22Z</time>
      </trkpt>
      <trkpt lat="48.06278" lon="7.02011">
        <ele>1123.37</ele>
        <time>2016-03-07T16:25:24Z</time>
      </trkpt>
      <trkpt lat="48.06277" lon="7.02012">
        <ele>1128.75</ele>
        <time>2016-03-07T16:25:25Z</time>
      </trkpt>
      <trkpt lat="48.06276" lon="7.02013">
        <ele>1125.16</ele>
        <time>2016-03-07T16:25:26Z</time>
      </trkpt>
      <trkpt lat="48.06276" lon="7.02013">
        <ele>1128.19</ele>
        <time>2016-03-07T16:25:27Z</time>
      </trkpt>
      <trkpt lat="48.06275" lon="7.02014">
        <ele>1122.95</ele>
        <time>2016-03-07T16:25:28Z</time>
      </trkpt>
      <trkpt lat="48.06275" lon="7.02014">
        <ele>1129.34</ele>
        <time>2016-03-07T16:25:29Z</time>
      </trkpt>
      <trkpt lat="48.06273" lon="7.02016">
        <ele>1125.29</ele>
        <time>2016-03-07T16:25:32Z</time>
      </trkpt>
      <trkpt lat="48.06272" lon="7.02017">
        <ele>1128.89</ele>
        <time>2016-03-07T16:25:34Z</time>
      </trkpt>
      <trkpt lat="48.06271" lon="7.0202">
        <ele>1122.35</ele>
        <time>2016-03-07T16:25:47Z</time>
      </trkpt>
      <trkpt lat="48.06271" lon="7.0202">
        <ele>1129.04</ele>
        <time>2016-03-07T16:25:48Z</time>
      </trkpt>
      <trkpt lat="48.06271" lon="7.02021">
        <ele>1125.57</ele>
        <time>2016-03-07T16:25:49Z</time>
      </trkpt>
      <trkpt lat="48.0627" lon="7.02022">
        <ele>1118.62</ele>
        <time>2016-03-07T16:25:51Z</time>
      </trkpt>
      <trkpt lat="48.06269" lon="7.02023">
        <ele>1129.2</ele>
        <time>2016-03-07T16:25:52Z</time>
      </trkpt>
      <trkpt lat="48.06269" lon="7.02023">
        <ele>1122.3</ele>
        <time>2016-03-07T16:25:53Z</time>
      </trkpt>
      <trkpt lat="48.06269" lon="7.02024">
        <ele>1128.76</ele>
        <time>2016-03-07T16:25:54Z</time>
      </trkpt>
      <trkpt lat="48.06268" lon="7.02024">
        <ele>1121.16</ele>
        <time>2016-03-07T16:25:55Z</time>
      </trkpt>
      <trkpt lat="48.06268" lon="7.02025">
        <ele>1128.27</ele>
        <time>2016-03-07T16:25:56Z</time>
      </trkpt>
      <trkpt lat="48.06267" lon="7.02025">
        <ele>1124.8</ele>
        <time>2016-03-07T16:25:57Z</time>
      </trkpt>
      <trkpt lat="48.06266" lon="7.02027">
        <ele>1128.18</ele>
        <time>2016-03-07T16:26:00Z</time>
      </trkpt>
      <trkpt lat="48.06264" lon="7.02027">
        <ele>1122.19</ele>
        <time>2016-03-07T16:26:05Z</time>
      </trkpt>
      <trkpt lat="48.06264" lon="7.02027">
        <ele>1129.05</ele>
        <time>2016-03-07T16:26:06Z</time>
      </trkpt>
      <trkpt lat="48.06263" lon="7.02026">
        <ele>1121.23</ele>
        <time>2016-03-07T16:26:07Z</time>
      </trkpt>
      <trkpt lat="48.06263" lon="7.02026">
        <ele>1128.69</ele>
        <time>2016-03-07T16:26:08Z</time>
      </trkpt>
      <trkpt lat="48.06262" lon="7.02026">
        <ele>1122.19</ele>
        <time>2016-03-07T16:26:09Z</time>
      </trkpt>
      <trkpt lat="48.06262" lon="7.02027">
        <ele>1128.71</ele>
        <time>2016-03-07T16:26:10Z</time>
      </trkpt>
      <trkpt lat="48.06261" lon="7.02027">
        <ele>1124.16</ele>
        <time>2016-03-07T16:26:11Z</time>
      </trkpt>
      <trkpt lat="48.0626" lon="7.02027">
        <ele>1128.06</ele>
        <time>2016-03-07T16:26:12Z</time>
      </trkpt>
      <trkpt lat="48.0626" lon="7.02028">
        <ele>1124.03</ele>
        <time>2016-03-07T16:26:13Z</time>
      </trkpt>
      <trkpt lat="48.0626" lon="7.02029">
        <ele>1127.98</ele>
        <time>2016-03-07T16:26:14Z</time>
      </trkpt>
      <trkpt lat="48.06259" lon="7.02029">
        <ele>1115.72</ele>
        <time>2016-03-07T16:26:15Z</time>
      </trkpt>
      <trkpt lat="48.06259" lon="7.0203">
        <ele>1129.57</ele>
        <time>2016-03-07T16:26:16Z</time>
      </trkpt>
      <trkpt lat="48.06258" lon="7.02031">
        <ele>1126.32</ele>
        <time>2016-03-07T16:26:17Z</time>
      </trkpt>
      <trkpt lat="48.06257" lon="7.02032">
        <ele>1122.44</ele>
        <time>2016-03-07T16:26:19Z</time>
      </trkpt>
      <trkpt lat="48.06257" lon="7.02032">
        <ele>1129.06</ele>
        <time>2016-03-07T16:26:20Z</time>
      </trkpt>
      <trkpt lat="48.06256" lon="7.02033">
        <ele>1123.78</ele>
        <time>2016-03-07T16:26:21Z</time>
      </trkpt>
      <trkpt lat="48.06255" lon="7.02034">
        <ele>1127.84</ele>
        <time>2016-03-07T16:26:24Z</time>
      </trkpt>
      <trkpt lat="48.06251" lon="7.02039">
        <ele>1124.23</ele>
        <time>2016-03-07T16:26:31Z</time>
      </trkpt>
      <trkpt lat="48.0625" lon="7.0204">
        <ele>1128.23</ele>
        <time>2016-03-07T16:26:32Z</time>
      </trkpt>
      <trkpt lat="48.06249" lon="7.02041">
        <ele>1124.5</ele>
        <time>2016-03-07T16:26:33Z</time>
      </trkpt>
      <trkpt lat="48.06249" lon="7.02042">
        <ele>1129.05</ele>
        <time>2016-03-07T16:26:34Z</time>
      </trkpt>
      <trkpt lat="48.06248" lon="7.02043">
        <ele>1123.69</ele>
        <time>2016-03-07T16:26:35Z</time>
      </trkpt>
      <trkpt lat="48.06248" lon="7.02044">
        <ele>1128.5</ele>
        <time>2016-03-07T16:26:36Z</time>
      </trkpt>
      <trkpt lat="48.06247" lon="7.02045">
        <ele>1122.93</ele>
        <time>2016-03-07T16:26:37Z</time>
      </trkpt>
      <trkpt lat="48.06247" lon="7.02046">
        <ele>1128.46</ele>
        <time>2016-03-07T16:26:38Z</time>
      </trkpt>
      <trkpt lat="48.06247" lon="7.02047">
        <ele>1122.94</ele>
        <time>2016-03-07T16:26:39Z</time>
      </trkpt>
      <trkpt lat="48.06246" lon="7.02048">
        <ele>1129.24</ele>
        <time>2016-03-07T16:26:40Z</time>
      </trkpt>
      <trkpt lat="48.06246" lon="7.02049">
        <ele>1123.68</ele>
        <time>2016-03-07T16:26:41Z</time>
      </trkpt>
      <trkpt lat="48.06245" lon="7.0205">
        <ele>1129</ele>
        <time>2016-03-07T16:26:42Z</time>
      </trkpt>
      <trkpt lat="48.06245" lon="7.0205">
        <ele>1123.45</ele>
        <time>2016-03-07T16:26:43Z</time>
      </trkpt>
      <trkpt lat="48.06244" lon="7.02051">
        <ele>1128.61</ele>
        <time>2016-03-07T16:26:44Z</time>
      </trkpt>
      <trkpt lat="48.06244" lon="7.02052">
        <ele>1123.25</ele>
        <time>2016-03-07T16:26:45Z</time>
      </trkpt>
      <trkpt lat="48.06244" lon="7.02053">
        <ele>1130.37</ele>
        <time>2016-03-07T16:26:46Z</time>
      </trkpt>
      <trkpt lat="48.06243" lon="7.02054">
        <ele>1122.41</ele>
        <time>2016-03-07T16:26:47Z</time>
      </trkpt>
      <trkpt lat="48.06243" lon="7.02055">
        <ele>1131.45</ele>
        <time>2016-03-07T16:26:48Z</time>
      </trkpt>
      <trkpt lat="48.06243" lon="7.02056">
        <ele>1122.65</ele>
        <time>2016-03-07T16:26:49Z</time>
      </trkpt>
      <trkpt lat="48.06243" lon="7.02057">
        <ele>1130.74</ele>
        <time>2016-03-07T16:26:50Z</time>
      </trkpt>
      <trkpt lat="48.06243" lon="7.02058">
        <ele>1123.51</ele>
        <time>2016-03-07T16:26:51Z</time>
      </trkpt>
      <trkpt lat="48.06242" lon="7.02062">
        <ele>1129.52</ele>
        <time>2016-03-07T16:26:55Z</time>
      </trkpt>
      <trkpt lat="48.06242" lon="7.02063">
        <ele>1122.37</ele>
        <time>2016-03-07T16:26:56Z</time>
      </trkpt>
      <trkpt lat="48.06242" lon="7.02064">
        <ele>1128.96</ele>
        <time>2016-03-07T16:26:57Z</time>
      </trkpt>
      <trkpt lat="48.06242" lon="7.02065">
        <ele>1122.01</ele>
        <time>2016-03-07T16:26:58Z</time>
      </trkpt>
      <trkpt lat="48.06242" lon="7.02066">
        <ele>1129.38</ele>
        <time>2016-03-07T16:26:59Z</time>
      </trkpt>
      <trkpt lat="48.06242" lon="7.02067">
        <ele>1123.64</ele>
        <time>2016-03-07T16:27:00Z</time>
      </trkpt>
      <trkpt lat="48.06243" lon="7.02069">
        <ele>1129.29</ele>
        <time>2016-03-07T16:27:01Z</time>
      </trkpt>
      <trkpt lat="48.06243" lon="7.0207">
        <ele>1122.78</ele>
        <time>2016-03-07T16:27:02Z</time>
      </trkpt>
      <trkpt lat="48.06243" lon="7.02071">
        <ele>1130.07</ele>
        <time>2016-03-07T16:27:03Z</time>
      </trkpt>
      <trkpt lat="48.06243" lon="7.02072">
        <ele>1122.08</ele>
        <time>2016-03-07T16:27:04Z</time>
      </trkpt>
      <trkpt lat="48.06244" lon="7.02073">
        <ele>1129.91</ele>
        <time>2016-03-07T16:27:05Z</time>
      </trkpt>
      <trkpt lat="48.06245" lon="7.02074">
        <ele>1124.8</ele>
        <time>2016-03-07T16:27:06Z</time>
      </trkpt>
      <trkpt lat="48.06245" lon="7.02075">
        <ele>1131.53</ele>
        <time>2016-03-07T16:27:07Z</time>
      </trkpt>
      <trkpt lat="48.06245" lon="7.02076">
        <ele>1124.4</ele>
        <time>2016-03-07T16:27:08Z</time>
      </trkpt>
      <trkpt lat="48.06245" lon="7.02077">
        <ele>1131.39</ele>
        <time>2016-03-07T16:27:09Z</time>
      </trkpt>
      <trkpt lat="48.06245" lon="7.02079">
        <ele>1123.28</ele>
        <time>2016-03-07T16:27:10Z</time>
      </trkpt>
      <trkpt lat="48.06246" lon="7.0208">
        <ele>1131.49</ele>
        <time>2016-03-07T16:27:11Z</time>
      </trkpt>
      <trkpt lat="48.06246" lon="7.02081">
        <ele>1125.37</ele>
        <time>2016-03-07T16:27:12Z</time>
      </trkpt>
      <trkpt lat="48.06246" lon="7.02082">
        <ele>1130.96</ele>
        <time>2016-03-07T16:27:13Z</time>
      </trkpt>
      <trkpt lat="48.06247" lon="7.02082">
        <ele>1124.77</ele>
        <time>2016-03-07T16:27:14Z</time>
      </trkpt>
      <trkpt lat="48.06247" lon="7.02083">
        <ele>1128.16</ele>
        <time>2016-03-07T16:27:15Z</time>
      </trkpt>
      <trkpt lat="48.06247" lon="7.02091">
        <ele>1126.56</ele>
        <time>2016-03-07T16:27:25Z</time>
      </trkpt>
      <trkpt lat="48.06247" lon="7.02096">
        <ele>1126.18</ele>
        <time>2016-03-07T16:27:28Z</time>
      </trkpt>
      <trkpt lat="48.06249" lon="7.02098">
        <ele>1127.16</ele>
        <time>2016-03-07T16:27:30Z</time>
      </trkpt>
      <trkpt lat="48.06255" lon="7.021">
        <ele>1126.35</ele>
        <time>2016-03-07T16:27:37Z</time>
      </trkpt>
      <trkpt lat="48.06271" lon="7.02103">
        <ele>1126.81</ele>
        <time>2016-03-07T16:27:54Z</time>
      </trkpt>
      <trkpt lat="48.06284" lon="7.02107">
        <ele>1129.77</ele>
        <time>2016-03-07T16:28:08Z</time>
      </trkpt>
      <trkpt lat="48.06285" lon="7.02108">
        <ele>1126.3</ele>
        <time>2016-03-07T16:28:10Z</time>
      </trkpt>
      <trkpt lat="48.06286" lon="7.02109">
        <ele>1130.07</ele>
        <time>2016-03-07T16:28:11Z</time>
      </trkpt>
      <trkpt lat="48.06292" lon="7.02113">
        <ele>1126.89</ele>
        <time>2016-03-07T16:28:18Z</time>
      </trkpt>
      <trkpt lat="48.06296" lon="7.02117">
        <ele>1130.05</ele>
        <time>2016-03-07T16:28:23Z</time>
      </trkpt>
      <trkpt lat="48.06309" lon="7.02131">
        <ele>1130.64</ele>
        <time>2016-03-07T16:28:38Z</time>
      </trkpt>
      <trkpt lat="48.06309" lon="7.02132">
        <ele>1124.16</ele>
        <time>2016-03-07T16:28:39Z</time>
      </trkpt>
      <trkpt lat="48.0631" lon="7.02134">
        <ele>1128.79</ele>
        <time>2016-03-07T16:28:40Z</time>
      </trkpt>
      <trkpt lat="48.06324" lon="7.02153">
        <ele>1129.14</ele>
        <time>2016-03-07T16:28:59Z</time>
      </trkpt>
      <trkpt lat="48.06332" lon="7.02169">
        <ele>1128.65</ele>
        <time>2016-03-07T16:29:14Z</time>
      </trkpt>
      <trkpt lat="48.06333" lon="7.02175">
        <ele>1128.23</ele>
        <time>2016-03-07T16:29:19Z</time>
      </trkpt>
      <trkpt lat="48.06333" lon="7.0218">
        <ele>1130.88</ele>
        <time>2016-03-07T16:29:22Z</time>
      </trkpt>
      <trkpt lat="48.06333" lon="7.02181">
        <ele>1130.75</ele>
        <time>2016-03-07T16:29:23Z</time>
      </trkpt>
      <trkpt lat="48.06334" lon="7.0219">
        <ele>1130.37</ele>
        <time>2016-03-07T16:29:29Z</time>
      </trkpt>
      <trkpt lat="48.06336" lon="7.02195">
        <ele>1123.82</ele>
        <time>2016-03-07T16:29:33Z</time>
      </trkpt>
      <trkpt lat="48.06337" lon="7.02196">
        <ele>1129.18</ele>
        <time>2016-03-07T16:29:34Z</time>
      </trkpt>
      <trkpt lat="48.06337" lon="7.02199">
        <ele>1130.58</ele>
        <time>2016-03-07T16:29:36Z</time>
      </trkpt>
      <trkpt lat="48.06336" lon="7.02206">
        <ele>1127.48</ele>
        <time>2016-03-07T16:29:42Z</time>
      </trkpt>
      <trkpt lat="48.06336" lon="7.02207">
        <ele>1130.89</ele>
        <time>2016-03-07T16:29:44Z</time>
      </trkpt>
      <trkpt lat="48.06337" lon="7.02207">
        <ele>1098.9</ele>
        <time>2016-03-07T16:29:46Z</time>
      </trkpt>
      <trkpt lat="48.06337" lon="7.02206">
        <ele>1120.1</ele>
        <time>2016-03-07T16:29:47Z</time>
      </trkpt>
      <trkpt lat="48.06337" lon="7.02206">
        <ele>1133.12</ele>
        <time>2016-03-07T16:29:48Z</time>
      </trkpt>
      <trkpt lat="48.06337" lon="7.02206">
        <ele>1129.41</ele>
        <time>2016-03-07T16:29:49Z</time>
      </trkpt>
      <trkpt lat="48.06337" lon="7.02206">
        <ele>1117.6</ele>
        <time>2016-03-07T16:29:50Z</time>
      </trkpt>
      <trkpt lat="48.06337" lon="7.02206">
        <ele>1127.86</ele>
        <time>2016-03-07T16:29:51Z</time>
      </trkpt>
      <trkpt lat="48.06337" lon="7.02206">
        <ele>1131.97</ele>
        <time>2016-03-07T16:29:52Z</time>
      </trkpt>
      <trkpt lat="48.06337" lon="7.02206">
        <ele>1137.34</ele>
        <time>2016-03-07T16:29:53Z</time>
      </trkpt>
      <trkpt lat="48.06337" lon="7.02207">
        <ele>1135.08</ele>
        <time>2016-03-07T16:29:54Z</time>
      </trkpt>
      <trkpt lat="48.06336" lon="7.02207">
        <ele>1130.36</ele>
        <time>2016-03-07T16:29:56Z</time>
      </trkpt>
      <trkpt lat="48.06336" lon="7.02207">
        <ele>1104.79</ele>
        <time>2016-03-07T16:29:57Z</time>
      </trkpt>
      <trkpt lat="48.06336" lon="7.02207">
        <ele>1125.38</ele>
        <time>2016-03-07T16:29:58Z</time>
      </trkpt>
      <trkpt lat="48.06337" lon="7.02208">
        <ele>1133.44</ele>
        <time>2016-03-07T16:29:59Z</time>
      </trkpt>
      <trkpt lat="48.06336" lon="7.02208">
        <ele>1131.19</ele>
        <time>2016-03-07T16:30:02Z</time>
      </trkpt>
      <trkpt lat="48.06336" lon="7.02208">
        <ele>1116.75</ele>
        <time>2016-03-07T16:30:04Z</time>
      </trkpt>
      <trkpt lat="48.06336" lon="7.02208">
        <ele>1107.55</ele>
        <time>2016-03-07T16:30:05Z</time>
      </trkpt>
      <trkpt lat="48.06337" lon="7.02208">
        <ele>1118.86</ele>
        <time>2016-03-07T16:30:06Z</time>
      </trkpt>
      <trkpt lat="48.06337" lon="7.02208">
        <ele>1136.59</ele>
        <time>2016-03-07T16:30:07Z</time>
      </trkpt>
      <trkpt lat="48.06336" lon="7.02208">
        <ele>1132.63</ele>
        <time>2016-03-07T16:30:08Z</time>
      </trkpt>
      <trkpt lat="48.06336" lon="7.02208">
        <ele>1126.2</ele>
        <time>2016-03-07T16:30:09Z</time>
      </trkpt>
      <trkpt lat="48.06336" lon="7.02208">
        <ele>1131.28</ele>
        <time>2016-03-07T16:30:10Z</time>
      </trkpt>
      <trkpt lat="48.06335" lon="7.02207">
        <ele>1130.25</ele>
        <time>2016-03-07T16:30:30Z</time>
      </trkpt>
      <trkpt lat="48.06335" lon="7.02207">
        <ele>1128.2</ele>
        <time>2016-03-07T16:31:01Z</time>
      </trkpt>
      <trkpt lat="48.06336" lon="7.02205">
        <ele>1128.84</ele>
        <time>2016-03-07T16:31:21Z</time>
      </trkpt>
      <trkpt lat="48.06336" lon="7.02205">
        <ele>1106.53</ele>
        <time>2016-03-07T16:31:22Z</time>
      </trkpt>
      <trkpt lat="48.06336" lon="7.02205">
        <ele>1130.51</ele>
        <time>2016-03-07T16:31:23Z</time>
      </trkpt>
      <trkpt lat="48.06336" lon="7.02206">
        <ele>1122.81</ele>
        <time>2016-03-07T16:31:24Z</time>
      </trkpt>
      <trkpt lat="48.06336" lon="7.02207">
        <ele>1134.97</ele>
        <time>2016-03-07T16:31:25Z</time>
      </trkpt>
      <trkpt lat="48.06337" lon="7.02207">
        <ele>1131.47</ele>
        <time>2016-03-07T16:31:26Z</time>
      </trkpt>
      <trkpt lat="48.06337" lon="7.02207">
        <ele>1098.6</ele>
        <time>2016-03-07T16:31:41Z</time>
      </trkpt>
      <trkpt lat="48.06337" lon="7.02206">
        <ele>1129.77</ele>
        <time>2016-03-07T16:31:42Z</time>
      </trkpt>
      <trkpt lat="48.06336" lon="7.02207">
        <ele>1132.23</ele>
        <time>2016-03-07T16:31:51Z</time>
      </trkpt>
      <trkpt lat="48.06337" lon="7.02206">
        <ele>1127.53</ele>
        <time>2016-03-07T16:31:54Z</time>
      </trkpt>
      <trkpt lat="48.06337" lon="7.02206">
        <ele>1110.86</ele>
        <time>2016-03-07T16:31:55Z</time>
      </trkpt>
      <trkpt lat="48.06337" lon="7.02206">
        <ele>1122.56</ele>
        <time>2016-03-07T16:31:56Z</time>
      </trkpt>
      <trkpt lat="48.06337" lon="7.02206">
        <ele>1129.95</ele>
        <time>2016-03-07T16:31:57Z</time>
      </trkpt>
      <trkpt lat="48.06337" lon="7.02206">
        <ele>1129.43</ele>
        <time>2016-03-07T16:31:58Z</time>
      </trkpt>
      <trkpt lat="48.06337" lon="7.02207">
        <ele>1134.03</ele>
        <time>2016-03-07T16:32:02Z</time>
      </trkpt>
      <trkpt lat="48.06337" lon="7.02207">
        <ele>1124.98</ele>
        <time>2016-03-07T16:32:03Z</time>
      </trkpt>
      <trkpt lat="48.06337" lon="7.02207">
        <ele>1132.03</ele>
        <time>2016-03-07T16:32:04Z</time>
      </trkpt>
      <trkpt lat="48.06337" lon="7.02204">
        <ele>1129.62</ele>
        <time>2016-03-07T16:32:18Z</time>
      </trkpt>
      <trkpt lat="48.06337" lon="7.02205">
        <ele>1109</ele>
        <time>2016-03-07T16:32:23Z</time>
      </trkpt>
      <trkpt lat="48.06337" lon="7.02205">
        <ele>1131.25</ele>
        <time>2016-03-07T16:32:24Z</time>
      </trkpt>
      <trkpt lat="48.06337" lon="7.02205">
        <ele>1130.04</ele>
        <time>2016-03-07T16:32:25Z</time>
      </trkpt>
      <trkpt lat="48.06337" lon="7.02205">
        <ele>1121.47</ele>
        <time>2016-03-07T16:32:27Z</time>
      </trkpt>
      <trkpt lat="48.06336" lon="7.02205">
        <ele>1116.55</ele>
        <time>2016-03-07T16:32:28Z</time>
      </trkpt>
      <trkpt lat="48.06336" lon="7.02205">
        <ele>1125.35</ele>
        <time>2016-03-07T16:32:29Z</time>
      </trkpt>
      <trkpt lat="48.06336" lon="7.02205">
        <ele>1125.48</ele>
        <time>2016-03-07T16:32:30Z</time>
      </trkpt>
      <trkpt lat="48.06336" lon="7.02205">
        <ele>1132.77</ele>
        <time>2016-03-07T16:32:31Z</time>
      </trkpt>
      <trkpt lat="48.06336" lon="7.02205">
        <ele>1130.66</ele>
        <time>2016-03-07T16:32:32Z</time>
      </trkpt>
      <trkpt lat="48.06336" lon="7.02205">
        <ele>1129.76</ele>
        <time>2016-03-07T16:32:34Z</time>
      </trkpt>
      <trkpt lat="48.06336" lon="7.02205">
        <ele>1134.14</ele>
        <time>2016-03-07T16:32:42Z</time>
      </trkpt>
      <trkpt lat="48.06336" lon="7.02205">
        <ele>1133.47</ele>
        <time>2016-03-07T16:32:43Z</time>
      </trkpt>
      <trkpt lat="48.06337" lon="7.02204">
        <ele>1123.68</ele>
        <time>2016-03-07T16:32:52Z</time>
      </trkpt>
      <trkpt lat="48.06338" lon="7.02204">
        <ele>1114.87</ele>
        <time>2016-03-07T16:32:53Z</time>
      </trkpt>
      <trkpt lat="48.06338" lon="7.02204">
        <ele>1123.76</ele>
        <time>2016-03-07T16:32:54Z</time>
      </trkpt>
      <trkpt lat="48.06338" lon="7.02204">
        <ele>1131.34</ele>
        <time>2016-03-07T16:32:55Z</time>
      </trkpt>
      <trkpt lat="48.06338" lon="7.02204">
        <ele>1128.46</ele>
        <time>2016-03-07T16:32:56Z</time>
      </trkpt>
      <trkpt lat="48.06338" lon="7.02205">
        <ele>1131.81</ele>
        <time>2016-03-07T16:32:59Z</time>
      </trkpt>
      <trkpt lat="48.06338" lon="7.02206">
        <ele>1127.78</ele>
        <time>2016-03-07T16:33:01Z</time>
      </trkpt>
      <trkpt lat="48.06338" lon="7.02206">
        <ele>1126.39</ele>
        <time>2016-03-07T16:33:03Z</time>
      </trkpt>
      <trkpt lat="48.06338" lon="7.02206">
        <ele>1123.02</ele>
        <time>2016-03-07T16:33:04Z</time>
      </trkpt>
      <trkpt lat="48.06338" lon="7.02206">
        <ele>1127.36</ele>
        <time>2016-03-07T16:33:05Z</time>
      </trkpt>
      <trkpt lat="48.06338" lon="7.02206">
        <ele>1131.28</ele>
        <time>2016-03-07T16:33:07Z</time>
      </trkpt>
      <trkpt lat="48.06338" lon="7.02206">
        <ele>1132.32</ele>
        <time>2016-03-07T16:33:09Z</time>
      </trkpt>
      <trkpt lat="48.06337" lon="7.02205">
        <ele>1116.62</ele>
        <time>2016-03-07T16:33:22Z</time>
      </trkpt>
      <trkpt lat="48.06338" lon="7.02205">
        <ele>1127.64</ele>
        <time>2016-03-07T16:33:23Z</time>
      </trkpt>
      <trkpt lat="48.06337" lon="7.02205">
        <ele>1132.14</ele>
        <time>2016-03-07T16:33:27Z</time>
      </trkpt>
      <trkpt lat="48.06336" lon="7.02205">
        <ele>1131.07</ele>
        <time>2016-03-07T16:33:28Z</time>
      </trkpt>
      <trkpt lat="48.06336" lon="7.02205">
        <ele>1103.23</ele>
        <time>2016-03-07T16:33:44Z</time>
      </trkpt>
      <trkpt lat="48.06336" lon="7.02205">
        <ele>1126.59</ele>
        <time>2016-03-07T16:33:45Z</time>
      </trkpt>
      <trkpt lat="48.06336" lon="7.02205">
        <ele>1132.29</ele>
        <time>2016-03-07T16:33:46Z</time>
      </trkpt>
      <trkpt lat="48.06336" lon="7.02205">
        <ele>1130.77</ele>
        <time>2016-03-07T16:33:47Z</time>
      </trkpt>
      <trkpt lat="48.06336" lon="7.02205">
        <ele>1123.84</ele>
        <time>2016-03-07T16:33:50Z</time>
      </trkpt>
      <trkpt lat="48.06336" lon="7.02205">
        <ele>1104.33</ele>
        <time>2016-03-07T16:33:51Z</time>
      </trkpt>
      <trkpt lat="48.06336" lon="7.02205">
        <ele>1133.48</ele>
        <time>2016-03-07T16:33:52Z</time>
      </trkpt>
      <trkpt lat="48.06336" lon="7.02205">
        <ele>1131.38</ele>
        <time>2016-03-07T16:33:53Z</time>
      </trkpt>
      <trkpt lat="48.06336" lon="7.02206">
        <ele>1130.65</ele>
        <time>2016-03-07T16:33:55Z</time>
      </trkpt>
      <trkpt lat="48.06335" lon="7.02206">
        <ele>1086.56</ele>
        <time>2016-03-07T16:34:05Z</time>
      </trkpt>
      <trkpt lat="48.06335" lon="7.02206">
        <ele>1134.5</ele>
        <time>2016-03-07T16:34:06Z</time>
      </trkpt>
      <trkpt lat="48.06335" lon="7.02206">
        <ele>1130.96</ele>
        <time>2016-03-07T16:34:07Z</time>
      </trkpt>
      <trkpt lat="48.06335" lon="7.02207">
        <ele>1122.23</ele>
        <time>2016-03-07T16:34:13Z</time>
      </trkpt>
      <trkpt lat="48.06335" lon="7.02207">
        <ele>1102.65</ele>
        <time>2016-03-07T16:34:14Z</time>
      </trkpt>
      <trkpt lat="48.06335" lon="7.02207">
        <ele>1123.44</ele>
        <time>2016-03-07T16:34:15Z</time>
      </trkpt>
      <trkpt lat="48.06335" lon="7.02207">
        <ele>1127.76</ele>
        <time>2016-03-07T16:34:16Z</time>
      </trkpt>
      <trkpt lat="48.06334" lon="7.02207">
        <ele>1126.18</ele>
        <time>2016-03-07T16:34:17Z</time>
      </trkpt>
      <trkpt lat="48.06334" lon="7.02207">
        <ele>1129.9</ele>
        <time>2016-03-07T16:34:21Z</time>
      </trkpt>
      <trkpt lat="48.06334" lon="7.02207">
        <ele>1125.8</ele>
        <time>2016-03-07T16:34:23Z</time>
      </trkpt>
      <trkpt lat="48.06334" lon="7.02207">
        <ele>1135.8</ele>
        <time>2016-03-07T16:34:24Z</time>
      </trkpt>
      <trkpt lat="48.06335" lon="7.02206">
        <ele>1134.21</ele>
        <time>2016-03-07T16:34:25Z</time>
      </trkpt>
      <trkpt lat="48.06335" lon="7.02207">
        <ele>1131.16</ele>
        <time>2016-03-07T16:34:26Z</time>
      </trkpt>
      <trkpt lat="48.06335" lon="7.02208">
        <ele>1122.94</ele>
        <time>2016-03-07T16:34:27Z</time>
      </trkpt>
      <trkpt lat="48.06335" lon="7.02208">
        <ele>1128.57</ele>
        <time>2016-03-07T16:34:28Z</time>
      </trkpt>
      <trkpt lat="48.06335" lon="7.0221">
        <ele>1130.55</ele>
        <time>2016-03-07T16:34:31Z</time>
      </trkpt>
      <trkpt lat="48.06335" lon="7.02209">
        <ele>1127.39</ele>
        <time>2016-03-07T16:34:33Z</time>
      </trkpt>
      <trkpt lat="48.06335" lon="7.02209">
        <ele>1131.57</ele>
        <time>2016-03-07T16:34:35Z</time>
      </trkpt>
      <trkpt lat="48.06335" lon="7.02208">
        <ele>1126.77</ele>
        <time>2016-03-07T16:34:36Z</time>
      </trkpt>
      <trkpt lat="48.06335" lon="7.02207">
        <ele>1130.26</ele>
        <time>2016-03-07T16:34:40Z</time>
      </trkpt>
      <trkpt lat="48.06335" lon="7.02206">
        <ele>1126.69</ele>
        <time>2016-03-07T16:34:59Z</time>
      </trkpt>
      <trkpt lat="48.06335" lon="7.02206">
        <ele>1130.93</ele>
        <time>2016-03-07T16:35:00Z</time>
      </trkpt>
      <trkpt lat="48.06334" lon="7.02204">
        <ele>1130.84</ele>
        <time>2016-03-07T16:35:18Z</time>
      </trkpt>
      <trkpt lat="48.06334" lon="7.02204">
        <ele>1129.71</ele>
        <time>2016-03-07T16:35:40Z</time>
      </trkpt>
      <trkpt lat="48.06335" lon="7.02206">
        <ele>1125.15</ele>
        <time>2016-03-07T16:35:46Z</time>
      </trkpt>
      <trkpt lat="48.06336" lon="7.02206">
        <ele>1136.06</ele>
        <time>2016-03-07T16:35:47Z</time>
      </trkpt>
      <trkpt lat="48.06336" lon="7.02206">
        <ele>1130.84</ele>
        <time>2016-03-07T16:35:48Z</time>
      </trkpt>
      <trkpt lat="48.06333" lon="7.02205">
        <ele>1130.23</ele>
        <time>2016-03-07T16:36:08Z</time>
      </trkpt>
      <trkpt lat="48.06334" lon="7.02206">
        <ele>1129.68</ele>
        <time>2016-03-07T16:36:31Z</time>
      </trkpt>
      <trkpt lat="48.06335" lon="7.02209">
        <ele>1134.49</ele>
        <time>2016-03-07T16:36:37Z</time>
      </trkpt>
      <trkpt lat="48.06334" lon="7.02209">
        <ele>1130.57</ele>
        <time>2016-03-07T16:36:38Z</time>
      </trkpt>
      <trkpt lat="48.06335" lon="7.02205">
        <ele>1125.38</ele>
        <time>2016-03-07T16:36:50Z</time>
      </trkpt>
      <trkpt lat="48.06335" lon="7.02205">
        <ele>1130.06</ele>
        <time>2016-03-07T16:36:51Z</time>
      </trkpt>
      <trkpt lat="48.06335" lon="7.02204">
        <ele>1123.65</ele>
        <time>2016-03-07T16:37:15Z</time>
      </trkpt>
      <trkpt lat="48.06335" lon="7.02204">
        <ele>1128.17</ele>
        <time>2016-03-07T16:37:16Z</time>
      </trkpt>
      <trkpt lat="48.06335" lon="7.02204">
        <ele>1131.23</ele>
        <time>2016-03-07T16:37:17Z</time>
      </trkpt>
      <trkpt lat="48.06335" lon="7.02204">
        <ele>1132.75</ele>
        <time>2016-03-07T16:37:19Z</time>
      </trkpt>
      <trkpt lat="48.06335" lon="7.02205">
        <ele>1129.43</ele>
        <time>2016-03-07T16:37:23Z</time>
      </trkpt>
      <trkpt lat="48.06337" lon="7.02208">
        <ele>1130.2</ele>
        <time>2016-03-07T16:37:44Z</time>
      </trkpt>
      <trkpt lat="48.06336" lon="7.02205">
        <ele>1129.71</ele>
        <time>2016-03-07T16:37:58Z</time>
      </trkpt>
      <trkpt lat="48.06339" lon="7.02207">
        <ele>1130.6</ele>
        <time>2016-03-07T16:38:04Z</time>
      </trkpt>
      <trkpt lat="48.06346" lon="7.0221">
        <ele>1130.41</ele>
        <time>2016-03-07T16:38:21Z</time>
      </trkpt>
      <trkpt lat="48.06347" lon="7.02211">
        <ele>1130.35</ele>
        <time>2016-03-07T16:38:46Z</time>
      </trkpt>
      <trkpt lat="48.06352" lon="7.02215">
        <ele>1130.28</ele>
        <time>2016-03-07T16:39:04Z</time>
      </trkpt>
      <trkpt lat="48.06364" lon="7.02215">
        <ele>1130.34</ele>
        <time>2016-03-07T16:39:22Z</time>
      </trkpt>
      <trkpt lat="48.06369" lon="7.02219">
        <ele>1130.96</ele>
        <time>2016-03-07T16:39:34Z</time>
      </trkpt>
      <trkpt lat="48.06379" lon="7.02239">
        <ele>1131.59</ele>
        <time>2016-03-07T16:40:06Z</time>
      </trkpt>
      <trkpt lat="48.06376" lon="7.0226">
        <ele>1131.7</ele>
        <time>2016-03-07T16:40:20Z</time>
      </trkpt>
      <trkpt lat="48.06375" lon="7.02275">
        <ele>1131.61</ele>
        <time>2016-03-07T16:40:34Z</time>
      </trkpt>
      <trkpt lat="48.06376" lon="7.02279">
        <ele>1131.58</ele>
        <time>2016-03-07T16:40:37Z</time>
      </trkpt>
      <trkpt lat="48.06372" lon="7.02306">
        <ele>1131.64</ele>
        <time>2016-03-07T16:40:57Z</time>
      </trkpt>
      <trkpt lat="48.0638" lon="7.02293">
        <ele>1131.44</ele>
        <time>2016-03-07T16:41:48Z</time>
      </trkpt>
      <trkpt lat="48.06377" lon="7.02293">
        <ele>1131.47</ele>
        <time>2016-03-07T16:41:49Z</time>
      </trkpt>
      <trkpt lat="48.06377" lon="7.02294">
        <ele>1131.81</ele>
        <time>2016-03-07T16:41:53Z</time>
      </trkpt>
      <trkpt lat="48.06378" lon="7.02292">
        <ele>1131.82</ele>
        <time>2016-03-07T16:41:54Z</time>
      </trkpt>
      <trkpt lat="48.06377" lon="7.02278">
        <ele>1131.39</ele>
        <time>2016-03-07T16:42:07Z</time>
      </trkpt>
      <trkpt lat="48.06377" lon="7.02258">
        <ele>1130.86</ele>
        <time>2016-03-07T16:42:22Z</time>
      </trkpt>
    </trkseg>
  </trk>
</gpx>